<?xml version="1.0" encoding="UTF-8" standalone="no" ?>
<gpx xmlns="http://www.topografix.com/GPX/1/1" xmlns:xsi="http://www.w3.org/2001/XMLSchema-instance" xsi:schemaLocation="http://www.topografix.com/GPX/1/1 http://www.topografix.com/GPX/1/1/gpx.xsd" version="1.1" creator="VisuGPX - https://www.visugpx.com">
  <metadata>
    <name>F/AM-126 (Pointe Côte de l\'Âne)</name>
    <desc><![CDATA[Est-il possible d\'aller à la Sanguineirette par les crêtes ?]]></desc>
  </metadata>
  <trk>
    <name><![CDATA[2012-07-31-01]]></name>
    <trkseg>
      <trkpt lat="44.24995" lon="6.76469">
        <ele>2012</ele>
        <time>2012-07-31T04:31:47Z</time>
      </trkpt>
      <trkpt lat="44.24995" lon="6.76469">
        <ele>2012</ele>
        <time>2012-07-31T04:31:48Z</time>
      </trkpt>
      <trkpt lat="44.24996" lon="6.76469">
        <ele>2011.4</ele>
        <time>2012-07-31T04:31:49Z</time>
      </trkpt>
      <trkpt lat="44.24997" lon="6.7647">
        <ele>2010.5</ele>
        <time>2012-07-31T04:31:50Z</time>
      </trkpt>
      <trkpt lat="44.24997" lon="6.76471">
        <ele>2009.9</ele>
        <time>2012-07-31T04:31:51Z</time>
      </trkpt>
      <trkpt lat="44.24998" lon="6.76472">
        <ele>2008.8</ele>
        <time>2012-07-31T04:31:52Z</time>
      </trkpt>
      <trkpt lat="44.24998" lon="6.76473">
        <ele>2008</ele>
        <time>2012-07-31T04:31:53Z</time>
      </trkpt>
      <trkpt lat="44.24998" lon="6.76473">
        <ele>2007.8</ele>
        <time>2012-07-31T04:31:54Z</time>
      </trkpt>
      <trkpt lat="44.24999" lon="6.76474">
        <ele>2006.3</ele>
        <time>2012-07-31T04:31:55Z</time>
      </trkpt>
      <trkpt lat="44.24999" lon="6.76474">
        <ele>2005.5</ele>
        <time>2012-07-31T04:31:56Z</time>
      </trkpt>
      <trkpt lat="44.24999" lon="6.76475">
        <ele>2004.5</ele>
        <time>2012-07-31T04:31:57Z</time>
      </trkpt>
      <trkpt lat="44.24999" lon="6.76475">
        <ele>2004</ele>
        <time>2012-07-31T04:31:58Z</time>
      </trkpt>
      <trkpt lat="44.24999" lon="6.76476">
        <ele>2003.5</ele>
        <time>2012-07-31T04:31:59Z</time>
      </trkpt>
      <trkpt lat="44.24999" lon="6.76476">
        <ele>2003</ele>
        <time>2012-07-31T04:32:00Z</time>
      </trkpt>
      <trkpt lat="44.24999" lon="6.76477">
        <ele>2002.3</ele>
        <time>2012-07-31T04:32:01Z</time>
      </trkpt>
      <trkpt lat="44.24999" lon="6.76477">
        <ele>2001.5</ele>
        <time>2012-07-31T04:32:02Z</time>
      </trkpt>
      <trkpt lat="44.25" lon="6.76477">
        <ele>2001.3</ele>
        <time>2012-07-31T04:32:03Z</time>
      </trkpt>
      <trkpt lat="44.25" lon="6.76477">
        <ele>2001</ele>
        <time>2012-07-31T04:32:04Z</time>
      </trkpt>
      <trkpt lat="44.25" lon="6.76477">
        <ele>2000.5</ele>
        <time>2012-07-31T04:32:05Z</time>
      </trkpt>
      <trkpt lat="44.25" lon="6.76478">
        <ele>2000.5</ele>
        <time>2012-07-31T04:32:06Z</time>
      </trkpt>
      <trkpt lat="44.25" lon="6.76478">
        <ele>2000</ele>
        <time>2012-07-31T04:32:07Z</time>
      </trkpt>
      <trkpt lat="44.25" lon="6.76478">
        <ele>2000</ele>
        <time>2012-07-31T04:32:08Z</time>
      </trkpt>
      <trkpt lat="44.25" lon="6.76478">
        <ele>2000</ele>
        <time>2012-07-31T04:32:09Z</time>
      </trkpt>
      <trkpt lat="44.25" lon="6.76478">
        <ele>1999.8</ele>
        <time>2012-07-31T04:32:10Z</time>
      </trkpt>
      <trkpt lat="44.25" lon="6.76478">
        <ele>1999.5</ele>
        <time>2012-07-31T04:32:11Z</time>
      </trkpt>
      <trkpt lat="44.25" lon="6.76478">
        <ele>1999.5</ele>
        <time>2012-07-31T04:32:12Z</time>
      </trkpt>
      <trkpt lat="44.25" lon="6.76478">
        <ele>1999.5</ele>
        <time>2012-07-31T04:32:13Z</time>
      </trkpt>
      <trkpt lat="44.25" lon="6.76478">
        <ele>2000.8</ele>
        <time>2012-07-31T04:32:14Z</time>
      </trkpt>
      <trkpt lat="44.25001" lon="6.76478">
        <ele>2001</ele>
        <time>2012-07-31T04:32:15Z</time>
      </trkpt>
      <trkpt lat="44.25001" lon="6.76477">
        <ele>2002.5</ele>
        <time>2012-07-31T04:32:16Z</time>
      </trkpt>
      <trkpt lat="44.25001" lon="6.76477">
        <ele>2003</ele>
        <time>2012-07-31T04:32:17Z</time>
      </trkpt>
      <trkpt lat="44.25001" lon="6.76476">
        <ele>2005</ele>
        <time>2012-07-31T04:32:18Z</time>
      </trkpt>
      <trkpt lat="44.25001" lon="6.76476">
        <ele>2005.5</ele>
        <time>2012-07-31T04:32:19Z</time>
      </trkpt>
      <trkpt lat="44.25001" lon="6.76474">
        <ele>2008.4</ele>
        <time>2012-07-31T04:32:20Z</time>
      </trkpt>
      <trkpt lat="44.24995" lon="6.76477">
        <ele>1994.3</ele>
        <time>2012-07-31T04:39:54Z</time>
      </trkpt>
      <trkpt lat="44.24995" lon="6.76476">
        <ele>1994</ele>
        <time>2012-07-31T04:39:55Z</time>
      </trkpt>
      <trkpt lat="44.24995" lon="6.76474">
        <ele>1994</ele>
        <time>2012-07-31T04:39:56Z</time>
      </trkpt>
      <trkpt lat="44.24996" lon="6.76472">
        <ele>1993.9</ele>
        <time>2012-07-31T04:39:57Z</time>
      </trkpt>
      <trkpt lat="44.24996" lon="6.76471">
        <ele>1993.8</ele>
        <time>2012-07-31T04:39:58Z</time>
      </trkpt>
      <trkpt lat="44.24996" lon="6.7647">
        <ele>1993.9</ele>
        <time>2012-07-31T04:39:59Z</time>
      </trkpt>
      <trkpt lat="44.24996" lon="6.76468">
        <ele>1993.5</ele>
        <time>2012-07-31T04:40:00Z</time>
      </trkpt>
      <trkpt lat="44.24997" lon="6.76467">
        <ele>1993.3</ele>
        <time>2012-07-31T04:40:01Z</time>
      </trkpt>
      <trkpt lat="44.24997" lon="6.76466">
        <ele>1993</ele>
        <time>2012-07-31T04:40:02Z</time>
      </trkpt>
      <trkpt lat="44.24998" lon="6.76461">
        <ele>1993.8</ele>
        <time>2012-07-31T04:40:05Z</time>
      </trkpt>
      <trkpt lat="44.24999" lon="6.76456">
        <ele>1994.4</ele>
        <time>2012-07-31T04:40:08Z</time>
      </trkpt>
      <trkpt lat="44.24999" lon="6.76455">
        <ele>1994.4</ele>
        <time>2012-07-31T04:40:09Z</time>
      </trkpt>
      <trkpt lat="44.25" lon="6.76452">
        <ele>1994.8</ele>
        <time>2012-07-31T04:40:11Z</time>
      </trkpt>
      <trkpt lat="44.25001" lon="6.76449">
        <ele>1994.9</ele>
        <time>2012-07-31T04:40:13Z</time>
      </trkpt>
      <trkpt lat="44.25002" lon="6.76449">
        <ele>1994.5</ele>
        <time>2012-07-31T04:40:14Z</time>
      </trkpt>
      <trkpt lat="44.25002" lon="6.76449">
        <ele>1994.9</ele>
        <time>2012-07-31T04:40:15Z</time>
      </trkpt>
      <trkpt lat="44.25003" lon="6.7645">
        <ele>1994.5</ele>
        <time>2012-07-31T04:40:16Z</time>
      </trkpt>
      <trkpt lat="44.25003" lon="6.7645">
        <ele>1994.3</ele>
        <time>2012-07-31T04:40:17Z</time>
      </trkpt>
      <trkpt lat="44.25003" lon="6.7645">
        <ele>1994.4</ele>
        <time>2012-07-31T04:40:18Z</time>
      </trkpt>
      <trkpt lat="44.25003" lon="6.7645">
        <ele>1994.5</ele>
        <time>2012-07-31T04:40:19Z</time>
      </trkpt>
      <trkpt lat="44.25003" lon="6.7645">
        <ele>1994.9</ele>
        <time>2012-07-31T04:40:20Z</time>
      </trkpt>
      <trkpt lat="44.25003" lon="6.7645">
        <ele>1995.3</ele>
        <time>2012-07-31T04:40:21Z</time>
      </trkpt>
      <trkpt lat="44.25003" lon="6.7645">
        <ele>1995.5</ele>
        <time>2012-07-31T04:40:22Z</time>
      </trkpt>
      <trkpt lat="44.25003" lon="6.7645">
        <ele>1996</ele>
        <time>2012-07-31T04:40:23Z</time>
      </trkpt>
      <trkpt lat="44.25003" lon="6.7645">
        <ele>1996.4</ele>
        <time>2012-07-31T04:40:24Z</time>
      </trkpt>
      <trkpt lat="44.25003" lon="6.7645">
        <ele>1996.9</ele>
        <time>2012-07-31T04:40:25Z</time>
      </trkpt>
      <trkpt lat="44.25003" lon="6.7645">
        <ele>1996.9</ele>
        <time>2012-07-31T04:40:26Z</time>
      </trkpt>
      <trkpt lat="44.25003" lon="6.7645">
        <ele>1996.9</ele>
        <time>2012-07-31T04:40:27Z</time>
      </trkpt>
      <trkpt lat="44.25003" lon="6.7645">
        <ele>1996.8</ele>
        <time>2012-07-31T04:40:28Z</time>
      </trkpt>
      <trkpt lat="44.25003" lon="6.7645">
        <ele>1996.8</ele>
        <time>2012-07-31T04:40:29Z</time>
      </trkpt>
      <trkpt lat="44.25003" lon="6.7645">
        <ele>1996.8</ele>
        <time>2012-07-31T04:40:30Z</time>
      </trkpt>
      <trkpt lat="44.25003" lon="6.7645">
        <ele>1997.3</ele>
        <time>2012-07-31T04:40:31Z</time>
      </trkpt>
      <trkpt lat="44.25003" lon="6.7645">
        <ele>1997.8</ele>
        <time>2012-07-31T04:40:32Z</time>
      </trkpt>
      <trkpt lat="44.25003" lon="6.76449">
        <ele>1998.3</ele>
        <time>2012-07-31T04:40:33Z</time>
      </trkpt>
      <trkpt lat="44.25003" lon="6.7645">
        <ele>1998</ele>
        <time>2012-07-31T04:40:34Z</time>
      </trkpt>
      <trkpt lat="44.25003" lon="6.7645">
        <ele>1997.9</ele>
        <time>2012-07-31T04:40:35Z</time>
      </trkpt>
      <trkpt lat="44.25004" lon="6.7645">
        <ele>1997.8</ele>
        <time>2012-07-31T04:40:36Z</time>
      </trkpt>
      <trkpt lat="44.25004" lon="6.7645">
        <ele>1997.5</ele>
        <time>2012-07-31T04:40:37Z</time>
      </trkpt>
      <trkpt lat="44.25004" lon="6.7645">
        <ele>1997.5</ele>
        <time>2012-07-31T04:40:38Z</time>
      </trkpt>
      <trkpt lat="44.25004" lon="6.7645">
        <ele>1997.5</ele>
        <time>2012-07-31T04:40:39Z</time>
      </trkpt>
      <trkpt lat="44.25004" lon="6.7645">
        <ele>1997.5</ele>
        <time>2012-07-31T04:40:40Z</time>
      </trkpt>
      <trkpt lat="44.25004" lon="6.7645">
        <ele>1997.5</ele>
        <time>2012-07-31T04:40:41Z</time>
      </trkpt>
      <trkpt lat="44.25004" lon="6.7645">
        <ele>1997.5</ele>
        <time>2012-07-31T04:40:42Z</time>
      </trkpt>
      <trkpt lat="44.25004" lon="6.7645">
        <ele>1997.5</ele>
        <time>2012-07-31T04:40:43Z</time>
      </trkpt>
      <trkpt lat="44.25004" lon="6.7645">
        <ele>1997.8</ele>
        <time>2012-07-31T04:40:44Z</time>
      </trkpt>
      <trkpt lat="44.25004" lon="6.7645">
        <ele>1997.9</ele>
        <time>2012-07-31T04:40:45Z</time>
      </trkpt>
      <trkpt lat="44.25004" lon="6.7645">
        <ele>1998</ele>
        <time>2012-07-31T04:40:46Z</time>
      </trkpt>
      <trkpt lat="44.25004" lon="6.7645">
        <ele>1998</ele>
        <time>2012-07-31T04:40:47Z</time>
      </trkpt>
      <trkpt lat="44.25004" lon="6.7645">
        <ele>1998</ele>
        <time>2012-07-31T04:40:48Z</time>
      </trkpt>
      <trkpt lat="44.25004" lon="6.7645">
        <ele>1998.3</ele>
        <time>2012-07-31T04:40:49Z</time>
      </trkpt>
      <trkpt lat="44.25004" lon="6.7645">
        <ele>1998.4</ele>
        <time>2012-07-31T04:40:50Z</time>
      </trkpt>
      <trkpt lat="44.25004" lon="6.7645">
        <ele>1998.5</ele>
        <time>2012-07-31T04:40:51Z</time>
      </trkpt>
      <trkpt lat="44.25004" lon="6.76449">
        <ele>1999</ele>
        <time>2012-07-31T04:40:52Z</time>
      </trkpt>
      <trkpt lat="44.25004" lon="6.7645">
        <ele>1999.3</ele>
        <time>2012-07-31T04:40:53Z</time>
      </trkpt>
      <trkpt lat="44.25005" lon="6.7645">
        <ele>1999.4</ele>
        <time>2012-07-31T04:40:54Z</time>
      </trkpt>
      <trkpt lat="44.25005" lon="6.7645">
        <ele>1999.5</ele>
        <time>2012-07-31T04:40:55Z</time>
      </trkpt>
      <trkpt lat="44.25005" lon="6.76451">
        <ele>1999.8</ele>
        <time>2012-07-31T04:40:56Z</time>
      </trkpt>
      <trkpt lat="44.25006" lon="6.76451">
        <ele>2000</ele>
        <time>2012-07-31T04:40:57Z</time>
      </trkpt>
      <trkpt lat="44.25006" lon="6.76452">
        <ele>2000.5</ele>
        <time>2012-07-31T04:40:58Z</time>
      </trkpt>
      <trkpt lat="44.25007" lon="6.76453">
        <ele>2000.9</ele>
        <time>2012-07-31T04:40:59Z</time>
      </trkpt>
      <trkpt lat="44.25007" lon="6.76453">
        <ele>2001</ele>
        <time>2012-07-31T04:41:00Z</time>
      </trkpt>
      <trkpt lat="44.25008" lon="6.76454">
        <ele>2001.5</ele>
        <time>2012-07-31T04:41:01Z</time>
      </trkpt>
      <trkpt lat="44.25008" lon="6.76455">
        <ele>2001.4</ele>
        <time>2012-07-31T04:41:02Z</time>
      </trkpt>
      <trkpt lat="44.25008" lon="6.76456">
        <ele>2001.3</ele>
        <time>2012-07-31T04:41:03Z</time>
      </trkpt>
      <trkpt lat="44.25008" lon="6.76456">
        <ele>2001</ele>
        <time>2012-07-31T04:41:04Z</time>
      </trkpt>
      <trkpt lat="44.25008" lon="6.76457">
        <ele>2001</ele>
        <time>2012-07-31T04:41:05Z</time>
      </trkpt>
      <trkpt lat="44.25008" lon="6.76458">
        <ele>2000.9</ele>
        <time>2012-07-31T04:41:06Z</time>
      </trkpt>
      <trkpt lat="44.25008" lon="6.76458">
        <ele>2000.5</ele>
        <time>2012-07-31T04:41:07Z</time>
      </trkpt>
      <trkpt lat="44.25008" lon="6.76459">
        <ele>2000.5</ele>
        <time>2012-07-31T04:41:08Z</time>
      </trkpt>
      <trkpt lat="44.25008" lon="6.7646">
        <ele>2000.5</ele>
        <time>2012-07-31T04:41:09Z</time>
      </trkpt>
      <trkpt lat="44.25009" lon="6.7646">
        <ele>2000.8</ele>
        <time>2012-07-31T04:41:10Z</time>
      </trkpt>
      <trkpt lat="44.25009" lon="6.76461">
        <ele>2000.8</ele>
        <time>2012-07-31T04:41:11Z</time>
      </trkpt>
      <trkpt lat="44.25009" lon="6.76462">
        <ele>2000.5</ele>
        <time>2012-07-31T04:41:12Z</time>
      </trkpt>
      <trkpt lat="44.25009" lon="6.76462">
        <ele>2000.5</ele>
        <time>2012-07-31T04:41:13Z</time>
      </trkpt>
      <trkpt lat="44.2501" lon="6.76463">
        <ele>2000.8</ele>
        <time>2012-07-31T04:41:14Z</time>
      </trkpt>
      <trkpt lat="44.2501" lon="6.76464">
        <ele>2001</ele>
        <time>2012-07-31T04:41:15Z</time>
      </trkpt>
      <trkpt lat="44.25011" lon="6.76464">
        <ele>2001</ele>
        <time>2012-07-31T04:41:16Z</time>
      </trkpt>
      <trkpt lat="44.25011" lon="6.76465">
        <ele>2001.9</ele>
        <time>2012-07-31T04:41:17Z</time>
      </trkpt>
      <trkpt lat="44.25012" lon="6.76466">
        <ele>2002.5</ele>
        <time>2012-07-31T04:41:18Z</time>
      </trkpt>
      <trkpt lat="44.25012" lon="6.76466">
        <ele>2003</ele>
        <time>2012-07-31T04:41:19Z</time>
      </trkpt>
      <trkpt lat="44.25011" lon="6.76468">
        <ele>2004</ele>
        <time>2012-07-31T04:41:20Z</time>
      </trkpt>
      <trkpt lat="44.25011" lon="6.76468">
        <ele>2004.5</ele>
        <time>2012-07-31T04:41:21Z</time>
      </trkpt>
      <trkpt lat="44.25012" lon="6.76468">
        <ele>2004.4</ele>
        <time>2012-07-31T04:41:22Z</time>
      </trkpt>
      <trkpt lat="44.25012" lon="6.76468">
        <ele>2004.8</ele>
        <time>2012-07-31T04:41:23Z</time>
      </trkpt>
      <trkpt lat="44.25012" lon="6.76468">
        <ele>2005</ele>
        <time>2012-07-31T04:41:24Z</time>
      </trkpt>
      <trkpt lat="44.25012" lon="6.76469">
        <ele>2005.4</ele>
        <time>2012-07-31T04:41:25Z</time>
      </trkpt>
      <trkpt lat="44.25012" lon="6.76469">
        <ele>2005.5</ele>
        <time>2012-07-31T04:41:26Z</time>
      </trkpt>
      <trkpt lat="44.25011" lon="6.76469">
        <ele>2005.5</ele>
        <time>2012-07-31T04:41:27Z</time>
      </trkpt>
      <trkpt lat="44.25011" lon="6.76468">
        <ele>2005</ele>
        <time>2012-07-31T04:41:28Z</time>
      </trkpt>
      <trkpt lat="44.25011" lon="6.76468">
        <ele>2004.8</ele>
        <time>2012-07-31T04:41:29Z</time>
      </trkpt>
      <trkpt lat="44.25012" lon="6.76468">
        <ele>2005</ele>
        <time>2012-07-31T04:41:30Z</time>
      </trkpt>
      <trkpt lat="44.25012" lon="6.76468">
        <ele>2005.3</ele>
        <time>2012-07-31T04:41:31Z</time>
      </trkpt>
      <trkpt lat="44.25012" lon="6.76468">
        <ele>2005.5</ele>
        <time>2012-07-31T04:41:32Z</time>
      </trkpt>
      <trkpt lat="44.25012" lon="6.76469">
        <ele>2005.9</ele>
        <time>2012-07-31T04:41:33Z</time>
      </trkpt>
      <trkpt lat="44.25012" lon="6.76469">
        <ele>2006.3</ele>
        <time>2012-07-31T04:41:34Z</time>
      </trkpt>
      <trkpt lat="44.25012" lon="6.76469">
        <ele>2006.5</ele>
        <time>2012-07-31T04:41:35Z</time>
      </trkpt>
      <trkpt lat="44.25012" lon="6.7647">
        <ele>2006.9</ele>
        <time>2012-07-31T04:41:36Z</time>
      </trkpt>
      <trkpt lat="44.25012" lon="6.7647">
        <ele>2007</ele>
        <time>2012-07-31T04:41:37Z</time>
      </trkpt>
      <trkpt lat="44.25011" lon="6.76471">
        <ele>2007</ele>
        <time>2012-07-31T04:41:38Z</time>
      </trkpt>
      <trkpt lat="44.25011" lon="6.76471">
        <ele>2007</ele>
        <time>2012-07-31T04:41:39Z</time>
      </trkpt>
      <trkpt lat="44.25011" lon="6.76472">
        <ele>2007</ele>
        <time>2012-07-31T04:41:40Z</time>
      </trkpt>
      <trkpt lat="44.25011" lon="6.76472">
        <ele>2006.9</ele>
        <time>2012-07-31T04:41:41Z</time>
      </trkpt>
      <trkpt lat="44.2501" lon="6.76472">
        <ele>2006.8</ele>
        <time>2012-07-31T04:41:42Z</time>
      </trkpt>
      <trkpt lat="44.2501" lon="6.76473">
        <ele>2006.5</ele>
        <time>2012-07-31T04:41:43Z</time>
      </trkpt>
      <trkpt lat="44.2501" lon="6.76473">
        <ele>2006.4</ele>
        <time>2012-07-31T04:41:44Z</time>
      </trkpt>
      <trkpt lat="44.25011" lon="6.76473">
        <ele>2006</ele>
        <time>2012-07-31T04:41:45Z</time>
      </trkpt>
      <trkpt lat="44.25012" lon="6.76473">
        <ele>2005.5</ele>
        <time>2012-07-31T04:41:46Z</time>
      </trkpt>
      <trkpt lat="44.25013" lon="6.76474">
        <ele>2005.3</ele>
        <time>2012-07-31T04:41:47Z</time>
      </trkpt>
      <trkpt lat="44.25015" lon="6.76475">
        <ele>2004.4</ele>
        <time>2012-07-31T04:41:50Z</time>
      </trkpt>
      <trkpt lat="44.25024" lon="6.76479">
        <ele>2001.5</ele>
        <time>2012-07-31T04:42:00Z</time>
      </trkpt>
      <trkpt lat="44.25025" lon="6.76479">
        <ele>2000.9</ele>
        <time>2012-07-31T04:42:01Z</time>
      </trkpt>
      <trkpt lat="44.25026" lon="6.7648">
        <ele>2000.5</ele>
        <time>2012-07-31T04:42:02Z</time>
      </trkpt>
      <trkpt lat="44.25027" lon="6.76481">
        <ele>1999.5</ele>
        <time>2012-07-31T04:42:04Z</time>
      </trkpt>
      <trkpt lat="44.25028" lon="6.76481">
        <ele>1999.5</ele>
        <time>2012-07-31T04:42:05Z</time>
      </trkpt>
      <trkpt lat="44.25029" lon="6.76482">
        <ele>1998.5</ele>
        <time>2012-07-31T04:42:06Z</time>
      </trkpt>
      <trkpt lat="44.25029" lon="6.76482">
        <ele>1998.3</ele>
        <time>2012-07-31T04:42:07Z</time>
      </trkpt>
      <trkpt lat="44.2503" lon="6.76483">
        <ele>1998</ele>
        <time>2012-07-31T04:42:08Z</time>
      </trkpt>
      <trkpt lat="44.25031" lon="6.76483">
        <ele>1998</ele>
        <time>2012-07-31T04:42:09Z</time>
      </trkpt>
      <trkpt lat="44.25032" lon="6.76483">
        <ele>1997.9</ele>
        <time>2012-07-31T04:42:10Z</time>
      </trkpt>
      <trkpt lat="44.25033" lon="6.76484">
        <ele>1998</ele>
        <time>2012-07-31T04:42:11Z</time>
      </trkpt>
      <trkpt lat="44.25033" lon="6.76484">
        <ele>1998</ele>
        <time>2012-07-31T04:42:12Z</time>
      </trkpt>
      <trkpt lat="44.25034" lon="6.76485">
        <ele>1998</ele>
        <time>2012-07-31T04:42:13Z</time>
      </trkpt>
      <trkpt lat="44.25035" lon="6.76485">
        <ele>1998.3</ele>
        <time>2012-07-31T04:42:14Z</time>
      </trkpt>
      <trkpt lat="44.25035" lon="6.76486">
        <ele>1998.4</ele>
        <time>2012-07-31T04:42:15Z</time>
      </trkpt>
      <trkpt lat="44.25036" lon="6.76486">
        <ele>1998.4</ele>
        <time>2012-07-31T04:42:16Z</time>
      </trkpt>
      <trkpt lat="44.25036" lon="6.76487">
        <ele>1998.3</ele>
        <time>2012-07-31T04:42:17Z</time>
      </trkpt>
      <trkpt lat="44.25037" lon="6.76487">
        <ele>1998.3</ele>
        <time>2012-07-31T04:42:18Z</time>
      </trkpt>
      <trkpt lat="44.25038" lon="6.76488">
        <ele>1998.3</ele>
        <time>2012-07-31T04:42:19Z</time>
      </trkpt>
      <trkpt lat="44.25039" lon="6.76488">
        <ele>1998</ele>
        <time>2012-07-31T04:42:20Z</time>
      </trkpt>
      <trkpt lat="44.25066" lon="6.76578">
        <ele>2019.3</ele>
        <time>2012-07-31T04:43:51Z</time>
      </trkpt>
      <trkpt lat="44.25066" lon="6.7658">
        <ele>2020.4</ele>
        <time>2012-07-31T04:43:52Z</time>
      </trkpt>
      <trkpt lat="44.25067" lon="6.76581">
        <ele>2021.3</ele>
        <time>2012-07-31T04:43:53Z</time>
      </trkpt>
      <trkpt lat="44.25067" lon="6.76582">
        <ele>2021.5</ele>
        <time>2012-07-31T04:43:54Z</time>
      </trkpt>
      <trkpt lat="44.25067" lon="6.76583">
        <ele>2021.5</ele>
        <time>2012-07-31T04:43:55Z</time>
      </trkpt>
      <trkpt lat="44.25067" lon="6.76585">
        <ele>2021.5</ele>
        <time>2012-07-31T04:43:56Z</time>
      </trkpt>
      <trkpt lat="44.25068" lon="6.76586">
        <ele>2021.4</ele>
        <time>2012-07-31T04:43:57Z</time>
      </trkpt>
      <trkpt lat="44.25068" lon="6.76587">
        <ele>2021</ele>
        <time>2012-07-31T04:43:58Z</time>
      </trkpt>
      <trkpt lat="44.25068" lon="6.76589">
        <ele>2021.5</ele>
        <time>2012-07-31T04:43:59Z</time>
      </trkpt>
      <trkpt lat="44.25069" lon="6.7659">
        <ele>2023</ele>
        <time>2012-07-31T04:44:00Z</time>
      </trkpt>
      <trkpt lat="44.25069" lon="6.76591">
        <ele>2024</ele>
        <time>2012-07-31T04:44:01Z</time>
      </trkpt>
      <trkpt lat="44.2507" lon="6.76591">
        <ele>2025.4</ele>
        <time>2012-07-31T04:44:02Z</time>
      </trkpt>
      <trkpt lat="44.2508" lon="6.76618">
        <ele>2019.4</ele>
        <time>2012-07-31T04:44:27Z</time>
      </trkpt>
      <trkpt lat="44.2508" lon="6.76618">
        <ele>2019.5</ele>
        <time>2012-07-31T04:44:28Z</time>
      </trkpt>
      <trkpt lat="44.2508" lon="6.76619">
        <ele>2021</ele>
        <time>2012-07-31T04:44:29Z</time>
      </trkpt>
      <trkpt lat="44.25079" lon="6.7662">
        <ele>2022.3</ele>
        <time>2012-07-31T04:44:30Z</time>
      </trkpt>
      <trkpt lat="44.25078" lon="6.76621">
        <ele>2024.3</ele>
        <time>2012-07-31T04:44:31Z</time>
      </trkpt>
      <trkpt lat="44.25075" lon="6.76621">
        <ele>2026</ele>
        <time>2012-07-31T04:44:33Z</time>
      </trkpt>
      <trkpt lat="44.25073" lon="6.76621">
        <ele>2026.8</ele>
        <time>2012-07-31T04:44:34Z</time>
      </trkpt>
      <trkpt lat="44.25069" lon="6.76621">
        <ele>2028.5</ele>
        <time>2012-07-31T04:44:37Z</time>
      </trkpt>
      <trkpt lat="44.25067" lon="6.7662">
        <ele>2029.8</ele>
        <time>2012-07-31T04:44:38Z</time>
      </trkpt>
      <trkpt lat="44.25066" lon="6.7662">
        <ele>2030.5</ele>
        <time>2012-07-31T04:44:39Z</time>
      </trkpt>
      <trkpt lat="44.25063" lon="6.76632">
        <ele>2028</ele>
        <time>2012-07-31T04:44:46Z</time>
      </trkpt>
      <trkpt lat="44.25063" lon="6.76634">
        <ele>2027.4</ele>
        <time>2012-07-31T04:44:47Z</time>
      </trkpt>
      <trkpt lat="44.25062" lon="6.76635">
        <ele>2027.5</ele>
        <time>2012-07-31T04:44:48Z</time>
      </trkpt>
      <trkpt lat="44.25061" lon="6.76636">
        <ele>2028.3</ele>
        <time>2012-07-31T04:44:49Z</time>
      </trkpt>
      <trkpt lat="44.25062" lon="6.76637">
        <ele>2028.5</ele>
        <time>2012-07-31T04:44:50Z</time>
      </trkpt>
      <trkpt lat="44.25062" lon="6.76638">
        <ele>2027.8</ele>
        <time>2012-07-31T04:44:51Z</time>
      </trkpt>
      <trkpt lat="44.25061" lon="6.76639">
        <ele>2027.4</ele>
        <time>2012-07-31T04:44:52Z</time>
      </trkpt>
      <trkpt lat="44.25061" lon="6.76641">
        <ele>2027</ele>
        <time>2012-07-31T04:44:53Z</time>
      </trkpt>
      <trkpt lat="44.2506" lon="6.76643">
        <ele>2027</ele>
        <time>2012-07-31T04:44:54Z</time>
      </trkpt>
      <trkpt lat="44.25059" lon="6.76644">
        <ele>2026.5</ele>
        <time>2012-07-31T04:44:55Z</time>
      </trkpt>
      <trkpt lat="44.25058" lon="6.76646">
        <ele>2025.8</ele>
        <time>2012-07-31T04:44:56Z</time>
      </trkpt>
      <trkpt lat="44.25058" lon="6.76647">
        <ele>2024.5</ele>
        <time>2012-07-31T04:44:57Z</time>
      </trkpt>
      <trkpt lat="44.25058" lon="6.76648">
        <ele>2025.3</ele>
        <time>2012-07-31T04:44:58Z</time>
      </trkpt>
      <trkpt lat="44.25058" lon="6.7665">
        <ele>2024.4</ele>
        <time>2012-07-31T04:44:59Z</time>
      </trkpt>
      <trkpt lat="44.25058" lon="6.76652">
        <ele>2023.5</ele>
        <time>2012-07-31T04:45:00Z</time>
      </trkpt>
      <trkpt lat="44.25057" lon="6.76653">
        <ele>2023.5</ele>
        <time>2012-07-31T04:45:01Z</time>
      </trkpt>
      <trkpt lat="44.25057" lon="6.76654">
        <ele>2022.9</ele>
        <time>2012-07-31T04:45:02Z</time>
      </trkpt>
      <trkpt lat="44.25058" lon="6.76655">
        <ele>2020.9</ele>
        <time>2012-07-31T04:45:03Z</time>
      </trkpt>
      <trkpt lat="44.25058" lon="6.76656">
        <ele>2019.3</ele>
        <time>2012-07-31T04:45:04Z</time>
      </trkpt>
      <trkpt lat="44.25058" lon="6.76658">
        <ele>2017.8</ele>
        <time>2012-07-31T04:45:05Z</time>
      </trkpt>
      <trkpt lat="44.25059" lon="6.76659">
        <ele>2016.3</ele>
        <time>2012-07-31T04:45:06Z</time>
      </trkpt>
      <trkpt lat="44.25059" lon="6.7666">
        <ele>2015</ele>
        <time>2012-07-31T04:45:07Z</time>
      </trkpt>
      <trkpt lat="44.2506" lon="6.76661">
        <ele>2014.4</ele>
        <time>2012-07-31T04:45:08Z</time>
      </trkpt>
      <trkpt lat="44.25061" lon="6.76661">
        <ele>2012.9</ele>
        <time>2012-07-31T04:45:09Z</time>
      </trkpt>
      <trkpt lat="44.25061" lon="6.76662">
        <ele>2012</ele>
        <time>2012-07-31T04:45:10Z</time>
      </trkpt>
      <trkpt lat="44.25062" lon="6.76663">
        <ele>2011</ele>
        <time>2012-07-31T04:45:11Z</time>
      </trkpt>
      <trkpt lat="44.25063" lon="6.76663">
        <ele>2010.5</ele>
        <time>2012-07-31T04:45:12Z</time>
      </trkpt>
      <trkpt lat="44.25063" lon="6.76664">
        <ele>2009</ele>
        <time>2012-07-31T04:45:13Z</time>
      </trkpt>
      <trkpt lat="44.25063" lon="6.76665">
        <ele>2008.3</ele>
        <time>2012-07-31T04:45:14Z</time>
      </trkpt>
      <trkpt lat="44.25064" lon="6.76666">
        <ele>2007.5</ele>
        <time>2012-07-31T04:45:15Z</time>
      </trkpt>
      <trkpt lat="44.25065" lon="6.76667">
        <ele>2007</ele>
        <time>2012-07-31T04:45:16Z</time>
      </trkpt>
      <trkpt lat="44.25066" lon="6.76667">
        <ele>2006.3</ele>
        <time>2012-07-31T04:45:17Z</time>
      </trkpt>
      <trkpt lat="44.25066" lon="6.76668">
        <ele>2005.5</ele>
        <time>2012-07-31T04:45:18Z</time>
      </trkpt>
      <trkpt lat="44.25067" lon="6.76669">
        <ele>2005.5</ele>
        <time>2012-07-31T04:45:19Z</time>
      </trkpt>
      <trkpt lat="44.25067" lon="6.7667">
        <ele>2005.3</ele>
        <time>2012-07-31T04:45:20Z</time>
      </trkpt>
      <trkpt lat="44.25068" lon="6.76671">
        <ele>2005</ele>
        <time>2012-07-31T04:45:21Z</time>
      </trkpt>
      <trkpt lat="44.25069" lon="6.76672">
        <ele>2003.5</ele>
        <time>2012-07-31T04:45:22Z</time>
      </trkpt>
      <trkpt lat="44.25069" lon="6.76673">
        <ele>2004</ele>
        <time>2012-07-31T04:45:23Z</time>
      </trkpt>
      <trkpt lat="44.2507" lon="6.76675">
        <ele>2006</ele>
        <time>2012-07-31T04:45:24Z</time>
      </trkpt>
      <trkpt lat="44.25094" lon="6.7673">
        <ele>2020.4</ele>
        <time>2012-07-31T04:46:09Z</time>
      </trkpt>
      <trkpt lat="44.25095" lon="6.76732">
        <ele>2022</ele>
        <time>2012-07-31T04:46:10Z</time>
      </trkpt>
      <trkpt lat="44.25096" lon="6.76734">
        <ele>2023.5</ele>
        <time>2012-07-31T04:46:11Z</time>
      </trkpt>
      <trkpt lat="44.25097" lon="6.76735">
        <ele>2024</ele>
        <time>2012-07-31T04:46:12Z</time>
      </trkpt>
      <trkpt lat="44.25099" lon="6.76737">
        <ele>2025.5</ele>
        <time>2012-07-31T04:46:14Z</time>
      </trkpt>
      <trkpt lat="44.251" lon="6.76738">
        <ele>2026</ele>
        <time>2012-07-31T04:46:15Z</time>
      </trkpt>
      <trkpt lat="44.25101" lon="6.76738">
        <ele>2025.9</ele>
        <time>2012-07-31T04:46:16Z</time>
      </trkpt>
      <trkpt lat="44.25102" lon="6.76739">
        <ele>2025</ele>
        <time>2012-07-31T04:46:17Z</time>
      </trkpt>
      <trkpt lat="44.25103" lon="6.7674">
        <ele>2025.8</ele>
        <time>2012-07-31T04:46:18Z</time>
      </trkpt>
      <trkpt lat="44.25104" lon="6.76742">
        <ele>2027.3</ele>
        <time>2012-07-31T04:46:19Z</time>
      </trkpt>
      <trkpt lat="44.25104" lon="6.76743">
        <ele>2026.9</ele>
        <time>2012-07-31T04:46:20Z</time>
      </trkpt>
      <trkpt lat="44.25105" lon="6.76744">
        <ele>2027.8</ele>
        <time>2012-07-31T04:46:21Z</time>
      </trkpt>
      <trkpt lat="44.25106" lon="6.76744">
        <ele>2027.3</ele>
        <time>2012-07-31T04:46:22Z</time>
      </trkpt>
      <trkpt lat="44.25106" lon="6.76744">
        <ele>2027</ele>
        <time>2012-07-31T04:46:23Z</time>
      </trkpt>
      <trkpt lat="44.25106" lon="6.76745">
        <ele>2026.4</ele>
        <time>2012-07-31T04:46:24Z</time>
      </trkpt>
      <trkpt lat="44.25106" lon="6.76747">
        <ele>2027.9</ele>
        <time>2012-07-31T04:46:25Z</time>
      </trkpt>
      <trkpt lat="44.25106" lon="6.76748">
        <ele>2028.8</ele>
        <time>2012-07-31T04:46:26Z</time>
      </trkpt>
      <trkpt lat="44.25106" lon="6.76749">
        <ele>2028.8</ele>
        <time>2012-07-31T04:46:27Z</time>
      </trkpt>
      <trkpt lat="44.25106" lon="6.7675">
        <ele>2028.9</ele>
        <time>2012-07-31T04:46:28Z</time>
      </trkpt>
      <trkpt lat="44.25106" lon="6.76751">
        <ele>2029.5</ele>
        <time>2012-07-31T04:46:29Z</time>
      </trkpt>
      <trkpt lat="44.25106" lon="6.76752">
        <ele>2030</ele>
        <time>2012-07-31T04:46:30Z</time>
      </trkpt>
      <trkpt lat="44.25105" lon="6.76753">
        <ele>2030</ele>
        <time>2012-07-31T04:46:31Z</time>
      </trkpt>
      <trkpt lat="44.25105" lon="6.76755">
        <ele>2029.8</ele>
        <time>2012-07-31T04:46:32Z</time>
      </trkpt>
      <trkpt lat="44.25105" lon="6.76756">
        <ele>2029.5</ele>
        <time>2012-07-31T04:46:33Z</time>
      </trkpt>
      <trkpt lat="44.25104" lon="6.76758">
        <ele>2029.4</ele>
        <time>2012-07-31T04:46:34Z</time>
      </trkpt>
      <trkpt lat="44.25104" lon="6.76759">
        <ele>2029.5</ele>
        <time>2012-07-31T04:46:35Z</time>
      </trkpt>
      <trkpt lat="44.25105" lon="6.76809">
        <ele>2029</ele>
        <time>2012-07-31T04:47:11Z</time>
      </trkpt>
      <trkpt lat="44.25105" lon="6.76811">
        <ele>2030.4</ele>
        <time>2012-07-31T04:47:12Z</time>
      </trkpt>
      <trkpt lat="44.25107" lon="6.76813">
        <ele>2031</ele>
        <time>2012-07-31T04:47:13Z</time>
      </trkpt>
      <trkpt lat="44.25107" lon="6.76814">
        <ele>2031.9</ele>
        <time>2012-07-31T04:47:14Z</time>
      </trkpt>
      <trkpt lat="44.25108" lon="6.76815">
        <ele>2032.9</ele>
        <time>2012-07-31T04:47:15Z</time>
      </trkpt>
      <trkpt lat="44.25109" lon="6.76816">
        <ele>2034</ele>
        <time>2012-07-31T04:47:16Z</time>
      </trkpt>
      <trkpt lat="44.25109" lon="6.76818">
        <ele>2034.5</ele>
        <time>2012-07-31T04:47:17Z</time>
      </trkpt>
      <trkpt lat="44.2511" lon="6.76819">
        <ele>2035.5</ele>
        <time>2012-07-31T04:47:18Z</time>
      </trkpt>
      <trkpt lat="44.25115" lon="6.76853">
        <ele>2033.4</ele>
        <time>2012-07-31T04:47:48Z</time>
      </trkpt>
      <trkpt lat="44.25114" lon="6.76855">
        <ele>2032.9</ele>
        <time>2012-07-31T04:47:49Z</time>
      </trkpt>
      <trkpt lat="44.25111" lon="6.76865">
        <ele>2030.3</ele>
        <time>2012-07-31T04:47:54Z</time>
      </trkpt>
      <trkpt lat="44.25111" lon="6.76867">
        <ele>2030.4</ele>
        <time>2012-07-31T04:47:55Z</time>
      </trkpt>
      <trkpt lat="44.25111" lon="6.76868">
        <ele>2029.5</ele>
        <time>2012-07-31T04:47:56Z</time>
      </trkpt>
      <trkpt lat="44.2511" lon="6.7687">
        <ele>2029.5</ele>
        <time>2012-07-31T04:47:57Z</time>
      </trkpt>
      <trkpt lat="44.2511" lon="6.76872">
        <ele>2029.5</ele>
        <time>2012-07-31T04:47:58Z</time>
      </trkpt>
      <trkpt lat="44.25109" lon="6.76874">
        <ele>2029</ele>
        <time>2012-07-31T04:47:59Z</time>
      </trkpt>
      <trkpt lat="44.25109" lon="6.76875">
        <ele>2029</ele>
        <time>2012-07-31T04:48:00Z</time>
      </trkpt>
      <trkpt lat="44.25109" lon="6.76876">
        <ele>2028.5</ele>
        <time>2012-07-31T04:48:01Z</time>
      </trkpt>
      <trkpt lat="44.25109" lon="6.76878">
        <ele>2028.5</ele>
        <time>2012-07-31T04:48:02Z</time>
      </trkpt>
      <trkpt lat="44.25109" lon="6.76879">
        <ele>2028.3</ele>
        <time>2012-07-31T04:48:03Z</time>
      </trkpt>
      <trkpt lat="44.2511" lon="6.76883">
        <ele>2028</ele>
        <time>2012-07-31T04:48:06Z</time>
      </trkpt>
      <trkpt lat="44.25111" lon="6.76885">
        <ele>2027.5</ele>
        <time>2012-07-31T04:48:07Z</time>
      </trkpt>
      <trkpt lat="44.25111" lon="6.76887">
        <ele>2029.8</ele>
        <time>2012-07-31T04:48:08Z</time>
      </trkpt>
      <trkpt lat="44.25112" lon="6.76889">
        <ele>2030</ele>
        <time>2012-07-31T04:48:09Z</time>
      </trkpt>
      <trkpt lat="44.25113" lon="6.76891">
        <ele>2031</ele>
        <time>2012-07-31T04:48:10Z</time>
      </trkpt>
      <trkpt lat="44.25113" lon="6.76892">
        <ele>2031.5</ele>
        <time>2012-07-31T04:48:11Z</time>
      </trkpt>
      <trkpt lat="44.25114" lon="6.76893">
        <ele>2031.4</ele>
        <time>2012-07-31T04:48:12Z</time>
      </trkpt>
      <trkpt lat="44.25134" lon="6.76906">
        <ele>2036.9</ele>
        <time>2012-07-31T04:48:31Z</time>
      </trkpt>
      <trkpt lat="44.25135" lon="6.76906">
        <ele>2036.9</ele>
        <time>2012-07-31T04:48:32Z</time>
      </trkpt>
      <trkpt lat="44.25136" lon="6.76907">
        <ele>2037.5</ele>
        <time>2012-07-31T04:48:33Z</time>
      </trkpt>
      <trkpt lat="44.25137" lon="6.76908">
        <ele>2037.8</ele>
        <time>2012-07-31T04:48:34Z</time>
      </trkpt>
      <trkpt lat="44.25138" lon="6.76908">
        <ele>2037.8</ele>
        <time>2012-07-31T04:48:35Z</time>
      </trkpt>
      <trkpt lat="44.25138" lon="6.76909">
        <ele>2038.4</ele>
        <time>2012-07-31T04:48:36Z</time>
      </trkpt>
      <trkpt lat="44.25139" lon="6.7691">
        <ele>2039.3</ele>
        <time>2012-07-31T04:48:37Z</time>
      </trkpt>
      <trkpt lat="44.25139" lon="6.76911">
        <ele>2040</ele>
        <time>2012-07-31T04:48:38Z</time>
      </trkpt>
      <trkpt lat="44.2514" lon="6.76912">
        <ele>2041</ele>
        <time>2012-07-31T04:48:39Z</time>
      </trkpt>
      <trkpt lat="44.25141" lon="6.76914">
        <ele>2041.8</ele>
        <time>2012-07-31T04:48:40Z</time>
      </trkpt>
      <trkpt lat="44.25141" lon="6.76915">
        <ele>2041.8</ele>
        <time>2012-07-31T04:48:41Z</time>
      </trkpt>
      <trkpt lat="44.25143" lon="6.76916">
        <ele>2041.8</ele>
        <time>2012-07-31T04:48:42Z</time>
      </trkpt>
      <trkpt lat="44.25151" lon="6.76928">
        <ele>2033.3</ele>
        <time>2012-07-31T04:48:56Z</time>
      </trkpt>
      <trkpt lat="44.25152" lon="6.76929">
        <ele>2032</ele>
        <time>2012-07-31T04:48:57Z</time>
      </trkpt>
      <trkpt lat="44.25153" lon="6.76929">
        <ele>2031.9</ele>
        <time>2012-07-31T04:48:58Z</time>
      </trkpt>
      <trkpt lat="44.25154" lon="6.7693">
        <ele>2032.5</ele>
        <time>2012-07-31T04:48:59Z</time>
      </trkpt>
      <trkpt lat="44.25155" lon="6.76931">
        <ele>2033.5</ele>
        <time>2012-07-31T04:49:00Z</time>
      </trkpt>
      <trkpt lat="44.25156" lon="6.76932">
        <ele>2033.5</ele>
        <time>2012-07-31T04:49:01Z</time>
      </trkpt>
      <trkpt lat="44.25157" lon="6.76933">
        <ele>2032.9</ele>
        <time>2012-07-31T04:49:02Z</time>
      </trkpt>
      <trkpt lat="44.25158" lon="6.76933">
        <ele>2032.9</ele>
        <time>2012-07-31T04:49:03Z</time>
      </trkpt>
      <trkpt lat="44.2516" lon="6.76935">
        <ele>2034</ele>
        <time>2012-07-31T04:49:04Z</time>
      </trkpt>
      <trkpt lat="44.25161" lon="6.76936">
        <ele>2034.8</ele>
        <time>2012-07-31T04:49:05Z</time>
      </trkpt>
      <trkpt lat="44.25162" lon="6.76937">
        <ele>2034.4</ele>
        <time>2012-07-31T04:49:06Z</time>
      </trkpt>
      <trkpt lat="44.25162" lon="6.76938">
        <ele>2034.4</ele>
        <time>2012-07-31T04:49:07Z</time>
      </trkpt>
      <trkpt lat="44.25163" lon="6.76939">
        <ele>2034.3</ele>
        <time>2012-07-31T04:49:08Z</time>
      </trkpt>
      <trkpt lat="44.25164" lon="6.7694">
        <ele>2034</ele>
        <time>2012-07-31T04:49:09Z</time>
      </trkpt>
      <trkpt lat="44.25164" lon="6.7694">
        <ele>2033.5</ele>
        <time>2012-07-31T04:49:10Z</time>
      </trkpt>
      <trkpt lat="44.25164" lon="6.76941">
        <ele>2033.5</ele>
        <time>2012-07-31T04:49:11Z</time>
      </trkpt>
      <trkpt lat="44.25165" lon="6.76942">
        <ele>2033.5</ele>
        <time>2012-07-31T04:49:12Z</time>
      </trkpt>
      <trkpt lat="44.25165" lon="6.76943">
        <ele>2033.5</ele>
        <time>2012-07-31T04:49:13Z</time>
      </trkpt>
      <trkpt lat="44.25166" lon="6.76944">
        <ele>2033</ele>
        <time>2012-07-31T04:49:14Z</time>
      </trkpt>
      <trkpt lat="44.25166" lon="6.76945">
        <ele>2032.9</ele>
        <time>2012-07-31T04:49:15Z</time>
      </trkpt>
      <trkpt lat="44.25166" lon="6.76947">
        <ele>2034</ele>
        <time>2012-07-31T04:49:16Z</time>
      </trkpt>
      <trkpt lat="44.25167" lon="6.76948">
        <ele>2033.4</ele>
        <time>2012-07-31T04:49:17Z</time>
      </trkpt>
      <trkpt lat="44.25167" lon="6.76949">
        <ele>2032.8</ele>
        <time>2012-07-31T04:49:18Z</time>
      </trkpt>
      <trkpt lat="44.25167" lon="6.7695">
        <ele>2032.4</ele>
        <time>2012-07-31T04:49:19Z</time>
      </trkpt>
      <trkpt lat="44.25168" lon="6.76951">
        <ele>2031.5</ele>
        <time>2012-07-31T04:49:20Z</time>
      </trkpt>
      <trkpt lat="44.25168" lon="6.76951">
        <ele>2031</ele>
        <time>2012-07-31T04:49:21Z</time>
      </trkpt>
      <trkpt lat="44.25167" lon="6.76952">
        <ele>2029.9</ele>
        <time>2012-07-31T04:49:22Z</time>
      </trkpt>
      <trkpt lat="44.25167" lon="6.76953">
        <ele>2029</ele>
        <time>2012-07-31T04:49:23Z</time>
      </trkpt>
      <trkpt lat="44.25168" lon="6.76955">
        <ele>2028</ele>
        <time>2012-07-31T04:49:24Z</time>
      </trkpt>
      <trkpt lat="44.25168" lon="6.76955">
        <ele>2027.5</ele>
        <time>2012-07-31T04:49:25Z</time>
      </trkpt>
      <trkpt lat="44.25168" lon="6.76956">
        <ele>2027</ele>
        <time>2012-07-31T04:49:26Z</time>
      </trkpt>
      <trkpt lat="44.25168" lon="6.76957">
        <ele>2026.3</ele>
        <time>2012-07-31T04:49:27Z</time>
      </trkpt>
      <trkpt lat="44.25169" lon="6.76958">
        <ele>2025.9</ele>
        <time>2012-07-31T04:49:28Z</time>
      </trkpt>
      <trkpt lat="44.25169" lon="6.76959">
        <ele>2025.3</ele>
        <time>2012-07-31T04:49:29Z</time>
      </trkpt>
      <trkpt lat="44.25169" lon="6.76959">
        <ele>2024.8</ele>
        <time>2012-07-31T04:49:30Z</time>
      </trkpt>
      <trkpt lat="44.25169" lon="6.7696">
        <ele>2024</ele>
        <time>2012-07-31T04:49:31Z</time>
      </trkpt>
      <trkpt lat="44.2517" lon="6.76961">
        <ele>2023.5</ele>
        <time>2012-07-31T04:49:32Z</time>
      </trkpt>
      <trkpt lat="44.2517" lon="6.76962">
        <ele>2022.9</ele>
        <time>2012-07-31T04:49:33Z</time>
      </trkpt>
      <trkpt lat="44.25171" lon="6.76963">
        <ele>2021.9</ele>
        <time>2012-07-31T04:49:34Z</time>
      </trkpt>
      <trkpt lat="44.25171" lon="6.76963">
        <ele>2021</ele>
        <time>2012-07-31T04:49:35Z</time>
      </trkpt>
      <trkpt lat="44.25173" lon="6.76974">
        <ele>2019</ele>
        <time>2012-07-31T04:49:44Z</time>
      </trkpt>
      <trkpt lat="44.25174" lon="6.76976">
        <ele>2018.9</ele>
        <time>2012-07-31T04:49:45Z</time>
      </trkpt>
      <trkpt lat="44.25174" lon="6.76978">
        <ele>2021</ele>
        <time>2012-07-31T04:49:46Z</time>
      </trkpt>
      <trkpt lat="44.25174" lon="6.7698">
        <ele>2022.5</ele>
        <time>2012-07-31T04:49:47Z</time>
      </trkpt>
      <trkpt lat="44.25175" lon="6.76981">
        <ele>2021.5</ele>
        <time>2012-07-31T04:49:48Z</time>
      </trkpt>
      <trkpt lat="44.25175" lon="6.76982">
        <ele>2021.3</ele>
        <time>2012-07-31T04:49:49Z</time>
      </trkpt>
      <trkpt lat="44.25176" lon="6.76983">
        <ele>2021</ele>
        <time>2012-07-31T04:49:50Z</time>
      </trkpt>
      <trkpt lat="44.25177" lon="6.76984">
        <ele>2021.9</ele>
        <time>2012-07-31T04:49:51Z</time>
      </trkpt>
      <trkpt lat="44.25177" lon="6.76986">
        <ele>2022</ele>
        <time>2012-07-31T04:49:52Z</time>
      </trkpt>
      <trkpt lat="44.25178" lon="6.76988">
        <ele>2024.8</ele>
        <time>2012-07-31T04:49:53Z</time>
      </trkpt>
      <trkpt lat="44.25179" lon="6.7699">
        <ele>2026.9</ele>
        <time>2012-07-31T04:49:54Z</time>
      </trkpt>
      <trkpt lat="44.25179" lon="6.76991">
        <ele>2027</ele>
        <time>2012-07-31T04:49:55Z</time>
      </trkpt>
      <trkpt lat="44.25179" lon="6.76991">
        <ele>2027.5</ele>
        <time>2012-07-31T04:49:56Z</time>
      </trkpt>
      <trkpt lat="44.25178" lon="6.76993">
        <ele>2030</ele>
        <time>2012-07-31T04:49:57Z</time>
      </trkpt>
      <trkpt lat="44.25178" lon="6.76994">
        <ele>2032.5</ele>
        <time>2012-07-31T04:49:58Z</time>
      </trkpt>
      <trkpt lat="44.25177" lon="6.76996">
        <ele>2034.8</ele>
        <time>2012-07-31T04:49:59Z</time>
      </trkpt>
      <trkpt lat="44.25178" lon="6.76996">
        <ele>2035.4</ele>
        <time>2012-07-31T04:50:00Z</time>
      </trkpt>
      <trkpt lat="44.25178" lon="6.76996">
        <ele>2035.5</ele>
        <time>2012-07-31T04:50:01Z</time>
      </trkpt>
      <trkpt lat="44.25178" lon="6.76996">
        <ele>2035.5</ele>
        <time>2012-07-31T04:50:02Z</time>
      </trkpt>
      <trkpt lat="44.25178" lon="6.76996">
        <ele>2035.9</ele>
        <time>2012-07-31T04:50:03Z</time>
      </trkpt>
      <trkpt lat="44.25178" lon="6.76996">
        <ele>2036</ele>
        <time>2012-07-31T04:50:04Z</time>
      </trkpt>
      <trkpt lat="44.25178" lon="6.76996">
        <ele>2036</ele>
        <time>2012-07-31T04:50:05Z</time>
      </trkpt>
      <trkpt lat="44.25179" lon="6.76996">
        <ele>2036.3</ele>
        <time>2012-07-31T04:50:06Z</time>
      </trkpt>
      <trkpt lat="44.25179" lon="6.76996">
        <ele>2036.4</ele>
        <time>2012-07-31T04:50:07Z</time>
      </trkpt>
      <trkpt lat="44.25179" lon="6.76996">
        <ele>2036.5</ele>
        <time>2012-07-31T04:50:08Z</time>
      </trkpt>
      <trkpt lat="44.25179" lon="6.76996">
        <ele>2036.5</ele>
        <time>2012-07-31T04:50:09Z</time>
      </trkpt>
      <trkpt lat="44.25179" lon="6.76996">
        <ele>2036.5</ele>
        <time>2012-07-31T04:50:10Z</time>
      </trkpt>
      <trkpt lat="44.25179" lon="6.76996">
        <ele>2036.5</ele>
        <time>2012-07-31T04:50:11Z</time>
      </trkpt>
      <trkpt lat="44.2518" lon="6.76996">
        <ele>2036.4</ele>
        <time>2012-07-31T04:50:12Z</time>
      </trkpt>
      <trkpt lat="44.2518" lon="6.76996">
        <ele>2036</ele>
        <time>2012-07-31T04:50:13Z</time>
      </trkpt>
      <trkpt lat="44.2518" lon="6.76996">
        <ele>2035.9</ele>
        <time>2012-07-31T04:50:14Z</time>
      </trkpt>
      <trkpt lat="44.2518" lon="6.76996">
        <ele>2035.8</ele>
        <time>2012-07-31T04:50:15Z</time>
      </trkpt>
      <trkpt lat="44.2518" lon="6.76996">
        <ele>2035.9</ele>
        <time>2012-07-31T04:50:16Z</time>
      </trkpt>
      <trkpt lat="44.2518" lon="6.76996">
        <ele>2036</ele>
        <time>2012-07-31T04:50:17Z</time>
      </trkpt>
      <trkpt lat="44.2518" lon="6.76997">
        <ele>2036</ele>
        <time>2012-07-31T04:50:18Z</time>
      </trkpt>
      <trkpt lat="44.2518" lon="6.76997">
        <ele>2036</ele>
        <time>2012-07-31T04:50:19Z</time>
      </trkpt>
      <trkpt lat="44.2518" lon="6.76997">
        <ele>2036.4</ele>
        <time>2012-07-31T04:50:20Z</time>
      </trkpt>
      <trkpt lat="44.2518" lon="6.76997">
        <ele>2036.5</ele>
        <time>2012-07-31T04:50:21Z</time>
      </trkpt>
      <trkpt lat="44.2518" lon="6.76996">
        <ele>2036.5</ele>
        <time>2012-07-31T04:50:22Z</time>
      </trkpt>
      <trkpt lat="44.25181" lon="6.76996">
        <ele>2036.4</ele>
        <time>2012-07-31T04:50:23Z</time>
      </trkpt>
      <trkpt lat="44.25182" lon="6.76996">
        <ele>2036.5</ele>
        <time>2012-07-31T04:50:24Z</time>
      </trkpt>
      <trkpt lat="44.25183" lon="6.76996">
        <ele>2036.9</ele>
        <time>2012-07-31T04:50:25Z</time>
      </trkpt>
      <trkpt lat="44.25184" lon="6.76995">
        <ele>2036.5</ele>
        <time>2012-07-31T04:50:26Z</time>
      </trkpt>
      <trkpt lat="44.25185" lon="6.76995">
        <ele>2036.4</ele>
        <time>2012-07-31T04:50:27Z</time>
      </trkpt>
      <trkpt lat="44.25186" lon="6.76996">
        <ele>2039</ele>
        <time>2012-07-31T04:50:28Z</time>
      </trkpt>
      <trkpt lat="44.25187" lon="6.76997">
        <ele>2041.5</ele>
        <time>2012-07-31T04:50:29Z</time>
      </trkpt>
      <trkpt lat="44.25188" lon="6.76998">
        <ele>2042.5</ele>
        <time>2012-07-31T04:50:30Z</time>
      </trkpt>
      <trkpt lat="44.25189" lon="6.76999">
        <ele>2043</ele>
        <time>2012-07-31T04:50:31Z</time>
      </trkpt>
      <trkpt lat="44.25189" lon="6.77">
        <ele>2043</ele>
        <time>2012-07-31T04:50:32Z</time>
      </trkpt>
      <trkpt lat="44.2519" lon="6.77001">
        <ele>2043.5</ele>
        <time>2012-07-31T04:50:33Z</time>
      </trkpt>
      <trkpt lat="44.2519" lon="6.77003">
        <ele>2044.8</ele>
        <time>2012-07-31T04:50:34Z</time>
      </trkpt>
      <trkpt lat="44.25191" lon="6.77004">
        <ele>2044.5</ele>
        <time>2012-07-31T04:50:35Z</time>
      </trkpt>
      <trkpt lat="44.25191" lon="6.77006">
        <ele>2044</ele>
        <time>2012-07-31T04:50:36Z</time>
      </trkpt>
      <trkpt lat="44.25191" lon="6.77007">
        <ele>2043.8</ele>
        <time>2012-07-31T04:50:37Z</time>
      </trkpt>
      <trkpt lat="44.25192" lon="6.77008">
        <ele>2043.5</ele>
        <time>2012-07-31T04:50:38Z</time>
      </trkpt>
      <trkpt lat="44.25192" lon="6.7701">
        <ele>2043.9</ele>
        <time>2012-07-31T04:50:39Z</time>
      </trkpt>
      <trkpt lat="44.25193" lon="6.77011">
        <ele>2044</ele>
        <time>2012-07-31T04:50:40Z</time>
      </trkpt>
      <trkpt lat="44.25194" lon="6.77012">
        <ele>2045</ele>
        <time>2012-07-31T04:50:41Z</time>
      </trkpt>
      <trkpt lat="44.25195" lon="6.77014">
        <ele>2046</ele>
        <time>2012-07-31T04:50:42Z</time>
      </trkpt>
      <trkpt lat="44.25196" lon="6.77016">
        <ele>2047.4</ele>
        <time>2012-07-31T04:50:43Z</time>
      </trkpt>
      <trkpt lat="44.25196" lon="6.77017">
        <ele>2046.5</ele>
        <time>2012-07-31T04:50:44Z</time>
      </trkpt>
      <trkpt lat="44.25196" lon="6.77019">
        <ele>2047</ele>
        <time>2012-07-31T04:50:45Z</time>
      </trkpt>
      <trkpt lat="44.25197" lon="6.7702">
        <ele>2046.9</ele>
        <time>2012-07-31T04:50:46Z</time>
      </trkpt>
      <trkpt lat="44.25197" lon="6.7702">
        <ele>2046.5</ele>
        <time>2012-07-31T04:50:47Z</time>
      </trkpt>
      <trkpt lat="44.25197" lon="6.77022">
        <ele>2046</ele>
        <time>2012-07-31T04:50:48Z</time>
      </trkpt>
      <trkpt lat="44.25198" lon="6.77023">
        <ele>2045.8</ele>
        <time>2012-07-31T04:50:49Z</time>
      </trkpt>
      <trkpt lat="44.25198" lon="6.77025">
        <ele>2046.5</ele>
        <time>2012-07-31T04:50:50Z</time>
      </trkpt>
      <trkpt lat="44.25199" lon="6.77026">
        <ele>2046.3</ele>
        <time>2012-07-31T04:50:51Z</time>
      </trkpt>
      <trkpt lat="44.252" lon="6.77027">
        <ele>2046</ele>
        <time>2012-07-31T04:50:52Z</time>
      </trkpt>
      <trkpt lat="44.252" lon="6.77028">
        <ele>2045.4</ele>
        <time>2012-07-31T04:50:53Z</time>
      </trkpt>
      <trkpt lat="44.25201" lon="6.77029">
        <ele>2044.4</ele>
        <time>2012-07-31T04:50:54Z</time>
      </trkpt>
      <trkpt lat="44.25219" lon="6.77055">
        <ele>2042.8</ele>
        <time>2012-07-31T04:51:20Z</time>
      </trkpt>
      <trkpt lat="44.2522" lon="6.77055">
        <ele>2042.5</ele>
        <time>2012-07-31T04:51:21Z</time>
      </trkpt>
      <trkpt lat="44.25221" lon="6.77055">
        <ele>2042.5</ele>
        <time>2012-07-31T04:51:22Z</time>
      </trkpt>
      <trkpt lat="44.25221" lon="6.77056">
        <ele>2042.4</ele>
        <time>2012-07-31T04:51:23Z</time>
      </trkpt>
      <trkpt lat="44.25222" lon="6.77056">
        <ele>2041.8</ele>
        <time>2012-07-31T04:51:24Z</time>
      </trkpt>
      <trkpt lat="44.25223" lon="6.77056">
        <ele>2042.9</ele>
        <time>2012-07-31T04:51:25Z</time>
      </trkpt>
      <trkpt lat="44.25224" lon="6.77056">
        <ele>2043</ele>
        <time>2012-07-31T04:51:26Z</time>
      </trkpt>
      <trkpt lat="44.25225" lon="6.77056">
        <ele>2043.3</ele>
        <time>2012-07-31T04:51:27Z</time>
      </trkpt>
      <trkpt lat="44.25226" lon="6.77055">
        <ele>2043</ele>
        <time>2012-07-31T04:51:28Z</time>
      </trkpt>
      <trkpt lat="44.25227" lon="6.77055">
        <ele>2042.5</ele>
        <time>2012-07-31T04:51:29Z</time>
      </trkpt>
      <trkpt lat="44.25227" lon="6.77056">
        <ele>2042.8</ele>
        <time>2012-07-31T04:51:30Z</time>
      </trkpt>
      <trkpt lat="44.25228" lon="6.77056">
        <ele>2042.5</ele>
        <time>2012-07-31T04:51:31Z</time>
      </trkpt>
      <trkpt lat="44.25229" lon="6.77056">
        <ele>2042</ele>
        <time>2012-07-31T04:51:32Z</time>
      </trkpt>
      <trkpt lat="44.2523" lon="6.77056">
        <ele>2041.4</ele>
        <time>2012-07-31T04:51:33Z</time>
      </trkpt>
      <trkpt lat="44.25231" lon="6.77057">
        <ele>2040.9</ele>
        <time>2012-07-31T04:51:34Z</time>
      </trkpt>
      <trkpt lat="44.25232" lon="6.77057">
        <ele>2040.8</ele>
        <time>2012-07-31T04:51:35Z</time>
      </trkpt>
      <trkpt lat="44.25234" lon="6.77057">
        <ele>2041</ele>
        <time>2012-07-31T04:51:36Z</time>
      </trkpt>
      <trkpt lat="44.25235" lon="6.77057">
        <ele>2041</ele>
        <time>2012-07-31T04:51:37Z</time>
      </trkpt>
      <trkpt lat="44.25237" lon="6.77057">
        <ele>2040.9</ele>
        <time>2012-07-31T04:51:38Z</time>
      </trkpt>
      <trkpt lat="44.25239" lon="6.77057">
        <ele>2041.5</ele>
        <time>2012-07-31T04:51:39Z</time>
      </trkpt>
      <trkpt lat="44.25241" lon="6.77058">
        <ele>2042.5</ele>
        <time>2012-07-31T04:51:40Z</time>
      </trkpt>
      <trkpt lat="44.25241" lon="6.77058">
        <ele>2043.4</ele>
        <time>2012-07-31T04:51:41Z</time>
      </trkpt>
      <trkpt lat="44.25242" lon="6.77059">
        <ele>2045.3</ele>
        <time>2012-07-31T04:51:42Z</time>
      </trkpt>
      <trkpt lat="44.25242" lon="6.7706">
        <ele>2046.5</ele>
        <time>2012-07-31T04:51:43Z</time>
      </trkpt>
      <trkpt lat="44.25243" lon="6.7706">
        <ele>2047</ele>
        <time>2012-07-31T04:51:44Z</time>
      </trkpt>
      <trkpt lat="44.25244" lon="6.7706">
        <ele>2046.5</ele>
        <time>2012-07-31T04:51:45Z</time>
      </trkpt>
      <trkpt lat="44.25246" lon="6.77061">
        <ele>2048.6</ele>
        <time>2012-07-31T04:51:46Z</time>
      </trkpt>
      <trkpt lat="44.25247" lon="6.77061">
        <ele>2049.1</ele>
        <time>2012-07-31T04:51:47Z</time>
      </trkpt>
      <trkpt lat="44.25248" lon="6.77061">
        <ele>2048.6</ele>
        <time>2012-07-31T04:51:48Z</time>
      </trkpt>
      <trkpt lat="44.25249" lon="6.77062">
        <ele>2049.6</ele>
        <time>2012-07-31T04:51:49Z</time>
      </trkpt>
      <trkpt lat="44.25249" lon="6.77062">
        <ele>2049.1</ele>
        <time>2012-07-31T04:51:50Z</time>
      </trkpt>
      <trkpt lat="44.2525" lon="6.77063">
        <ele>2048.6</ele>
        <time>2012-07-31T04:51:51Z</time>
      </trkpt>
      <trkpt lat="44.2525" lon="6.77064">
        <ele>2048.1</ele>
        <time>2012-07-31T04:51:52Z</time>
      </trkpt>
      <trkpt lat="44.25252" lon="6.77065">
        <ele>2049.6</ele>
        <time>2012-07-31T04:51:53Z</time>
      </trkpt>
      <trkpt lat="44.25252" lon="6.77066">
        <ele>2050.6</ele>
        <time>2012-07-31T04:51:54Z</time>
      </trkpt>
      <trkpt lat="44.25253" lon="6.77067">
        <ele>2051.3</ele>
        <time>2012-07-31T04:51:55Z</time>
      </trkpt>
      <trkpt lat="44.25253" lon="6.77069">
        <ele>2052.1</ele>
        <time>2012-07-31T04:51:56Z</time>
      </trkpt>
      <trkpt lat="44.25254" lon="6.7707">
        <ele>2053.3</ele>
        <time>2012-07-31T04:51:57Z</time>
      </trkpt>
      <trkpt lat="44.25255" lon="6.77071">
        <ele>2054.8</ele>
        <time>2012-07-31T04:51:58Z</time>
      </trkpt>
      <trkpt lat="44.25256" lon="6.77072">
        <ele>2056.1</ele>
        <time>2012-07-31T04:51:59Z</time>
      </trkpt>
      <trkpt lat="44.25257" lon="6.77072">
        <ele>2056.8</ele>
        <time>2012-07-31T04:52:00Z</time>
      </trkpt>
      <trkpt lat="44.25257" lon="6.77074">
        <ele>2058.3</ele>
        <time>2012-07-31T04:52:01Z</time>
      </trkpt>
      <trkpt lat="44.25258" lon="6.77076">
        <ele>2059.8</ele>
        <time>2012-07-31T04:52:02Z</time>
      </trkpt>
      <trkpt lat="44.25259" lon="6.77077">
        <ele>2061.1</ele>
        <time>2012-07-31T04:52:03Z</time>
      </trkpt>
      <trkpt lat="44.2526" lon="6.77079">
        <ele>2061</ele>
        <time>2012-07-31T04:52:04Z</time>
      </trkpt>
      <trkpt lat="44.2526" lon="6.77079">
        <ele>2060.6</ele>
        <time>2012-07-31T04:52:05Z</time>
      </trkpt>
      <trkpt lat="44.2526" lon="6.77081">
        <ele>2061.1</ele>
        <time>2012-07-31T04:52:06Z</time>
      </trkpt>
      <trkpt lat="44.2526" lon="6.77082">
        <ele>2061.1</ele>
        <time>2012-07-31T04:52:07Z</time>
      </trkpt>
      <trkpt lat="44.25261" lon="6.77082">
        <ele>2061.3</ele>
        <time>2012-07-31T04:52:08Z</time>
      </trkpt>
      <trkpt lat="44.25261" lon="6.77082">
        <ele>2060.8</ele>
        <time>2012-07-31T04:52:09Z</time>
      </trkpt>
      <trkpt lat="44.25262" lon="6.77083">
        <ele>2061</ele>
        <time>2012-07-31T04:52:10Z</time>
      </trkpt>
      <trkpt lat="44.25263" lon="6.77084">
        <ele>2061.6</ele>
        <time>2012-07-31T04:52:11Z</time>
      </trkpt>
      <trkpt lat="44.25263" lon="6.77085">
        <ele>2062.6</ele>
        <time>2012-07-31T04:52:12Z</time>
      </trkpt>
      <trkpt lat="44.25264" lon="6.77086">
        <ele>2062.8</ele>
        <time>2012-07-31T04:52:13Z</time>
      </trkpt>
      <trkpt lat="44.25265" lon="6.77087">
        <ele>2063.1</ele>
        <time>2012-07-31T04:52:14Z</time>
      </trkpt>
      <trkpt lat="44.25265" lon="6.77089">
        <ele>2063.5</ele>
        <time>2012-07-31T04:52:15Z</time>
      </trkpt>
      <trkpt lat="44.25266" lon="6.7709">
        <ele>2064.1</ele>
        <time>2012-07-31T04:52:16Z</time>
      </trkpt>
      <trkpt lat="44.25267" lon="6.77091">
        <ele>2064.8</ele>
        <time>2012-07-31T04:52:17Z</time>
      </trkpt>
      <trkpt lat="44.25268" lon="6.77093">
        <ele>2065.6</ele>
        <time>2012-07-31T04:52:18Z</time>
      </trkpt>
      <trkpt lat="44.25269" lon="6.77094">
        <ele>2066.1</ele>
        <time>2012-07-31T04:52:19Z</time>
      </trkpt>
      <trkpt lat="44.2527" lon="6.77095">
        <ele>2067.1</ele>
        <time>2012-07-31T04:52:20Z</time>
      </trkpt>
      <trkpt lat="44.25272" lon="6.77101">
        <ele>2068.6</ele>
        <time>2012-07-31T04:52:24Z</time>
      </trkpt>
      <trkpt lat="44.25272" lon="6.77103">
        <ele>2068.8</ele>
        <time>2012-07-31T04:52:25Z</time>
      </trkpt>
      <trkpt lat="44.25273" lon="6.77105">
        <ele>2068.6</ele>
        <time>2012-07-31T04:52:26Z</time>
      </trkpt>
      <trkpt lat="44.25273" lon="6.77106">
        <ele>2069.1</ele>
        <time>2012-07-31T04:52:27Z</time>
      </trkpt>
      <trkpt lat="44.25273" lon="6.77108">
        <ele>2068.3</ele>
        <time>2012-07-31T04:52:28Z</time>
      </trkpt>
      <trkpt lat="44.25273" lon="6.77109">
        <ele>2067.6</ele>
        <time>2012-07-31T04:52:29Z</time>
      </trkpt>
      <trkpt lat="44.25274" lon="6.7711">
        <ele>2067.1</ele>
        <time>2012-07-31T04:52:30Z</time>
      </trkpt>
      <trkpt lat="44.25274" lon="6.77111">
        <ele>2067.3</ele>
        <time>2012-07-31T04:52:31Z</time>
      </trkpt>
      <trkpt lat="44.25275" lon="6.77112">
        <ele>2067</ele>
        <time>2012-07-31T04:52:32Z</time>
      </trkpt>
      <trkpt lat="44.2528" lon="6.77119">
        <ele>2069.6</ele>
        <time>2012-07-31T04:52:37Z</time>
      </trkpt>
      <trkpt lat="44.25281" lon="6.77121">
        <ele>2070.8</ele>
        <time>2012-07-31T04:52:38Z</time>
      </trkpt>
      <trkpt lat="44.25282" lon="6.77122">
        <ele>2071.3</ele>
        <time>2012-07-31T04:52:39Z</time>
      </trkpt>
      <trkpt lat="44.25283" lon="6.77123">
        <ele>2072.1</ele>
        <time>2012-07-31T04:52:40Z</time>
      </trkpt>
      <trkpt lat="44.25283" lon="6.77124">
        <ele>2072.5</ele>
        <time>2012-07-31T04:52:41Z</time>
      </trkpt>
      <trkpt lat="44.25284" lon="6.77124">
        <ele>2071.6</ele>
        <time>2012-07-31T04:52:42Z</time>
      </trkpt>
      <trkpt lat="44.25285" lon="6.77125">
        <ele>2071.3</ele>
        <time>2012-07-31T04:52:43Z</time>
      </trkpt>
      <trkpt lat="44.25297" lon="6.77152">
        <ele>2065.6</ele>
        <time>2012-07-31T04:53:08Z</time>
      </trkpt>
      <trkpt lat="44.25299" lon="6.77158">
        <ele>2067</ele>
        <time>2012-07-31T04:53:12Z</time>
      </trkpt>
      <trkpt lat="44.25299" lon="6.77159">
        <ele>2067.5</ele>
        <time>2012-07-31T04:53:13Z</time>
      </trkpt>
      <trkpt lat="44.253" lon="6.77161">
        <ele>2067.8</ele>
        <time>2012-07-31T04:53:14Z</time>
      </trkpt>
      <trkpt lat="44.25302" lon="6.77166">
        <ele>2068.8</ele>
        <time>2012-07-31T04:53:18Z</time>
      </trkpt>
      <trkpt lat="44.25307" lon="6.7718">
        <ele>2069.3</ele>
        <time>2012-07-31T04:53:29Z</time>
      </trkpt>
      <trkpt lat="44.25307" lon="6.77181">
        <ele>2069.3</ele>
        <time>2012-07-31T04:53:30Z</time>
      </trkpt>
      <trkpt lat="44.25308" lon="6.77182">
        <ele>2069.3</ele>
        <time>2012-07-31T04:53:31Z</time>
      </trkpt>
      <trkpt lat="44.25308" lon="6.77183">
        <ele>2069.1</ele>
        <time>2012-07-31T04:53:32Z</time>
      </trkpt>
      <trkpt lat="44.25309" lon="6.77187">
        <ele>2069.1</ele>
        <time>2012-07-31T04:53:35Z</time>
      </trkpt>
      <trkpt lat="44.25312" lon="6.77196">
        <ele>2070.1</ele>
        <time>2012-07-31T04:53:41Z</time>
      </trkpt>
      <trkpt lat="44.25312" lon="6.77197">
        <ele>2070.3</ele>
        <time>2012-07-31T04:53:42Z</time>
      </trkpt>
      <trkpt lat="44.25314" lon="6.77202">
        <ele>2071</ele>
        <time>2012-07-31T04:53:45Z</time>
      </trkpt>
      <trkpt lat="44.25314" lon="6.77203">
        <ele>2071.1</ele>
        <time>2012-07-31T04:53:46Z</time>
      </trkpt>
      <trkpt lat="44.25315" lon="6.77206">
        <ele>2071.5</ele>
        <time>2012-07-31T04:53:48Z</time>
      </trkpt>
      <trkpt lat="44.25319" lon="6.77213">
        <ele>2072.5</ele>
        <time>2012-07-31T04:53:54Z</time>
      </trkpt>
      <trkpt lat="44.2532" lon="6.77216">
        <ele>2072.6</ele>
        <time>2012-07-31T04:53:56Z</time>
      </trkpt>
      <trkpt lat="44.25321" lon="6.77217">
        <ele>2073</ele>
        <time>2012-07-31T04:53:57Z</time>
      </trkpt>
      <trkpt lat="44.25322" lon="6.77218">
        <ele>2073.1</ele>
        <time>2012-07-31T04:53:58Z</time>
      </trkpt>
      <trkpt lat="44.25323" lon="6.7722">
        <ele>2073.5</ele>
        <time>2012-07-31T04:54:00Z</time>
      </trkpt>
      <trkpt lat="44.25324" lon="6.77226">
        <ele>2075</ele>
        <time>2012-07-31T04:54:04Z</time>
      </trkpt>
      <trkpt lat="44.25325" lon="6.7723">
        <ele>2076.1</ele>
        <time>2012-07-31T04:54:07Z</time>
      </trkpt>
      <trkpt lat="44.25325" lon="6.77231">
        <ele>2076.5</ele>
        <time>2012-07-31T04:54:08Z</time>
      </trkpt>
      <trkpt lat="44.25324" lon="6.77233">
        <ele>2076.8</ele>
        <time>2012-07-31T04:54:09Z</time>
      </trkpt>
      <trkpt lat="44.25324" lon="6.77235">
        <ele>2077.5</ele>
        <time>2012-07-31T04:54:11Z</time>
      </trkpt>
      <trkpt lat="44.25323" lon="6.77236">
        <ele>2077.1</ele>
        <time>2012-07-31T04:54:12Z</time>
      </trkpt>
      <trkpt lat="44.25313" lon="6.77246">
        <ele>2073.6</ele>
        <time>2012-07-31T04:54:24Z</time>
      </trkpt>
      <trkpt lat="44.25312" lon="6.77247">
        <ele>2073.1</ele>
        <time>2012-07-31T04:54:25Z</time>
      </trkpt>
      <trkpt lat="44.25312" lon="6.77248">
        <ele>2072.8</ele>
        <time>2012-07-31T04:54:26Z</time>
      </trkpt>
      <trkpt lat="44.25312" lon="6.7725">
        <ele>2073</ele>
        <time>2012-07-31T04:54:27Z</time>
      </trkpt>
      <trkpt lat="44.25313" lon="6.77251">
        <ele>2073</ele>
        <time>2012-07-31T04:54:28Z</time>
      </trkpt>
      <trkpt lat="44.25313" lon="6.77252">
        <ele>2073.3</ele>
        <time>2012-07-31T04:54:29Z</time>
      </trkpt>
      <trkpt lat="44.25313" lon="6.77253">
        <ele>2073.8</ele>
        <time>2012-07-31T04:54:30Z</time>
      </trkpt>
      <trkpt lat="44.25314" lon="6.77256">
        <ele>2073.1</ele>
        <time>2012-07-31T04:54:32Z</time>
      </trkpt>
      <trkpt lat="44.25314" lon="6.77257">
        <ele>2072.6</ele>
        <time>2012-07-31T04:54:33Z</time>
      </trkpt>
      <trkpt lat="44.25315" lon="6.77261">
        <ele>2071</ele>
        <time>2012-07-31T04:54:35Z</time>
      </trkpt>
      <trkpt lat="44.25316" lon="6.77262">
        <ele>2069.8</ele>
        <time>2012-07-31T04:54:36Z</time>
      </trkpt>
      <trkpt lat="44.25317" lon="6.77264">
        <ele>2069.5</ele>
        <time>2012-07-31T04:54:37Z</time>
      </trkpt>
      <trkpt lat="44.25318" lon="6.77269">
        <ele>2069.6</ele>
        <time>2012-07-31T04:54:40Z</time>
      </trkpt>
      <trkpt lat="44.25318" lon="6.7727">
        <ele>2069.3</ele>
        <time>2012-07-31T04:54:41Z</time>
      </trkpt>
      <trkpt lat="44.25319" lon="6.77272">
        <ele>2068.8</ele>
        <time>2012-07-31T04:54:42Z</time>
      </trkpt>
      <trkpt lat="44.25319" lon="6.77273">
        <ele>2068.3</ele>
        <time>2012-07-31T04:54:43Z</time>
      </trkpt>
      <trkpt lat="44.2532" lon="6.77275">
        <ele>2067.3</ele>
        <time>2012-07-31T04:54:44Z</time>
      </trkpt>
      <trkpt lat="44.2532" lon="6.77277">
        <ele>2066.6</ele>
        <time>2012-07-31T04:54:45Z</time>
      </trkpt>
      <trkpt lat="44.25321" lon="6.77278">
        <ele>2066</ele>
        <time>2012-07-31T04:54:46Z</time>
      </trkpt>
      <trkpt lat="44.25322" lon="6.7728">
        <ele>2066.1</ele>
        <time>2012-07-31T04:54:47Z</time>
      </trkpt>
      <trkpt lat="44.25323" lon="6.77281">
        <ele>2066</ele>
        <time>2012-07-31T04:54:48Z</time>
      </trkpt>
      <trkpt lat="44.25323" lon="6.77282">
        <ele>2066.3</ele>
        <time>2012-07-31T04:54:49Z</time>
      </trkpt>
      <trkpt lat="44.25324" lon="6.77283">
        <ele>2066.3</ele>
        <time>2012-07-31T04:54:50Z</time>
      </trkpt>
      <trkpt lat="44.25326" lon="6.77286">
        <ele>2066.1</ele>
        <time>2012-07-31T04:54:52Z</time>
      </trkpt>
      <trkpt lat="44.25328" lon="6.77288">
        <ele>2066.1</ele>
        <time>2012-07-31T04:54:54Z</time>
      </trkpt>
      <trkpt lat="44.25328" lon="6.7729">
        <ele>2066.3</ele>
        <time>2012-07-31T04:54:55Z</time>
      </trkpt>
      <trkpt lat="44.25329" lon="6.77291">
        <ele>2065.8</ele>
        <time>2012-07-31T04:54:56Z</time>
      </trkpt>
      <trkpt lat="44.25341" lon="6.77307">
        <ele>2064.3</ele>
        <time>2012-07-31T04:55:10Z</time>
      </trkpt>
      <trkpt lat="44.25356" lon="6.7733">
        <ele>2065.3</ele>
        <time>2012-07-31T04:55:29Z</time>
      </trkpt>
      <trkpt lat="44.25356" lon="6.77332">
        <ele>2065.8</ele>
        <time>2012-07-31T04:55:30Z</time>
      </trkpt>
      <trkpt lat="44.25356" lon="6.77334">
        <ele>2065.8</ele>
        <time>2012-07-31T04:55:31Z</time>
      </trkpt>
      <trkpt lat="44.25357" lon="6.77335">
        <ele>2065.6</ele>
        <time>2012-07-31T04:55:32Z</time>
      </trkpt>
      <trkpt lat="44.25358" lon="6.77336">
        <ele>2065.6</ele>
        <time>2012-07-31T04:55:33Z</time>
      </trkpt>
      <trkpt lat="44.25359" lon="6.77339">
        <ele>2066.1</ele>
        <time>2012-07-31T04:55:35Z</time>
      </trkpt>
      <trkpt lat="44.2536" lon="6.7734">
        <ele>2066</ele>
        <time>2012-07-31T04:55:36Z</time>
      </trkpt>
      <trkpt lat="44.25361" lon="6.77341">
        <ele>2066.1</ele>
        <time>2012-07-31T04:55:37Z</time>
      </trkpt>
      <trkpt lat="44.25361" lon="6.77342">
        <ele>2066.8</ele>
        <time>2012-07-31T04:55:38Z</time>
      </trkpt>
      <trkpt lat="44.25361" lon="6.77344">
        <ele>2067.5</ele>
        <time>2012-07-31T04:55:39Z</time>
      </trkpt>
      <trkpt lat="44.25363" lon="6.7735">
        <ele>2067.6</ele>
        <time>2012-07-31T04:55:44Z</time>
      </trkpt>
      <trkpt lat="44.25364" lon="6.77351">
        <ele>2067.3</ele>
        <time>2012-07-31T04:55:45Z</time>
      </trkpt>
      <trkpt lat="44.25365" lon="6.77353">
        <ele>2067.1</ele>
        <time>2012-07-31T04:55:47Z</time>
      </trkpt>
      <trkpt lat="44.25366" lon="6.77354">
        <ele>2067</ele>
        <time>2012-07-31T04:55:48Z</time>
      </trkpt>
      <trkpt lat="44.25373" lon="6.77357">
        <ele>2066.3</ele>
        <time>2012-07-31T04:56:46Z</time>
      </trkpt>
      <trkpt lat="44.25374" lon="6.77358">
        <ele>2065.8</ele>
        <time>2012-07-31T04:56:47Z</time>
      </trkpt>
      <trkpt lat="44.25376" lon="6.77358">
        <ele>2065.6</ele>
        <time>2012-07-31T04:56:49Z</time>
      </trkpt>
      <trkpt lat="44.25402" lon="6.77389">
        <ele>2067.1</ele>
        <time>2012-07-31T04:57:33Z</time>
      </trkpt>
      <trkpt lat="44.25402" lon="6.7739">
        <ele>2066.8</ele>
        <time>2012-07-31T04:57:34Z</time>
      </trkpt>
      <trkpt lat="44.25403" lon="6.77392">
        <ele>2067.3</ele>
        <time>2012-07-31T04:57:35Z</time>
      </trkpt>
      <trkpt lat="44.25404" lon="6.77393">
        <ele>2066.8</ele>
        <time>2012-07-31T04:57:36Z</time>
      </trkpt>
      <trkpt lat="44.25439" lon="6.77451">
        <ele>2077.1</ele>
        <time>2012-07-31T04:58:32Z</time>
      </trkpt>
      <trkpt lat="44.2544" lon="6.77453">
        <ele>2075.8</ele>
        <time>2012-07-31T04:58:33Z</time>
      </trkpt>
      <trkpt lat="44.25458" lon="6.77472">
        <ele>2072.5</ele>
        <time>2012-07-31T04:58:56Z</time>
      </trkpt>
      <trkpt lat="44.25459" lon="6.77473">
        <ele>2072.6</ele>
        <time>2012-07-31T04:58:57Z</time>
      </trkpt>
      <trkpt lat="44.25461" lon="6.77479">
        <ele>2073.8</ele>
        <time>2012-07-31T04:59:02Z</time>
      </trkpt>
      <trkpt lat="44.25467" lon="6.77523">
        <ele>2080.5</ele>
        <time>2012-07-31T05:00:10Z</time>
      </trkpt>
      <trkpt lat="44.25467" lon="6.77522">
        <ele>2079.8</ele>
        <time>2012-07-31T05:00:11Z</time>
      </trkpt>
      <trkpt lat="44.25466" lon="6.7752">
        <ele>2079.1</ele>
        <time>2012-07-31T05:00:12Z</time>
      </trkpt>
      <trkpt lat="44.25465" lon="6.77519">
        <ele>2079.1</ele>
        <time>2012-07-31T05:00:13Z</time>
      </trkpt>
      <trkpt lat="44.25462" lon="6.77516">
        <ele>2074.3</ele>
        <time>2012-07-31T05:00:17Z</time>
      </trkpt>
      <trkpt lat="44.25461" lon="6.77514">
        <ele>2075.3</ele>
        <time>2012-07-31T05:00:18Z</time>
      </trkpt>
      <trkpt lat="44.25459" lon="6.77512">
        <ele>2076.1</ele>
        <time>2012-07-31T05:00:19Z</time>
      </trkpt>
      <trkpt lat="44.25458" lon="6.77512">
        <ele>2077</ele>
        <time>2012-07-31T05:00:20Z</time>
      </trkpt>
      <trkpt lat="44.25457" lon="6.77511">
        <ele>2077.1</ele>
        <time>2012-07-31T05:00:21Z</time>
      </trkpt>
      <trkpt lat="44.25455" lon="6.77511">
        <ele>2077.3</ele>
        <time>2012-07-31T05:00:22Z</time>
      </trkpt>
      <trkpt lat="44.25454" lon="6.7751">
        <ele>2078.3</ele>
        <time>2012-07-31T05:00:23Z</time>
      </trkpt>
      <trkpt lat="44.25452" lon="6.77511">
        <ele>2079.3</ele>
        <time>2012-07-31T05:00:24Z</time>
      </trkpt>
      <trkpt lat="44.25451" lon="6.77537">
        <ele>2085.8</ele>
        <time>2012-07-31T05:01:23Z</time>
      </trkpt>
      <trkpt lat="44.25451" lon="6.77538">
        <ele>2085.6</ele>
        <time>2012-07-31T05:01:24Z</time>
      </trkpt>
      <trkpt lat="44.25447" lon="6.77546">
        <ele>2083</ele>
        <time>2012-07-31T05:01:31Z</time>
      </trkpt>
      <trkpt lat="44.25446" lon="6.77547">
        <ele>2082.8</ele>
        <time>2012-07-31T05:01:32Z</time>
      </trkpt>
      <trkpt lat="44.2543" lon="6.77548">
        <ele>2097.8</ele>
        <time>2012-07-31T05:02:02Z</time>
      </trkpt>
      <trkpt lat="44.25431" lon="6.77548">
        <ele>2097.1</ele>
        <time>2012-07-31T05:02:03Z</time>
      </trkpt>
      <trkpt lat="44.25432" lon="6.77548">
        <ele>2096.1</ele>
        <time>2012-07-31T05:02:04Z</time>
      </trkpt>
      <trkpt lat="44.25432" lon="6.77547">
        <ele>2096.6</ele>
        <time>2012-07-31T05:02:05Z</time>
      </trkpt>
      <trkpt lat="44.2542" lon="6.7755">
        <ele>2103.5</ele>
        <time>2012-07-31T05:02:28Z</time>
      </trkpt>
      <trkpt lat="44.25419" lon="6.7755">
        <ele>2103.3</ele>
        <time>2012-07-31T05:02:29Z</time>
      </trkpt>
      <trkpt lat="44.25417" lon="6.77552">
        <ele>2097.8</ele>
        <time>2012-07-31T05:02:36Z</time>
      </trkpt>
      <trkpt lat="44.25417" lon="6.77552">
        <ele>2097.5</ele>
        <time>2012-07-31T05:02:37Z</time>
      </trkpt>
      <trkpt lat="44.25416" lon="6.77554">
        <ele>2097.3</ele>
        <time>2012-07-31T05:02:38Z</time>
      </trkpt>
      <trkpt lat="44.25416" lon="6.77555">
        <ele>2097.1</ele>
        <time>2012-07-31T05:02:39Z</time>
      </trkpt>
      <trkpt lat="44.25416" lon="6.77556">
        <ele>2097</ele>
        <time>2012-07-31T05:02:40Z</time>
      </trkpt>
      <trkpt lat="44.25416" lon="6.77557">
        <ele>2096.8</ele>
        <time>2012-07-31T05:02:41Z</time>
      </trkpt>
      <trkpt lat="44.25416" lon="6.77559">
        <ele>2096.1</ele>
        <time>2012-07-31T05:02:42Z</time>
      </trkpt>
      <trkpt lat="44.25417" lon="6.7756">
        <ele>2094.8</ele>
        <time>2012-07-31T05:02:43Z</time>
      </trkpt>
      <trkpt lat="44.25417" lon="6.77562">
        <ele>2093.1</ele>
        <time>2012-07-31T05:02:44Z</time>
      </trkpt>
      <trkpt lat="44.25417" lon="6.77564">
        <ele>2092.1</ele>
        <time>2012-07-31T05:02:45Z</time>
      </trkpt>
      <trkpt lat="44.25418" lon="6.77566">
        <ele>2091.3</ele>
        <time>2012-07-31T05:02:46Z</time>
      </trkpt>
      <trkpt lat="44.25418" lon="6.77567">
        <ele>2090.3</ele>
        <time>2012-07-31T05:02:47Z</time>
      </trkpt>
      <trkpt lat="44.25419" lon="6.77569">
        <ele>2089.3</ele>
        <time>2012-07-31T05:02:48Z</time>
      </trkpt>
      <trkpt lat="44.25419" lon="6.7757">
        <ele>2088.3</ele>
        <time>2012-07-31T05:02:49Z</time>
      </trkpt>
      <trkpt lat="44.25419" lon="6.77571">
        <ele>2087.3</ele>
        <time>2012-07-31T05:02:50Z</time>
      </trkpt>
      <trkpt lat="44.25419" lon="6.77572">
        <ele>2086.3</ele>
        <time>2012-07-31T05:02:51Z</time>
      </trkpt>
      <trkpt lat="44.25418" lon="6.77587">
        <ele>2083.1</ele>
        <time>2012-07-31T05:03:03Z</time>
      </trkpt>
      <trkpt lat="44.25418" lon="6.77588">
        <ele>2083.5</ele>
        <time>2012-07-31T05:03:04Z</time>
      </trkpt>
      <trkpt lat="44.25417" lon="6.7759">
        <ele>2083.6</ele>
        <time>2012-07-31T05:03:05Z</time>
      </trkpt>
      <trkpt lat="44.25417" lon="6.77591">
        <ele>2083.1</ele>
        <time>2012-07-31T05:03:06Z</time>
      </trkpt>
      <trkpt lat="44.25417" lon="6.77592">
        <ele>2083.1</ele>
        <time>2012-07-31T05:03:07Z</time>
      </trkpt>
      <trkpt lat="44.2539" lon="6.77656">
        <ele>2089.3</ele>
        <time>2012-07-31T05:04:01Z</time>
      </trkpt>
      <trkpt lat="44.2539" lon="6.77657">
        <ele>2088.6</ele>
        <time>2012-07-31T05:04:02Z</time>
      </trkpt>
      <trkpt lat="44.2539" lon="6.77658">
        <ele>2087.8</ele>
        <time>2012-07-31T05:04:03Z</time>
      </trkpt>
      <trkpt lat="44.25389" lon="6.7766">
        <ele>2088.8</ele>
        <time>2012-07-31T05:04:04Z</time>
      </trkpt>
      <trkpt lat="44.25389" lon="6.7766">
        <ele>2088.6</ele>
        <time>2012-07-31T05:04:05Z</time>
      </trkpt>
      <trkpt lat="44.25388" lon="6.77661">
        <ele>2088.3</ele>
        <time>2012-07-31T05:04:06Z</time>
      </trkpt>
      <trkpt lat="44.25387" lon="6.77664">
        <ele>2089.8</ele>
        <time>2012-07-31T05:04:07Z</time>
      </trkpt>
      <trkpt lat="44.25386" lon="6.77665">
        <ele>2090.8</ele>
        <time>2012-07-31T05:04:08Z</time>
      </trkpt>
      <trkpt lat="44.25385" lon="6.77666">
        <ele>2091.3</ele>
        <time>2012-07-31T05:04:09Z</time>
      </trkpt>
      <trkpt lat="44.25384" lon="6.77667">
        <ele>2091.1</ele>
        <time>2012-07-31T05:04:10Z</time>
      </trkpt>
      <trkpt lat="44.25384" lon="6.77668">
        <ele>2091.8</ele>
        <time>2012-07-31T05:04:11Z</time>
      </trkpt>
      <trkpt lat="44.25383" lon="6.77668">
        <ele>2092</ele>
        <time>2012-07-31T05:04:12Z</time>
      </trkpt>
      <trkpt lat="44.25382" lon="6.77669">
        <ele>2092.6</ele>
        <time>2012-07-31T05:04:13Z</time>
      </trkpt>
      <trkpt lat="44.25382" lon="6.77669">
        <ele>2092.6</ele>
        <time>2012-07-31T05:04:14Z</time>
      </trkpt>
      <trkpt lat="44.25381" lon="6.7767">
        <ele>2093.1</ele>
        <time>2012-07-31T05:04:15Z</time>
      </trkpt>
      <trkpt lat="44.2538" lon="6.77671">
        <ele>2093.6</ele>
        <time>2012-07-31T05:04:16Z</time>
      </trkpt>
      <trkpt lat="44.2538" lon="6.77672">
        <ele>2093.8</ele>
        <time>2012-07-31T05:04:17Z</time>
      </trkpt>
      <trkpt lat="44.25379" lon="6.77672">
        <ele>2094.1</ele>
        <time>2012-07-31T05:04:18Z</time>
      </trkpt>
      <trkpt lat="44.25378" lon="6.77673">
        <ele>2094.1</ele>
        <time>2012-07-31T05:04:19Z</time>
      </trkpt>
      <trkpt lat="44.25377" lon="6.77674">
        <ele>2094.3</ele>
        <time>2012-07-31T05:04:20Z</time>
      </trkpt>
      <trkpt lat="44.25376" lon="6.77674">
        <ele>2094.3</ele>
        <time>2012-07-31T05:04:21Z</time>
      </trkpt>
      <trkpt lat="44.25376" lon="6.77674">
        <ele>2094.5</ele>
        <time>2012-07-31T05:04:22Z</time>
      </trkpt>
      <trkpt lat="44.25375" lon="6.77676">
        <ele>2095.1</ele>
        <time>2012-07-31T05:04:23Z</time>
      </trkpt>
      <trkpt lat="44.25375" lon="6.77677">
        <ele>2095.5</ele>
        <time>2012-07-31T05:04:24Z</time>
      </trkpt>
      <trkpt lat="44.25373" lon="6.77677">
        <ele>2096.6</ele>
        <time>2012-07-31T05:04:25Z</time>
      </trkpt>
      <trkpt lat="44.25372" lon="6.77677">
        <ele>2097.8</ele>
        <time>2012-07-31T05:04:26Z</time>
      </trkpt>
      <trkpt lat="44.25371" lon="6.77678">
        <ele>2097.8</ele>
        <time>2012-07-31T05:04:27Z</time>
      </trkpt>
      <trkpt lat="44.2537" lon="6.77678">
        <ele>2098.6</ele>
        <time>2012-07-31T05:04:28Z</time>
      </trkpt>
      <trkpt lat="44.25369" lon="6.77679">
        <ele>2099</ele>
        <time>2012-07-31T05:04:29Z</time>
      </trkpt>
      <trkpt lat="44.25369" lon="6.7768">
        <ele>2099</ele>
        <time>2012-07-31T05:04:30Z</time>
      </trkpt>
      <trkpt lat="44.25368" lon="6.7768">
        <ele>2099</ele>
        <time>2012-07-31T05:04:31Z</time>
      </trkpt>
      <trkpt lat="44.25367" lon="6.77681">
        <ele>2099.1</ele>
        <time>2012-07-31T05:04:32Z</time>
      </trkpt>
      <trkpt lat="44.25367" lon="6.77682">
        <ele>2099.1</ele>
        <time>2012-07-31T05:04:33Z</time>
      </trkpt>
      <trkpt lat="44.25366" lon="6.77682">
        <ele>2099.1</ele>
        <time>2012-07-31T05:04:34Z</time>
      </trkpt>
      <trkpt lat="44.25365" lon="6.77683">
        <ele>2099</ele>
        <time>2012-07-31T05:04:35Z</time>
      </trkpt>
      <trkpt lat="44.25364" lon="6.77685">
        <ele>2099.8</ele>
        <time>2012-07-31T05:04:36Z</time>
      </trkpt>
      <trkpt lat="44.25364" lon="6.77686">
        <ele>2100.1</ele>
        <time>2012-07-31T05:04:37Z</time>
      </trkpt>
      <trkpt lat="44.25363" lon="6.77687">
        <ele>2100.5</ele>
        <time>2012-07-31T05:04:38Z</time>
      </trkpt>
      <trkpt lat="44.25362" lon="6.77688">
        <ele>2100.6</ele>
        <time>2012-07-31T05:04:39Z</time>
      </trkpt>
      <trkpt lat="44.25362" lon="6.77689">
        <ele>2100.5</ele>
        <time>2012-07-31T05:04:40Z</time>
      </trkpt>
      <trkpt lat="44.25362" lon="6.77691">
        <ele>2100</ele>
        <time>2012-07-31T05:04:41Z</time>
      </trkpt>
      <trkpt lat="44.25362" lon="6.77692">
        <ele>2099.6</ele>
        <time>2012-07-31T05:04:42Z</time>
      </trkpt>
      <trkpt lat="44.25361" lon="6.77693">
        <ele>2099.3</ele>
        <time>2012-07-31T05:04:43Z</time>
      </trkpt>
      <trkpt lat="44.25361" lon="6.77694">
        <ele>2099.5</ele>
        <time>2012-07-31T05:04:44Z</time>
      </trkpt>
      <trkpt lat="44.2536" lon="6.77694">
        <ele>2099.8</ele>
        <time>2012-07-31T05:04:45Z</time>
      </trkpt>
      <trkpt lat="44.2536" lon="6.77695">
        <ele>2100.1</ele>
        <time>2012-07-31T05:04:46Z</time>
      </trkpt>
      <trkpt lat="44.25359" lon="6.77696">
        <ele>2100</ele>
        <time>2012-07-31T05:04:47Z</time>
      </trkpt>
      <trkpt lat="44.25359" lon="6.77697">
        <ele>2100</ele>
        <time>2012-07-31T05:04:48Z</time>
      </trkpt>
      <trkpt lat="44.25358" lon="6.77697">
        <ele>2099.8</ele>
        <time>2012-07-31T05:04:49Z</time>
      </trkpt>
      <trkpt lat="44.25358" lon="6.77699">
        <ele>2100.3</ele>
        <time>2012-07-31T05:04:50Z</time>
      </trkpt>
      <trkpt lat="44.25357" lon="6.777">
        <ele>2101.1</ele>
        <time>2012-07-31T05:04:51Z</time>
      </trkpt>
      <trkpt lat="44.25356" lon="6.77701">
        <ele>2101.3</ele>
        <time>2012-07-31T05:04:52Z</time>
      </trkpt>
      <trkpt lat="44.25356" lon="6.77702">
        <ele>2101.3</ele>
        <time>2012-07-31T05:04:53Z</time>
      </trkpt>
      <trkpt lat="44.25356" lon="6.77703">
        <ele>2101</ele>
        <time>2012-07-31T05:04:54Z</time>
      </trkpt>
      <trkpt lat="44.25355" lon="6.77704">
        <ele>2101</ele>
        <time>2012-07-31T05:04:55Z</time>
      </trkpt>
      <trkpt lat="44.25355" lon="6.77705">
        <ele>2100.6</ele>
        <time>2012-07-31T05:04:56Z</time>
      </trkpt>
      <trkpt lat="44.25354" lon="6.77706">
        <ele>2101</ele>
        <time>2012-07-31T05:04:57Z</time>
      </trkpt>
      <trkpt lat="44.25354" lon="6.77707">
        <ele>2101.8</ele>
        <time>2012-07-31T05:04:58Z</time>
      </trkpt>
      <trkpt lat="44.25353" lon="6.77708">
        <ele>2101.8</ele>
        <time>2012-07-31T05:04:59Z</time>
      </trkpt>
      <trkpt lat="44.25353" lon="6.77709">
        <ele>2101.3</ele>
        <time>2012-07-31T05:05:00Z</time>
      </trkpt>
      <trkpt lat="44.25353" lon="6.7771">
        <ele>2101.3</ele>
        <time>2012-07-31T05:05:01Z</time>
      </trkpt>
      <trkpt lat="44.25351" lon="6.77709">
        <ele>2103</ele>
        <time>2012-07-31T05:05:02Z</time>
      </trkpt>
      <trkpt lat="44.2535" lon="6.7771">
        <ele>2103.6</ele>
        <time>2012-07-31T05:05:03Z</time>
      </trkpt>
      <trkpt lat="44.2535" lon="6.77711">
        <ele>2103.3</ele>
        <time>2012-07-31T05:05:04Z</time>
      </trkpt>
      <trkpt lat="44.25349" lon="6.77712">
        <ele>2103.3</ele>
        <time>2012-07-31T05:05:05Z</time>
      </trkpt>
      <trkpt lat="44.25349" lon="6.77713">
        <ele>2104.5</ele>
        <time>2012-07-31T05:05:06Z</time>
      </trkpt>
      <trkpt lat="44.25348" lon="6.77715">
        <ele>2104.6</ele>
        <time>2012-07-31T05:05:07Z</time>
      </trkpt>
      <trkpt lat="44.25348" lon="6.77716">
        <ele>2104.6</ele>
        <time>2012-07-31T05:05:08Z</time>
      </trkpt>
      <trkpt lat="44.25347" lon="6.77717">
        <ele>2104.6</ele>
        <time>2012-07-31T05:05:09Z</time>
      </trkpt>
      <trkpt lat="44.25347" lon="6.77718">
        <ele>2104.5</ele>
        <time>2012-07-31T05:05:10Z</time>
      </trkpt>
      <trkpt lat="44.25346" lon="6.77719">
        <ele>2103.8</ele>
        <time>2012-07-31T05:05:11Z</time>
      </trkpt>
      <trkpt lat="44.25346" lon="6.7772">
        <ele>2103.8</ele>
        <time>2012-07-31T05:05:12Z</time>
      </trkpt>
      <trkpt lat="44.25345" lon="6.77721">
        <ele>2104.3</ele>
        <time>2012-07-31T05:05:13Z</time>
      </trkpt>
      <trkpt lat="44.25345" lon="6.77721">
        <ele>2103.8</ele>
        <time>2012-07-31T05:05:14Z</time>
      </trkpt>
      <trkpt lat="44.25344" lon="6.77722">
        <ele>2103.6</ele>
        <time>2012-07-31T05:05:15Z</time>
      </trkpt>
      <trkpt lat="44.25345" lon="6.77723">
        <ele>2103.1</ele>
        <time>2012-07-31T05:05:16Z</time>
      </trkpt>
      <trkpt lat="44.25344" lon="6.77725">
        <ele>2103.3</ele>
        <time>2012-07-31T05:05:17Z</time>
      </trkpt>
      <trkpt lat="44.25343" lon="6.77724">
        <ele>2104.8</ele>
        <time>2012-07-31T05:05:18Z</time>
      </trkpt>
      <trkpt lat="44.25342" lon="6.77726">
        <ele>2106.5</ele>
        <time>2012-07-31T05:05:19Z</time>
      </trkpt>
      <trkpt lat="44.25341" lon="6.77728">
        <ele>2107.6</ele>
        <time>2012-07-31T05:05:20Z</time>
      </trkpt>
      <trkpt lat="44.2534" lon="6.77728">
        <ele>2109.6</ele>
        <time>2012-07-31T05:05:21Z</time>
      </trkpt>
      <trkpt lat="44.25339" lon="6.77729">
        <ele>2110.8</ele>
        <time>2012-07-31T05:05:22Z</time>
      </trkpt>
      <trkpt lat="44.25338" lon="6.77729">
        <ele>2112.3</ele>
        <time>2012-07-31T05:05:23Z</time>
      </trkpt>
      <trkpt lat="44.25338" lon="6.7773">
        <ele>2112.8</ele>
        <time>2012-07-31T05:05:24Z</time>
      </trkpt>
      <trkpt lat="44.25338" lon="6.77732">
        <ele>2112.8</ele>
        <time>2012-07-31T05:05:25Z</time>
      </trkpt>
      <trkpt lat="44.25338" lon="6.77732">
        <ele>2112.8</ele>
        <time>2012-07-31T05:05:26Z</time>
      </trkpt>
      <trkpt lat="44.25337" lon="6.77733">
        <ele>2112.3</ele>
        <time>2012-07-31T05:05:27Z</time>
      </trkpt>
      <trkpt lat="44.25337" lon="6.77733">
        <ele>2112.1</ele>
        <time>2012-07-31T05:05:28Z</time>
      </trkpt>
      <trkpt lat="44.25337" lon="6.77734">
        <ele>2112</ele>
        <time>2012-07-31T05:05:29Z</time>
      </trkpt>
      <trkpt lat="44.25336" lon="6.77735">
        <ele>2112</ele>
        <time>2012-07-31T05:05:30Z</time>
      </trkpt>
      <trkpt lat="44.25336" lon="6.77735">
        <ele>2112.6</ele>
        <time>2012-07-31T05:05:31Z</time>
      </trkpt>
      <trkpt lat="44.25335" lon="6.77736">
        <ele>2112.8</ele>
        <time>2012-07-31T05:05:32Z</time>
      </trkpt>
      <trkpt lat="44.25335" lon="6.77737">
        <ele>2113</ele>
        <time>2012-07-31T05:05:33Z</time>
      </trkpt>
      <trkpt lat="44.25334" lon="6.77738">
        <ele>2113.1</ele>
        <time>2012-07-31T05:05:34Z</time>
      </trkpt>
      <trkpt lat="44.25334" lon="6.77739">
        <ele>2113.1</ele>
        <time>2012-07-31T05:05:35Z</time>
      </trkpt>
      <trkpt lat="44.25333" lon="6.7774">
        <ele>2114</ele>
        <time>2012-07-31T05:05:36Z</time>
      </trkpt>
      <trkpt lat="44.25332" lon="6.77741">
        <ele>2114.1</ele>
        <time>2012-07-31T05:05:37Z</time>
      </trkpt>
      <trkpt lat="44.25332" lon="6.77741">
        <ele>2113.6</ele>
        <time>2012-07-31T05:05:38Z</time>
      </trkpt>
      <trkpt lat="44.25331" lon="6.77742">
        <ele>2112.8</ele>
        <time>2012-07-31T05:05:39Z</time>
      </trkpt>
      <trkpt lat="44.25331" lon="6.77742">
        <ele>2112.1</ele>
        <time>2012-07-31T05:05:40Z</time>
      </trkpt>
      <trkpt lat="44.2533" lon="6.77743">
        <ele>2111.3</ele>
        <time>2012-07-31T05:05:41Z</time>
      </trkpt>
      <trkpt lat="44.2533" lon="6.77744">
        <ele>2111.3</ele>
        <time>2012-07-31T05:05:42Z</time>
      </trkpt>
      <trkpt lat="44.2533" lon="6.77746">
        <ele>2110.5</ele>
        <time>2012-07-31T05:05:43Z</time>
      </trkpt>
      <trkpt lat="44.25329" lon="6.77747">
        <ele>2110.1</ele>
        <time>2012-07-31T05:05:44Z</time>
      </trkpt>
      <trkpt lat="44.25329" lon="6.77747">
        <ele>2110.1</ele>
        <time>2012-07-31T05:05:45Z</time>
      </trkpt>
      <trkpt lat="44.25328" lon="6.77749">
        <ele>2110.3</ele>
        <time>2012-07-31T05:05:46Z</time>
      </trkpt>
      <trkpt lat="44.25328" lon="6.7775">
        <ele>2110.3</ele>
        <time>2012-07-31T05:05:47Z</time>
      </trkpt>
      <trkpt lat="44.25327" lon="6.77751">
        <ele>2110.6</ele>
        <time>2012-07-31T05:05:48Z</time>
      </trkpt>
      <trkpt lat="44.25326" lon="6.7775">
        <ele>2112.1</ele>
        <time>2012-07-31T05:05:49Z</time>
      </trkpt>
      <trkpt lat="44.25325" lon="6.77752">
        <ele>2113</ele>
        <time>2012-07-31T05:05:50Z</time>
      </trkpt>
      <trkpt lat="44.25325" lon="6.77753">
        <ele>2113.1</ele>
        <time>2012-07-31T05:05:51Z</time>
      </trkpt>
      <trkpt lat="44.25324" lon="6.77754">
        <ele>2113.8</ele>
        <time>2012-07-31T05:05:52Z</time>
      </trkpt>
      <trkpt lat="44.25323" lon="6.77756">
        <ele>2114</ele>
        <time>2012-07-31T05:05:53Z</time>
      </trkpt>
      <trkpt lat="44.25322" lon="6.77757">
        <ele>2114.6</ele>
        <time>2012-07-31T05:05:54Z</time>
      </trkpt>
      <trkpt lat="44.25322" lon="6.77758">
        <ele>2115</ele>
        <time>2012-07-31T05:05:55Z</time>
      </trkpt>
      <trkpt lat="44.25322" lon="6.77759">
        <ele>2115.1</ele>
        <time>2012-07-31T05:05:56Z</time>
      </trkpt>
      <trkpt lat="44.25322" lon="6.7776">
        <ele>2115.3</ele>
        <time>2012-07-31T05:05:57Z</time>
      </trkpt>
      <trkpt lat="44.25322" lon="6.77761">
        <ele>2115.8</ele>
        <time>2012-07-31T05:05:58Z</time>
      </trkpt>
      <trkpt lat="44.25322" lon="6.77762">
        <ele>2115.6</ele>
        <time>2012-07-31T05:05:59Z</time>
      </trkpt>
      <trkpt lat="44.25321" lon="6.77762">
        <ele>2115.8</ele>
        <time>2012-07-31T05:06:00Z</time>
      </trkpt>
      <trkpt lat="44.25321" lon="6.77763">
        <ele>2116.3</ele>
        <time>2012-07-31T05:06:01Z</time>
      </trkpt>
      <trkpt lat="44.2532" lon="6.77764">
        <ele>2117.3</ele>
        <time>2012-07-31T05:06:02Z</time>
      </trkpt>
      <trkpt lat="44.2532" lon="6.77765">
        <ele>2118.6</ele>
        <time>2012-07-31T05:06:03Z</time>
      </trkpt>
      <trkpt lat="44.25319" lon="6.77766">
        <ele>2119.8</ele>
        <time>2012-07-31T05:06:04Z</time>
      </trkpt>
      <trkpt lat="44.25319" lon="6.77767">
        <ele>2120.3</ele>
        <time>2012-07-31T05:06:05Z</time>
      </trkpt>
      <trkpt lat="44.25319" lon="6.77768">
        <ele>2120.8</ele>
        <time>2012-07-31T05:06:06Z</time>
      </trkpt>
      <trkpt lat="44.25319" lon="6.77769">
        <ele>2120.8</ele>
        <time>2012-07-31T05:06:07Z</time>
      </trkpt>
      <trkpt lat="44.2532" lon="6.77771">
        <ele>2118.6</ele>
        <time>2012-07-31T05:06:08Z</time>
      </trkpt>
      <trkpt lat="44.2532" lon="6.77772">
        <ele>2118.3</ele>
        <time>2012-07-31T05:06:09Z</time>
      </trkpt>
      <trkpt lat="44.2532" lon="6.77773">
        <ele>2118.1</ele>
        <time>2012-07-31T05:06:10Z</time>
      </trkpt>
      <trkpt lat="44.25319" lon="6.77774">
        <ele>2118.3</ele>
        <time>2012-07-31T05:06:11Z</time>
      </trkpt>
      <trkpt lat="44.25319" lon="6.77775">
        <ele>2118.3</ele>
        <time>2012-07-31T05:06:12Z</time>
      </trkpt>
      <trkpt lat="44.25319" lon="6.77775">
        <ele>2118.1</ele>
        <time>2012-07-31T05:06:13Z</time>
      </trkpt>
      <trkpt lat="44.25318" lon="6.77776">
        <ele>2118.3</ele>
        <time>2012-07-31T05:06:14Z</time>
      </trkpt>
      <trkpt lat="44.25318" lon="6.77777">
        <ele>2119.8</ele>
        <time>2012-07-31T05:06:15Z</time>
      </trkpt>
      <trkpt lat="44.25318" lon="6.77778">
        <ele>2119.1</ele>
        <time>2012-07-31T05:06:16Z</time>
      </trkpt>
      <trkpt lat="44.25318" lon="6.77778">
        <ele>2118.6</ele>
        <time>2012-07-31T05:06:17Z</time>
      </trkpt>
      <trkpt lat="44.25318" lon="6.77779">
        <ele>2118.3</ele>
        <time>2012-07-31T05:06:18Z</time>
      </trkpt>
      <trkpt lat="44.25317" lon="6.7778">
        <ele>2118.1</ele>
        <time>2012-07-31T05:06:19Z</time>
      </trkpt>
      <trkpt lat="44.25317" lon="6.77781">
        <ele>2118.1</ele>
        <time>2012-07-31T05:06:20Z</time>
      </trkpt>
      <trkpt lat="44.25316" lon="6.77781">
        <ele>2118.1</ele>
        <time>2012-07-31T05:06:21Z</time>
      </trkpt>
      <trkpt lat="44.25316" lon="6.77782">
        <ele>2118.1</ele>
        <time>2012-07-31T05:06:22Z</time>
      </trkpt>
      <trkpt lat="44.25316" lon="6.77783">
        <ele>2117.6</ele>
        <time>2012-07-31T05:06:23Z</time>
      </trkpt>
      <trkpt lat="44.25315" lon="6.77784">
        <ele>2118.1</ele>
        <time>2012-07-31T05:06:24Z</time>
      </trkpt>
      <trkpt lat="44.25315" lon="6.77785">
        <ele>2118</ele>
        <time>2012-07-31T05:06:25Z</time>
      </trkpt>
      <trkpt lat="44.25314" lon="6.77785">
        <ele>2117.6</ele>
        <time>2012-07-31T05:06:26Z</time>
      </trkpt>
      <trkpt lat="44.25314" lon="6.77786">
        <ele>2117.1</ele>
        <time>2012-07-31T05:06:27Z</time>
      </trkpt>
      <trkpt lat="44.25313" lon="6.77786">
        <ele>2116.8</ele>
        <time>2012-07-31T05:06:28Z</time>
      </trkpt>
      <trkpt lat="44.25313" lon="6.77787">
        <ele>2117</ele>
        <time>2012-07-31T05:06:29Z</time>
      </trkpt>
      <trkpt lat="44.25312" lon="6.77788">
        <ele>2117.3</ele>
        <time>2012-07-31T05:06:30Z</time>
      </trkpt>
      <trkpt lat="44.25312" lon="6.77788">
        <ele>2117.1</ele>
        <time>2012-07-31T05:06:31Z</time>
      </trkpt>
      <trkpt lat="44.25312" lon="6.77788">
        <ele>2117.3</ele>
        <time>2012-07-31T05:06:32Z</time>
      </trkpt>
      <trkpt lat="44.25311" lon="6.77789">
        <ele>2117.5</ele>
        <time>2012-07-31T05:06:33Z</time>
      </trkpt>
      <trkpt lat="44.25311" lon="6.77789">
        <ele>2117.5</ele>
        <time>2012-07-31T05:06:34Z</time>
      </trkpt>
      <trkpt lat="44.2531" lon="6.7779">
        <ele>2117.3</ele>
        <time>2012-07-31T05:06:35Z</time>
      </trkpt>
      <trkpt lat="44.2531" lon="6.7779">
        <ele>2117.5</ele>
        <time>2012-07-31T05:06:36Z</time>
      </trkpt>
      <trkpt lat="44.25309" lon="6.77791">
        <ele>2117.6</ele>
        <time>2012-07-31T05:06:37Z</time>
      </trkpt>
      <trkpt lat="44.25309" lon="6.77792">
        <ele>2118.1</ele>
        <time>2012-07-31T05:06:38Z</time>
      </trkpt>
      <trkpt lat="44.25308" lon="6.77793">
        <ele>2118.5</ele>
        <time>2012-07-31T05:06:39Z</time>
      </trkpt>
      <trkpt lat="44.25308" lon="6.77794">
        <ele>2118.8</ele>
        <time>2012-07-31T05:06:40Z</time>
      </trkpt>
      <trkpt lat="44.25307" lon="6.77794">
        <ele>2119.6</ele>
        <time>2012-07-31T05:06:41Z</time>
      </trkpt>
      <trkpt lat="44.25306" lon="6.77795">
        <ele>2120.3</ele>
        <time>2012-07-31T05:06:42Z</time>
      </trkpt>
      <trkpt lat="44.25306" lon="6.77795">
        <ele>2120.3</ele>
        <time>2012-07-31T05:06:43Z</time>
      </trkpt>
      <trkpt lat="44.25306" lon="6.77795">
        <ele>2120.6</ele>
        <time>2012-07-31T05:06:44Z</time>
      </trkpt>
      <trkpt lat="44.25305" lon="6.77796">
        <ele>2120.6</ele>
        <time>2012-07-31T05:06:45Z</time>
      </trkpt>
      <trkpt lat="44.25305" lon="6.77797">
        <ele>2120.8</ele>
        <time>2012-07-31T05:06:46Z</time>
      </trkpt>
      <trkpt lat="44.25304" lon="6.77798">
        <ele>2121</ele>
        <time>2012-07-31T05:06:47Z</time>
      </trkpt>
      <trkpt lat="44.25304" lon="6.77798">
        <ele>2121.1</ele>
        <time>2012-07-31T05:06:48Z</time>
      </trkpt>
      <trkpt lat="44.25303" lon="6.77799">
        <ele>2121.1</ele>
        <time>2012-07-31T05:06:49Z</time>
      </trkpt>
      <trkpt lat="44.25303" lon="6.77799">
        <ele>2120.5</ele>
        <time>2012-07-31T05:06:50Z</time>
      </trkpt>
      <trkpt lat="44.25303" lon="6.778">
        <ele>2119.8</ele>
        <time>2012-07-31T05:06:51Z</time>
      </trkpt>
      <trkpt lat="44.25302" lon="6.778">
        <ele>2119.1</ele>
        <time>2012-07-31T05:06:52Z</time>
      </trkpt>
      <trkpt lat="44.25302" lon="6.77802">
        <ele>2118.5</ele>
        <time>2012-07-31T05:06:53Z</time>
      </trkpt>
      <trkpt lat="44.25301" lon="6.77802">
        <ele>2117.8</ele>
        <time>2012-07-31T05:06:54Z</time>
      </trkpt>
      <trkpt lat="44.25301" lon="6.77803">
        <ele>2117.1</ele>
        <time>2012-07-31T05:06:55Z</time>
      </trkpt>
      <trkpt lat="44.25301" lon="6.77804">
        <ele>2117</ele>
        <time>2012-07-31T05:06:56Z</time>
      </trkpt>
      <trkpt lat="44.25301" lon="6.77805">
        <ele>2117.5</ele>
        <time>2012-07-31T05:06:57Z</time>
      </trkpt>
      <trkpt lat="44.253" lon="6.77806">
        <ele>2117.3</ele>
        <time>2012-07-31T05:06:58Z</time>
      </trkpt>
      <trkpt lat="44.253" lon="6.77807">
        <ele>2116.8</ele>
        <time>2012-07-31T05:06:59Z</time>
      </trkpt>
      <trkpt lat="44.25299" lon="6.77808">
        <ele>2116.1</ele>
        <time>2012-07-31T05:07:00Z</time>
      </trkpt>
      <trkpt lat="44.25299" lon="6.77809">
        <ele>2116.8</ele>
        <time>2012-07-31T05:07:01Z</time>
      </trkpt>
      <trkpt lat="44.25298" lon="6.77809">
        <ele>2116.1</ele>
        <time>2012-07-31T05:07:02Z</time>
      </trkpt>
      <trkpt lat="44.25298" lon="6.7781">
        <ele>2116.6</ele>
        <time>2012-07-31T05:07:03Z</time>
      </trkpt>
      <trkpt lat="44.25298" lon="6.7781">
        <ele>2116.3</ele>
        <time>2012-07-31T05:07:04Z</time>
      </trkpt>
      <trkpt lat="44.25298" lon="6.77811">
        <ele>2115.8</ele>
        <time>2012-07-31T05:07:05Z</time>
      </trkpt>
      <trkpt lat="44.25297" lon="6.77812">
        <ele>2116</ele>
        <time>2012-07-31T05:07:06Z</time>
      </trkpt>
      <trkpt lat="44.25297" lon="6.77813">
        <ele>2116</ele>
        <time>2012-07-31T05:07:07Z</time>
      </trkpt>
      <trkpt lat="44.25297" lon="6.77814">
        <ele>2116.3</ele>
        <time>2012-07-31T05:07:08Z</time>
      </trkpt>
      <trkpt lat="44.25296" lon="6.77814">
        <ele>2116.6</ele>
        <time>2012-07-31T05:07:09Z</time>
      </trkpt>
      <trkpt lat="44.25296" lon="6.77815">
        <ele>2117.1</ele>
        <time>2012-07-31T05:07:10Z</time>
      </trkpt>
      <trkpt lat="44.25296" lon="6.77816">
        <ele>2117.5</ele>
        <time>2012-07-31T05:07:11Z</time>
      </trkpt>
      <trkpt lat="44.25295" lon="6.77817">
        <ele>2118.1</ele>
        <time>2012-07-31T05:07:12Z</time>
      </trkpt>
      <trkpt lat="44.25295" lon="6.77817">
        <ele>2118.5</ele>
        <time>2012-07-31T05:07:13Z</time>
      </trkpt>
      <trkpt lat="44.25294" lon="6.77817">
        <ele>2118.6</ele>
        <time>2012-07-31T05:07:14Z</time>
      </trkpt>
      <trkpt lat="44.25294" lon="6.77819">
        <ele>2119.6</ele>
        <time>2012-07-31T05:07:15Z</time>
      </trkpt>
      <trkpt lat="44.25293" lon="6.7782">
        <ele>2120.5</ele>
        <time>2012-07-31T05:07:16Z</time>
      </trkpt>
      <trkpt lat="44.25293" lon="6.77821">
        <ele>2120.3</ele>
        <time>2012-07-31T05:07:17Z</time>
      </trkpt>
      <trkpt lat="44.25293" lon="6.77822">
        <ele>2120.6</ele>
        <time>2012-07-31T05:07:18Z</time>
      </trkpt>
      <trkpt lat="44.25292" lon="6.77823">
        <ele>2121.3</ele>
        <time>2012-07-31T05:07:19Z</time>
      </trkpt>
      <trkpt lat="44.25292" lon="6.77823">
        <ele>2120.6</ele>
        <time>2012-07-31T05:07:20Z</time>
      </trkpt>
      <trkpt lat="44.25292" lon="6.77824">
        <ele>2119.8</ele>
        <time>2012-07-31T05:07:21Z</time>
      </trkpt>
      <trkpt lat="44.25291" lon="6.77825">
        <ele>2119.3</ele>
        <time>2012-07-31T05:07:22Z</time>
      </trkpt>
      <trkpt lat="44.25291" lon="6.77826">
        <ele>2118.3</ele>
        <time>2012-07-31T05:07:23Z</time>
      </trkpt>
      <trkpt lat="44.2529" lon="6.77826">
        <ele>2117.6</ele>
        <time>2012-07-31T05:07:24Z</time>
      </trkpt>
      <trkpt lat="44.2529" lon="6.77827">
        <ele>2116.6</ele>
        <time>2012-07-31T05:07:25Z</time>
      </trkpt>
      <trkpt lat="44.2529" lon="6.77828">
        <ele>2115.3</ele>
        <time>2012-07-31T05:07:26Z</time>
      </trkpt>
      <trkpt lat="44.25289" lon="6.77829">
        <ele>2114.8</ele>
        <time>2012-07-31T05:07:27Z</time>
      </trkpt>
      <trkpt lat="44.25289" lon="6.7783">
        <ele>2114.1</ele>
        <time>2012-07-31T05:07:28Z</time>
      </trkpt>
      <trkpt lat="44.25288" lon="6.77831">
        <ele>2114.3</ele>
        <time>2012-07-31T05:07:29Z</time>
      </trkpt>
      <trkpt lat="44.25288" lon="6.77833">
        <ele>2115.3</ele>
        <time>2012-07-31T05:07:30Z</time>
      </trkpt>
      <trkpt lat="44.25287" lon="6.77834">
        <ele>2115.6</ele>
        <time>2012-07-31T05:07:31Z</time>
      </trkpt>
      <trkpt lat="44.25287" lon="6.77835">
        <ele>2116.1</ele>
        <time>2012-07-31T05:07:32Z</time>
      </trkpt>
      <trkpt lat="44.25286" lon="6.77836">
        <ele>2117.1</ele>
        <time>2012-07-31T05:07:33Z</time>
      </trkpt>
      <trkpt lat="44.25286" lon="6.77837">
        <ele>2117.6</ele>
        <time>2012-07-31T05:07:34Z</time>
      </trkpt>
      <trkpt lat="44.25286" lon="6.77838">
        <ele>2116.6</ele>
        <time>2012-07-31T05:07:35Z</time>
      </trkpt>
      <trkpt lat="44.25285" lon="6.77839">
        <ele>2116.6</ele>
        <time>2012-07-31T05:07:36Z</time>
      </trkpt>
      <trkpt lat="44.25285" lon="6.7784">
        <ele>2116.5</ele>
        <time>2012-07-31T05:07:37Z</time>
      </trkpt>
      <trkpt lat="44.25285" lon="6.77841">
        <ele>2116.8</ele>
        <time>2012-07-31T05:07:38Z</time>
      </trkpt>
      <trkpt lat="44.25284" lon="6.77841">
        <ele>2117.1</ele>
        <time>2012-07-31T05:07:39Z</time>
      </trkpt>
      <trkpt lat="44.25284" lon="6.77842">
        <ele>2117.1</ele>
        <time>2012-07-31T05:07:40Z</time>
      </trkpt>
      <trkpt lat="44.25284" lon="6.77843">
        <ele>2117</ele>
        <time>2012-07-31T05:07:41Z</time>
      </trkpt>
      <trkpt lat="44.25284" lon="6.77844">
        <ele>2116.6</ele>
        <time>2012-07-31T05:07:42Z</time>
      </trkpt>
      <trkpt lat="44.25283" lon="6.77845">
        <ele>2116.6</ele>
        <time>2012-07-31T05:07:43Z</time>
      </trkpt>
      <trkpt lat="44.25283" lon="6.77845">
        <ele>2116.8</ele>
        <time>2012-07-31T05:07:44Z</time>
      </trkpt>
      <trkpt lat="44.25283" lon="6.77846">
        <ele>2117.3</ele>
        <time>2012-07-31T05:07:45Z</time>
      </trkpt>
      <trkpt lat="44.25282" lon="6.77847">
        <ele>2117.1</ele>
        <time>2012-07-31T05:07:46Z</time>
      </trkpt>
      <trkpt lat="44.25282" lon="6.77848">
        <ele>2118</ele>
        <time>2012-07-31T05:07:47Z</time>
      </trkpt>
      <trkpt lat="44.25281" lon="6.77849">
        <ele>2118.1</ele>
        <time>2012-07-31T05:07:48Z</time>
      </trkpt>
      <trkpt lat="44.25281" lon="6.7785">
        <ele>2118.1</ele>
        <time>2012-07-31T05:07:49Z</time>
      </trkpt>
      <trkpt lat="44.2528" lon="6.7785">
        <ele>2118.6</ele>
        <time>2012-07-31T05:07:50Z</time>
      </trkpt>
      <trkpt lat="44.2528" lon="6.77852">
        <ele>2120</ele>
        <time>2012-07-31T05:07:51Z</time>
      </trkpt>
      <trkpt lat="44.25279" lon="6.77854">
        <ele>2121.1</ele>
        <time>2012-07-31T05:07:52Z</time>
      </trkpt>
      <trkpt lat="44.25279" lon="6.77855">
        <ele>2121.1</ele>
        <time>2012-07-31T05:07:53Z</time>
      </trkpt>
      <trkpt lat="44.25278" lon="6.77855">
        <ele>2121.3</ele>
        <time>2012-07-31T05:07:54Z</time>
      </trkpt>
      <trkpt lat="44.25278" lon="6.77856">
        <ele>2121.6</ele>
        <time>2012-07-31T05:07:55Z</time>
      </trkpt>
      <trkpt lat="44.25277" lon="6.77856">
        <ele>2121.6</ele>
        <time>2012-07-31T05:07:56Z</time>
      </trkpt>
      <trkpt lat="44.25277" lon="6.77857">
        <ele>2121.3</ele>
        <time>2012-07-31T05:07:57Z</time>
      </trkpt>
      <trkpt lat="44.25276" lon="6.77859">
        <ele>2122.6</ele>
        <time>2012-07-31T05:07:58Z</time>
      </trkpt>
      <trkpt lat="44.25276" lon="6.77859">
        <ele>2123</ele>
        <time>2012-07-31T05:07:59Z</time>
      </trkpt>
      <trkpt lat="44.25276" lon="6.77859">
        <ele>2123.1</ele>
        <time>2012-07-31T05:08:00Z</time>
      </trkpt>
      <trkpt lat="44.25275" lon="6.7786">
        <ele>2124</ele>
        <time>2012-07-31T05:08:01Z</time>
      </trkpt>
      <trkpt lat="44.25274" lon="6.77861">
        <ele>2124.3</ele>
        <time>2012-07-31T05:08:02Z</time>
      </trkpt>
      <trkpt lat="44.25274" lon="6.77862">
        <ele>2123.3</ele>
        <time>2012-07-31T05:08:03Z</time>
      </trkpt>
      <trkpt lat="44.25273" lon="6.77863">
        <ele>2123.6</ele>
        <time>2012-07-31T05:08:04Z</time>
      </trkpt>
      <trkpt lat="44.25273" lon="6.77863">
        <ele>2124</ele>
        <time>2012-07-31T05:08:05Z</time>
      </trkpt>
      <trkpt lat="44.25272" lon="6.77865">
        <ele>2125.1</ele>
        <time>2012-07-31T05:08:06Z</time>
      </trkpt>
      <trkpt lat="44.25271" lon="6.77866">
        <ele>2126.1</ele>
        <time>2012-07-31T05:08:07Z</time>
      </trkpt>
      <trkpt lat="44.2527" lon="6.77867">
        <ele>2127.1</ele>
        <time>2012-07-31T05:08:08Z</time>
      </trkpt>
      <trkpt lat="44.25269" lon="6.77868">
        <ele>2127.8</ele>
        <time>2012-07-31T05:08:09Z</time>
      </trkpt>
      <trkpt lat="44.25269" lon="6.77869">
        <ele>2128.1</ele>
        <time>2012-07-31T05:08:10Z</time>
      </trkpt>
      <trkpt lat="44.25268" lon="6.7787">
        <ele>2127.6</ele>
        <time>2012-07-31T05:08:11Z</time>
      </trkpt>
      <trkpt lat="44.25267" lon="6.7787">
        <ele>2126.6</ele>
        <time>2012-07-31T05:08:12Z</time>
      </trkpt>
      <trkpt lat="44.25266" lon="6.77871">
        <ele>2126.1</ele>
        <time>2012-07-31T05:08:13Z</time>
      </trkpt>
      <trkpt lat="44.25266" lon="6.77872">
        <ele>2125.6</ele>
        <time>2012-07-31T05:08:14Z</time>
      </trkpt>
      <trkpt lat="44.25265" lon="6.77873">
        <ele>2126.5</ele>
        <time>2012-07-31T05:08:15Z</time>
      </trkpt>
      <trkpt lat="44.25264" lon="6.77874">
        <ele>2126.3</ele>
        <time>2012-07-31T05:08:16Z</time>
      </trkpt>
      <trkpt lat="44.25263" lon="6.77874">
        <ele>2127.3</ele>
        <time>2012-07-31T05:08:17Z</time>
      </trkpt>
      <trkpt lat="44.25262" lon="6.77874">
        <ele>2127.3</ele>
        <time>2012-07-31T05:08:18Z</time>
      </trkpt>
      <trkpt lat="44.25262" lon="6.77875">
        <ele>2128.3</ele>
        <time>2012-07-31T05:08:19Z</time>
      </trkpt>
      <trkpt lat="44.25261" lon="6.77876">
        <ele>2129.3</ele>
        <time>2012-07-31T05:08:20Z</time>
      </trkpt>
      <trkpt lat="44.2526" lon="6.77877">
        <ele>2129.6</ele>
        <time>2012-07-31T05:08:21Z</time>
      </trkpt>
      <trkpt lat="44.2526" lon="6.77878">
        <ele>2130.1</ele>
        <time>2012-07-31T05:08:22Z</time>
      </trkpt>
      <trkpt lat="44.25259" lon="6.77879">
        <ele>2130.1</ele>
        <time>2012-07-31T05:08:23Z</time>
      </trkpt>
      <trkpt lat="44.25259" lon="6.77879">
        <ele>2130.3</ele>
        <time>2012-07-31T05:08:24Z</time>
      </trkpt>
      <trkpt lat="44.25259" lon="6.7788">
        <ele>2131</ele>
        <time>2012-07-31T05:08:25Z</time>
      </trkpt>
      <trkpt lat="44.25259" lon="6.7788">
        <ele>2131.1</ele>
        <time>2012-07-31T05:08:26Z</time>
      </trkpt>
      <trkpt lat="44.25259" lon="6.77881">
        <ele>2130.8</ele>
        <time>2012-07-31T05:08:27Z</time>
      </trkpt>
      <trkpt lat="44.25258" lon="6.77881">
        <ele>2131.3</ele>
        <time>2012-07-31T05:08:28Z</time>
      </trkpt>
      <trkpt lat="44.25257" lon="6.77882">
        <ele>2132.1</ele>
        <time>2012-07-31T05:08:29Z</time>
      </trkpt>
      <trkpt lat="44.25257" lon="6.77883">
        <ele>2132.5</ele>
        <time>2012-07-31T05:08:30Z</time>
      </trkpt>
      <trkpt lat="44.25256" lon="6.77884">
        <ele>2132.3</ele>
        <time>2012-07-31T05:08:31Z</time>
      </trkpt>
      <trkpt lat="44.25255" lon="6.77885">
        <ele>2132.8</ele>
        <time>2012-07-31T05:08:32Z</time>
      </trkpt>
      <trkpt lat="44.25255" lon="6.77886">
        <ele>2133.3</ele>
        <time>2012-07-31T05:08:33Z</time>
      </trkpt>
      <trkpt lat="44.25254" lon="6.77887">
        <ele>2134.8</ele>
        <time>2012-07-31T05:08:34Z</time>
      </trkpt>
      <trkpt lat="44.25252" lon="6.77889">
        <ele>2136</ele>
        <time>2012-07-31T05:08:35Z</time>
      </trkpt>
      <trkpt lat="44.25252" lon="6.7789">
        <ele>2135.6</ele>
        <time>2012-07-31T05:08:36Z</time>
      </trkpt>
      <trkpt lat="44.25252" lon="6.7789">
        <ele>2134.8</ele>
        <time>2012-07-31T05:08:37Z</time>
      </trkpt>
      <trkpt lat="44.25251" lon="6.77891">
        <ele>2134.8</ele>
        <time>2012-07-31T05:08:38Z</time>
      </trkpt>
      <trkpt lat="44.25251" lon="6.77892">
        <ele>2134.6</ele>
        <time>2012-07-31T05:08:39Z</time>
      </trkpt>
      <trkpt lat="44.2525" lon="6.77892">
        <ele>2136.1</ele>
        <time>2012-07-31T05:08:40Z</time>
      </trkpt>
      <trkpt lat="44.25249" lon="6.77892">
        <ele>2136.8</ele>
        <time>2012-07-31T05:08:41Z</time>
      </trkpt>
      <trkpt lat="44.25248" lon="6.77892">
        <ele>2137.1</ele>
        <time>2012-07-31T05:08:42Z</time>
      </trkpt>
      <trkpt lat="44.25247" lon="6.77893">
        <ele>2136.8</ele>
        <time>2012-07-31T05:08:43Z</time>
      </trkpt>
      <trkpt lat="44.25247" lon="6.77894">
        <ele>2137.1</ele>
        <time>2012-07-31T05:08:44Z</time>
      </trkpt>
      <trkpt lat="44.25246" lon="6.77895">
        <ele>2137.5</ele>
        <time>2012-07-31T05:08:45Z</time>
      </trkpt>
      <trkpt lat="44.25245" lon="6.77895">
        <ele>2137.8</ele>
        <time>2012-07-31T05:08:46Z</time>
      </trkpt>
      <trkpt lat="44.25244" lon="6.77896">
        <ele>2138.1</ele>
        <time>2012-07-31T05:08:47Z</time>
      </trkpt>
      <trkpt lat="44.25243" lon="6.77898">
        <ele>2138</ele>
        <time>2012-07-31T05:08:48Z</time>
      </trkpt>
      <trkpt lat="44.25243" lon="6.77899">
        <ele>2138</ele>
        <time>2012-07-31T05:08:49Z</time>
      </trkpt>
      <trkpt lat="44.25242" lon="6.779">
        <ele>2137.8</ele>
        <time>2012-07-31T05:08:50Z</time>
      </trkpt>
      <trkpt lat="44.25242" lon="6.779">
        <ele>2137.6</ele>
        <time>2012-07-31T05:08:51Z</time>
      </trkpt>
      <trkpt lat="44.25242" lon="6.77901">
        <ele>2137.1</ele>
        <time>2012-07-31T05:08:52Z</time>
      </trkpt>
      <trkpt lat="44.25241" lon="6.77902">
        <ele>2137.1</ele>
        <time>2012-07-31T05:08:53Z</time>
      </trkpt>
      <trkpt lat="44.2524" lon="6.77903">
        <ele>2137.6</ele>
        <time>2012-07-31T05:08:54Z</time>
      </trkpt>
      <trkpt lat="44.25239" lon="6.77904">
        <ele>2138.1</ele>
        <time>2012-07-31T05:08:55Z</time>
      </trkpt>
      <trkpt lat="44.25238" lon="6.77905">
        <ele>2138.8</ele>
        <time>2012-07-31T05:08:56Z</time>
      </trkpt>
      <trkpt lat="44.25238" lon="6.77906">
        <ele>2139.6</ele>
        <time>2012-07-31T05:08:57Z</time>
      </trkpt>
      <trkpt lat="44.25237" lon="6.77907">
        <ele>2140.1</ele>
        <time>2012-07-31T05:08:58Z</time>
      </trkpt>
      <trkpt lat="44.25236" lon="6.77908">
        <ele>2140.6</ele>
        <time>2012-07-31T05:08:59Z</time>
      </trkpt>
      <trkpt lat="44.25236" lon="6.77909">
        <ele>2141</ele>
        <time>2012-07-31T05:09:00Z</time>
      </trkpt>
      <trkpt lat="44.25235" lon="6.7791">
        <ele>2141.6</ele>
        <time>2012-07-31T05:09:01Z</time>
      </trkpt>
      <trkpt lat="44.25234" lon="6.77911">
        <ele>2141.5</ele>
        <time>2012-07-31T05:09:02Z</time>
      </trkpt>
      <trkpt lat="44.25234" lon="6.77911">
        <ele>2141.8</ele>
        <time>2012-07-31T05:09:03Z</time>
      </trkpt>
      <trkpt lat="44.25233" lon="6.77912">
        <ele>2142.1</ele>
        <time>2012-07-31T05:09:04Z</time>
      </trkpt>
      <trkpt lat="44.25233" lon="6.77913">
        <ele>2142.1</ele>
        <time>2012-07-31T05:09:05Z</time>
      </trkpt>
      <trkpt lat="44.25233" lon="6.77913">
        <ele>2142.6</ele>
        <time>2012-07-31T05:09:06Z</time>
      </trkpt>
      <trkpt lat="44.25232" lon="6.77914">
        <ele>2143</ele>
        <time>2012-07-31T05:09:07Z</time>
      </trkpt>
      <trkpt lat="44.25233" lon="6.77915">
        <ele>2140.8</ele>
        <time>2012-07-31T05:09:08Z</time>
      </trkpt>
      <trkpt lat="44.25233" lon="6.77917">
        <ele>2139.6</ele>
        <time>2012-07-31T05:09:09Z</time>
      </trkpt>
      <trkpt lat="44.25234" lon="6.77917">
        <ele>2138.8</ele>
        <time>2012-07-31T05:09:10Z</time>
      </trkpt>
      <trkpt lat="44.25233" lon="6.77918">
        <ele>2139.1</ele>
        <time>2012-07-31T05:09:11Z</time>
      </trkpt>
      <trkpt lat="44.25232" lon="6.77919">
        <ele>2139.1</ele>
        <time>2012-07-31T05:09:12Z</time>
      </trkpt>
      <trkpt lat="44.25232" lon="6.7792">
        <ele>2140.6</ele>
        <time>2012-07-31T05:09:13Z</time>
      </trkpt>
      <trkpt lat="44.25232" lon="6.77921">
        <ele>2140.8</ele>
        <time>2012-07-31T05:09:14Z</time>
      </trkpt>
      <trkpt lat="44.25231" lon="6.77921">
        <ele>2140.1</ele>
        <time>2012-07-31T05:09:15Z</time>
      </trkpt>
      <trkpt lat="44.25231" lon="6.77921">
        <ele>2139.6</ele>
        <time>2012-07-31T05:09:16Z</time>
      </trkpt>
      <trkpt lat="44.25231" lon="6.77922">
        <ele>2139.3</ele>
        <time>2012-07-31T05:09:17Z</time>
      </trkpt>
      <trkpt lat="44.25231" lon="6.77923">
        <ele>2139.6</ele>
        <time>2012-07-31T05:09:18Z</time>
      </trkpt>
      <trkpt lat="44.2523" lon="6.77923">
        <ele>2139.8</ele>
        <time>2012-07-31T05:09:19Z</time>
      </trkpt>
      <trkpt lat="44.25229" lon="6.77923">
        <ele>2141.1</ele>
        <time>2012-07-31T05:09:20Z</time>
      </trkpt>
      <trkpt lat="44.25229" lon="6.77924">
        <ele>2141.1</ele>
        <time>2012-07-31T05:09:21Z</time>
      </trkpt>
      <trkpt lat="44.25228" lon="6.77925">
        <ele>2141.1</ele>
        <time>2012-07-31T05:09:22Z</time>
      </trkpt>
      <trkpt lat="44.25228" lon="6.77926">
        <ele>2140.8</ele>
        <time>2012-07-31T05:09:23Z</time>
      </trkpt>
      <trkpt lat="44.25227" lon="6.77927">
        <ele>2140.8</ele>
        <time>2012-07-31T05:09:24Z</time>
      </trkpt>
      <trkpt lat="44.25227" lon="6.77927">
        <ele>2140.8</ele>
        <time>2012-07-31T05:09:25Z</time>
      </trkpt>
      <trkpt lat="44.25226" lon="6.77927">
        <ele>2141</ele>
        <time>2012-07-31T05:09:26Z</time>
      </trkpt>
      <trkpt lat="44.25226" lon="6.77928">
        <ele>2141</ele>
        <time>2012-07-31T05:09:27Z</time>
      </trkpt>
      <trkpt lat="44.25226" lon="6.77929">
        <ele>2139.6</ele>
        <time>2012-07-31T05:09:28Z</time>
      </trkpt>
      <trkpt lat="44.25226" lon="6.7793">
        <ele>2139.6</ele>
        <time>2012-07-31T05:09:29Z</time>
      </trkpt>
      <trkpt lat="44.25225" lon="6.77931">
        <ele>2139.3</ele>
        <time>2012-07-31T05:09:30Z</time>
      </trkpt>
      <trkpt lat="44.25225" lon="6.77931">
        <ele>2139.3</ele>
        <time>2012-07-31T05:09:31Z</time>
      </trkpt>
      <trkpt lat="44.25225" lon="6.77931">
        <ele>2138.8</ele>
        <time>2012-07-31T05:09:32Z</time>
      </trkpt>
      <trkpt lat="44.25224" lon="6.7793">
        <ele>2139.1</ele>
        <time>2012-07-31T05:09:33Z</time>
      </trkpt>
      <trkpt lat="44.25224" lon="6.7793">
        <ele>2139.5</ele>
        <time>2012-07-31T05:09:34Z</time>
      </trkpt>
      <trkpt lat="44.25223" lon="6.7793">
        <ele>2139.3</ele>
        <time>2012-07-31T05:09:35Z</time>
      </trkpt>
      <trkpt lat="44.25223" lon="6.7793">
        <ele>2139.8</ele>
        <time>2012-07-31T05:09:36Z</time>
      </trkpt>
      <trkpt lat="44.25222" lon="6.7793">
        <ele>2140.3</ele>
        <time>2012-07-31T05:09:37Z</time>
      </trkpt>
      <trkpt lat="44.25221" lon="6.77931">
        <ele>2140.5</ele>
        <time>2012-07-31T05:09:38Z</time>
      </trkpt>
      <trkpt lat="44.2522" lon="6.77932">
        <ele>2140.3</ele>
        <time>2012-07-31T05:09:39Z</time>
      </trkpt>
      <trkpt lat="44.25219" lon="6.77933">
        <ele>2140.5</ele>
        <time>2012-07-31T05:09:40Z</time>
      </trkpt>
      <trkpt lat="44.25219" lon="6.77933">
        <ele>2140.3</ele>
        <time>2012-07-31T05:09:41Z</time>
      </trkpt>
      <trkpt lat="44.25218" lon="6.77934">
        <ele>2140.3</ele>
        <time>2012-07-31T05:09:42Z</time>
      </trkpt>
      <trkpt lat="44.25217" lon="6.77934">
        <ele>2140.1</ele>
        <time>2012-07-31T05:09:43Z</time>
      </trkpt>
      <trkpt lat="44.25215" lon="6.77933">
        <ele>2141.8</ele>
        <time>2012-07-31T05:09:44Z</time>
      </trkpt>
      <trkpt lat="44.25213" lon="6.77932">
        <ele>2143.1</ele>
        <time>2012-07-31T05:09:45Z</time>
      </trkpt>
      <trkpt lat="44.25211" lon="6.77931">
        <ele>2145.3</ele>
        <time>2012-07-31T05:09:46Z</time>
      </trkpt>
      <trkpt lat="44.2521" lon="6.7793">
        <ele>2145.6</ele>
        <time>2012-07-31T05:09:47Z</time>
      </trkpt>
      <trkpt lat="44.2521" lon="6.7793">
        <ele>2145.8</ele>
        <time>2012-07-31T05:09:48Z</time>
      </trkpt>
      <trkpt lat="44.25209" lon="6.77929">
        <ele>2146.6</ele>
        <time>2012-07-31T05:09:49Z</time>
      </trkpt>
      <trkpt lat="44.25208" lon="6.77927">
        <ele>2148.1</ele>
        <time>2012-07-31T05:09:50Z</time>
      </trkpt>
      <trkpt lat="44.25207" lon="6.77925">
        <ele>2149.6</ele>
        <time>2012-07-31T05:09:51Z</time>
      </trkpt>
      <trkpt lat="44.25206" lon="6.77924">
        <ele>2150.8</ele>
        <time>2012-07-31T05:09:52Z</time>
      </trkpt>
      <trkpt lat="44.25205" lon="6.77924">
        <ele>2151.1</ele>
        <time>2012-07-31T05:09:53Z</time>
      </trkpt>
      <trkpt lat="44.25204" lon="6.77924">
        <ele>2151.1</ele>
        <time>2012-07-31T05:09:54Z</time>
      </trkpt>
      <trkpt lat="44.25203" lon="6.77924">
        <ele>2151.1</ele>
        <time>2012-07-31T05:09:55Z</time>
      </trkpt>
      <trkpt lat="44.25202" lon="6.77924">
        <ele>2151.1</ele>
        <time>2012-07-31T05:09:56Z</time>
      </trkpt>
      <trkpt lat="44.2515" lon="6.77932">
        <ele>2156.3</ele>
        <time>2012-07-31T05:11:08Z</time>
      </trkpt>
      <trkpt lat="44.25149" lon="6.77933">
        <ele>2155.8</ele>
        <time>2012-07-31T05:11:09Z</time>
      </trkpt>
      <trkpt lat="44.25148" lon="6.77935">
        <ele>2155.8</ele>
        <time>2012-07-31T05:11:10Z</time>
      </trkpt>
      <trkpt lat="44.25148" lon="6.77936">
        <ele>2155.6</ele>
        <time>2012-07-31T05:11:11Z</time>
      </trkpt>
      <trkpt lat="44.25147" lon="6.77938">
        <ele>2156</ele>
        <time>2012-07-31T05:11:12Z</time>
      </trkpt>
      <trkpt lat="44.25147" lon="6.77939">
        <ele>2156.1</ele>
        <time>2012-07-31T05:11:13Z</time>
      </trkpt>
      <trkpt lat="44.25146" lon="6.77941">
        <ele>2156.1</ele>
        <time>2012-07-31T05:11:14Z</time>
      </trkpt>
      <trkpt lat="44.2508" lon="6.78019">
        <ele>2174.3</ele>
        <time>2012-07-31T05:12:54Z</time>
      </trkpt>
      <trkpt lat="44.25079" lon="6.7802">
        <ele>2175</ele>
        <time>2012-07-31T05:12:55Z</time>
      </trkpt>
      <trkpt lat="44.25077" lon="6.78021">
        <ele>2175</ele>
        <time>2012-07-31T05:12:57Z</time>
      </trkpt>
      <trkpt lat="44.25072" lon="6.78027">
        <ele>2175.1</ele>
        <time>2012-07-31T05:13:04Z</time>
      </trkpt>
      <trkpt lat="44.25069" lon="6.78036">
        <ele>2177.3</ele>
        <time>2012-07-31T05:13:12Z</time>
      </trkpt>
      <trkpt lat="44.25068" lon="6.78036">
        <ele>2176.5</ele>
        <time>2012-07-31T05:13:13Z</time>
      </trkpt>
      <trkpt lat="44.25068" lon="6.78036">
        <ele>2175.5</ele>
        <time>2012-07-31T05:13:14Z</time>
      </trkpt>
      <trkpt lat="44.25067" lon="6.78036">
        <ele>2175.3</ele>
        <time>2012-07-31T05:13:15Z</time>
      </trkpt>
      <trkpt lat="44.25064" lon="6.78037">
        <ele>2173.3</ele>
        <time>2012-07-31T05:13:19Z</time>
      </trkpt>
      <trkpt lat="44.25053" lon="6.78045">
        <ele>2174.8</ele>
        <time>2012-07-31T05:13:32Z</time>
      </trkpt>
      <trkpt lat="44.25052" lon="6.78047">
        <ele>2175.6</ele>
        <time>2012-07-31T05:13:33Z</time>
      </trkpt>
      <trkpt lat="44.25048" lon="6.78061">
        <ele>2180.5</ele>
        <time>2012-07-31T05:14:14Z</time>
      </trkpt>
      <trkpt lat="44.25048" lon="6.78062">
        <ele>2181.3</ele>
        <time>2012-07-31T05:14:15Z</time>
      </trkpt>
      <trkpt lat="44.25048" lon="6.78061">
        <ele>2181.1</ele>
        <time>2012-07-31T05:14:16Z</time>
      </trkpt>
      <trkpt lat="44.25048" lon="6.78061">
        <ele>2180.8</ele>
        <time>2012-07-31T05:14:17Z</time>
      </trkpt>
      <trkpt lat="44.25048" lon="6.78061">
        <ele>2180.6</ele>
        <time>2012-07-31T05:14:18Z</time>
      </trkpt>
      <trkpt lat="44.25048" lon="6.78061">
        <ele>2180.5</ele>
        <time>2012-07-31T05:14:19Z</time>
      </trkpt>
      <trkpt lat="44.25048" lon="6.78061">
        <ele>2180.3</ele>
        <time>2012-07-31T05:14:20Z</time>
      </trkpt>
      <trkpt lat="44.25048" lon="6.7806">
        <ele>2180.1</ele>
        <time>2012-07-31T05:14:21Z</time>
      </trkpt>
      <trkpt lat="44.25048" lon="6.7806">
        <ele>2179.3</ele>
        <time>2012-07-31T05:14:22Z</time>
      </trkpt>
      <trkpt lat="44.25048" lon="6.78061">
        <ele>2180.8</ele>
        <time>2012-07-31T05:14:24Z</time>
      </trkpt>
      <trkpt lat="44.25048" lon="6.78063">
        <ele>2183.6</ele>
        <time>2012-07-31T05:14:25Z</time>
      </trkpt>
      <trkpt lat="44.25047" lon="6.78065">
        <ele>2185.8</ele>
        <time>2012-07-31T05:14:26Z</time>
      </trkpt>
      <trkpt lat="44.25047" lon="6.78066">
        <ele>2187.5</ele>
        <time>2012-07-31T05:14:27Z</time>
      </trkpt>
      <trkpt lat="44.25047" lon="6.78065">
        <ele>2186.5</ele>
        <time>2012-07-31T05:14:28Z</time>
      </trkpt>
      <trkpt lat="44.25047" lon="6.78064">
        <ele>2186</ele>
        <time>2012-07-31T05:14:29Z</time>
      </trkpt>
      <trkpt lat="44.25048" lon="6.78063">
        <ele>2184</ele>
        <time>2012-07-31T05:14:30Z</time>
      </trkpt>
      <trkpt lat="44.25048" lon="6.78062">
        <ele>2183.1</ele>
        <time>2012-07-31T05:14:31Z</time>
      </trkpt>
      <trkpt lat="44.25048" lon="6.78061">
        <ele>2182.8</ele>
        <time>2012-07-31T05:14:32Z</time>
      </trkpt>
      <trkpt lat="44.25048" lon="6.78061">
        <ele>2182.6</ele>
        <time>2012-07-31T05:14:33Z</time>
      </trkpt>
      <trkpt lat="44.25048" lon="6.78061">
        <ele>2182.6</ele>
        <time>2012-07-31T05:14:34Z</time>
      </trkpt>
      <trkpt lat="44.25048" lon="6.78061">
        <ele>2182.5</ele>
        <time>2012-07-31T05:14:35Z</time>
      </trkpt>
      <trkpt lat="44.25048" lon="6.78062">
        <ele>2182.6</ele>
        <time>2012-07-31T05:14:36Z</time>
      </trkpt>
      <trkpt lat="44.25048" lon="6.78062">
        <ele>2182.8</ele>
        <time>2012-07-31T05:14:37Z</time>
      </trkpt>
      <trkpt lat="44.25048" lon="6.78062">
        <ele>2183.1</ele>
        <time>2012-07-31T05:14:38Z</time>
      </trkpt>
      <trkpt lat="44.25048" lon="6.78064">
        <ele>2184.6</ele>
        <time>2012-07-31T05:14:39Z</time>
      </trkpt>
      <trkpt lat="44.25047" lon="6.78065">
        <ele>2186.5</ele>
        <time>2012-07-31T05:14:40Z</time>
      </trkpt>
      <trkpt lat="44.25047" lon="6.78064">
        <ele>2185.8</ele>
        <time>2012-07-31T05:14:41Z</time>
      </trkpt>
      <trkpt lat="44.25047" lon="6.78064">
        <ele>2185.6</ele>
        <time>2012-07-31T05:14:42Z</time>
      </trkpt>
      <trkpt lat="44.25048" lon="6.78063">
        <ele>2184.5</ele>
        <time>2012-07-31T05:14:43Z</time>
      </trkpt>
      <trkpt lat="44.25047" lon="6.78064">
        <ele>2184.5</ele>
        <time>2012-07-31T05:14:44Z</time>
      </trkpt>
      <trkpt lat="44.25048" lon="6.78063">
        <ele>2184.3</ele>
        <time>2012-07-31T05:14:45Z</time>
      </trkpt>
      <trkpt lat="44.25048" lon="6.78062">
        <ele>2182.8</ele>
        <time>2012-07-31T05:14:46Z</time>
      </trkpt>
      <trkpt lat="44.25048" lon="6.78062">
        <ele>2182.5</ele>
        <time>2012-07-31T05:14:47Z</time>
      </trkpt>
      <trkpt lat="44.25048" lon="6.78062">
        <ele>2182.3</ele>
        <time>2012-07-31T05:14:48Z</time>
      </trkpt>
      <trkpt lat="44.25048" lon="6.78062">
        <ele>2182.5</ele>
        <time>2012-07-31T05:14:49Z</time>
      </trkpt>
      <trkpt lat="44.25037" lon="6.78067">
        <ele>2182</ele>
        <time>2012-07-31T05:15:32Z</time>
      </trkpt>
      <trkpt lat="44.25036" lon="6.78067">
        <ele>2181.1</ele>
        <time>2012-07-31T05:15:33Z</time>
      </trkpt>
      <trkpt lat="44.25017" lon="6.78054">
        <ele>2186.6</ele>
        <time>2012-07-31T05:15:51Z</time>
      </trkpt>
      <trkpt lat="44.25015" lon="6.78053">
        <ele>2187.3</ele>
        <time>2012-07-31T05:15:52Z</time>
      </trkpt>
      <trkpt lat="44.25014" lon="6.78053">
        <ele>2187</ele>
        <time>2012-07-31T05:15:53Z</time>
      </trkpt>
      <trkpt lat="44.25014" lon="6.78056">
        <ele>2187.1</ele>
        <time>2012-07-31T05:15:54Z</time>
      </trkpt>
      <trkpt lat="44.25013" lon="6.78057">
        <ele>2187.6</ele>
        <time>2012-07-31T05:15:55Z</time>
      </trkpt>
      <trkpt lat="44.25013" lon="6.78059">
        <ele>2188</ele>
        <time>2012-07-31T05:15:56Z</time>
      </trkpt>
      <trkpt lat="44.25012" lon="6.7806">
        <ele>2188.1</ele>
        <time>2012-07-31T05:15:57Z</time>
      </trkpt>
      <trkpt lat="44.25011" lon="6.78061">
        <ele>2188.1</ele>
        <time>2012-07-31T05:15:58Z</time>
      </trkpt>
      <trkpt lat="44.25011" lon="6.78062">
        <ele>2187.6</ele>
        <time>2012-07-31T05:15:59Z</time>
      </trkpt>
      <trkpt lat="44.2501" lon="6.78063">
        <ele>2187.3</ele>
        <time>2012-07-31T05:16:00Z</time>
      </trkpt>
      <trkpt lat="44.24975" lon="6.78066">
        <ele>2185.6</ele>
        <time>2012-07-31T05:16:41Z</time>
      </trkpt>
      <trkpt lat="44.24974" lon="6.78067">
        <ele>2186.8</ele>
        <time>2012-07-31T05:16:42Z</time>
      </trkpt>
      <trkpt lat="44.24971" lon="6.7807">
        <ele>2188.5</ele>
        <time>2012-07-31T05:16:45Z</time>
      </trkpt>
      <trkpt lat="44.24961" lon="6.78089">
        <ele>2194</ele>
        <time>2012-07-31T05:16:58Z</time>
      </trkpt>
      <trkpt lat="44.24961" lon="6.78091">
        <ele>2194.8</ele>
        <time>2012-07-31T05:16:59Z</time>
      </trkpt>
      <trkpt lat="44.24913" lon="6.78172">
        <ele>2160.8</ele>
        <time>2012-07-31T05:18:42Z</time>
      </trkpt>
      <trkpt lat="44.24912" lon="6.78171">
        <ele>2161</ele>
        <time>2012-07-31T05:18:43Z</time>
      </trkpt>
      <trkpt lat="44.24682" lon="6.78173">
        <ele>2214</ele>
        <time>2012-07-31T05:23:20Z</time>
      </trkpt>
      <trkpt lat="44.2468" lon="6.78174">
        <ele>2215.8</ele>
        <time>2012-07-31T05:23:21Z</time>
      </trkpt>
      <trkpt lat="44.24402" lon="6.78518">
        <ele>2307.8</ele>
        <time>2012-07-31T05:32:42Z</time>
      </trkpt>
      <trkpt lat="44.24401" lon="6.78518">
        <ele>2307.6</ele>
        <time>2012-07-31T05:32:43Z</time>
      </trkpt>
      <trkpt lat="44.24396" lon="6.78518">
        <ele>2307.1</ele>
        <time>2012-07-31T05:32:47Z</time>
      </trkpt>
      <trkpt lat="44.24394" lon="6.78518">
        <ele>2307.1</ele>
        <time>2012-07-31T05:32:48Z</time>
      </trkpt>
      <trkpt lat="44.24393" lon="6.78519">
        <ele>2306.8</ele>
        <time>2012-07-31T05:32:49Z</time>
      </trkpt>
      <trkpt lat="44.24392" lon="6.78519">
        <ele>2306.6</ele>
        <time>2012-07-31T05:32:50Z</time>
      </trkpt>
      <trkpt lat="44.24386" lon="6.78522">
        <ele>2304.6</ele>
        <time>2012-07-31T05:32:55Z</time>
      </trkpt>
      <trkpt lat="44.24382" lon="6.78524">
        <ele>2303.8</ele>
        <time>2012-07-31T05:32:59Z</time>
      </trkpt>
      <trkpt lat="44.24368" lon="6.78535">
        <ele>2299.1</ele>
        <time>2012-07-31T05:33:14Z</time>
      </trkpt>
      <trkpt lat="44.24367" lon="6.78536">
        <ele>2299.3</ele>
        <time>2012-07-31T05:33:15Z</time>
      </trkpt>
      <trkpt lat="44.24367" lon="6.78538">
        <ele>2299.5</ele>
        <time>2012-07-31T05:33:16Z</time>
      </trkpt>
      <trkpt lat="44.24366" lon="6.78544">
        <ele>2298.3</ele>
        <time>2012-07-31T05:33:20Z</time>
      </trkpt>
      <trkpt lat="44.2436" lon="6.78546">
        <ele>2304.3</ele>
        <time>2012-07-31T05:33:27Z</time>
      </trkpt>
      <trkpt lat="44.24359" lon="6.78546">
        <ele>2304.8</ele>
        <time>2012-07-31T05:33:28Z</time>
      </trkpt>
      <trkpt lat="44.24358" lon="6.78546">
        <ele>2305.6</ele>
        <time>2012-07-31T05:33:29Z</time>
      </trkpt>
      <trkpt lat="44.24356" lon="6.78546">
        <ele>2306.3</ele>
        <time>2012-07-31T05:33:31Z</time>
      </trkpt>
      <trkpt lat="44.24353" lon="6.78545">
        <ele>2307.5</ele>
        <time>2012-07-31T05:33:34Z</time>
      </trkpt>
      <trkpt lat="44.24352" lon="6.78546">
        <ele>2307.8</ele>
        <time>2012-07-31T05:33:35Z</time>
      </trkpt>
      <trkpt lat="44.24343" lon="6.78547">
        <ele>2309.6</ele>
        <time>2012-07-31T05:33:44Z</time>
      </trkpt>
      <trkpt lat="44.24342" lon="6.78547">
        <ele>2309.8</ele>
        <time>2012-07-31T05:33:45Z</time>
      </trkpt>
      <trkpt lat="44.24342" lon="6.78548">
        <ele>2309.8</ele>
        <time>2012-07-31T05:33:46Z</time>
      </trkpt>
      <trkpt lat="44.24304" lon="6.78586">
        <ele>2303.3</ele>
        <time>2012-07-31T05:34:45Z</time>
      </trkpt>
      <trkpt lat="44.24303" lon="6.78587">
        <ele>2303.3</ele>
        <time>2012-07-31T05:34:46Z</time>
      </trkpt>
      <trkpt lat="44.24302" lon="6.78588">
        <ele>2303.6</ele>
        <time>2012-07-31T05:34:47Z</time>
      </trkpt>
      <trkpt lat="44.24302" lon="6.78589">
        <ele>2303.5</ele>
        <time>2012-07-31T05:34:48Z</time>
      </trkpt>
      <trkpt lat="44.24301" lon="6.78589">
        <ele>2303.6</ele>
        <time>2012-07-31T05:34:49Z</time>
      </trkpt>
      <trkpt lat="44.243" lon="6.7859">
        <ele>2303.8</ele>
        <time>2012-07-31T05:34:50Z</time>
      </trkpt>
      <trkpt lat="44.243" lon="6.7859">
        <ele>2303.5</ele>
        <time>2012-07-31T05:34:51Z</time>
      </trkpt>
      <trkpt lat="44.24299" lon="6.78591">
        <ele>2303.6</ele>
        <time>2012-07-31T05:34:52Z</time>
      </trkpt>
      <trkpt lat="44.24298" lon="6.78592">
        <ele>2303.8</ele>
        <time>2012-07-31T05:34:53Z</time>
      </trkpt>
      <trkpt lat="44.24298" lon="6.78592">
        <ele>2303.8</ele>
        <time>2012-07-31T05:34:54Z</time>
      </trkpt>
      <trkpt lat="44.24297" lon="6.78593">
        <ele>2304</ele>
        <time>2012-07-31T05:34:55Z</time>
      </trkpt>
      <trkpt lat="44.24297" lon="6.78594">
        <ele>2304.1</ele>
        <time>2012-07-31T05:34:56Z</time>
      </trkpt>
      <trkpt lat="44.24296" lon="6.78594">
        <ele>2304.5</ele>
        <time>2012-07-31T05:34:57Z</time>
      </trkpt>
      <trkpt lat="44.24296" lon="6.78595">
        <ele>2304.3</ele>
        <time>2012-07-31T05:34:58Z</time>
      </trkpt>
      <trkpt lat="44.24295" lon="6.78596">
        <ele>2304.6</ele>
        <time>2012-07-31T05:34:59Z</time>
      </trkpt>
      <trkpt lat="44.24206" lon="6.78706">
        <ele>2326.8</ele>
        <time>2012-07-31T05:37:32Z</time>
      </trkpt>
      <trkpt lat="44.24205" lon="6.78707">
        <ele>2326.8</ele>
        <time>2012-07-31T05:37:33Z</time>
      </trkpt>
      <trkpt lat="44.24198" lon="6.78717">
        <ele>2327.3</ele>
        <time>2012-07-31T05:37:45Z</time>
      </trkpt>
      <trkpt lat="44.24197" lon="6.78717">
        <ele>2326.6</ele>
        <time>2012-07-31T05:37:46Z</time>
      </trkpt>
      <trkpt lat="44.24189" lon="6.78733">
        <ele>2328.3</ele>
        <time>2012-07-31T05:38:00Z</time>
      </trkpt>
      <trkpt lat="44.24188" lon="6.78734">
        <ele>2329</ele>
        <time>2012-07-31T05:38:01Z</time>
      </trkpt>
      <trkpt lat="44.24188" lon="6.78735">
        <ele>2328.5</ele>
        <time>2012-07-31T05:38:02Z</time>
      </trkpt>
      <trkpt lat="44.24187" lon="6.78735">
        <ele>2328.5</ele>
        <time>2012-07-31T05:38:03Z</time>
      </trkpt>
      <trkpt lat="44.24185" lon="6.78737">
        <ele>2328.3</ele>
        <time>2012-07-31T05:38:05Z</time>
      </trkpt>
      <trkpt lat="44.2415" lon="6.78776">
        <ele>2333.1</ele>
        <time>2012-07-31T05:38:54Z</time>
      </trkpt>
      <trkpt lat="44.2415" lon="6.78777">
        <ele>2333.6</ele>
        <time>2012-07-31T05:38:55Z</time>
      </trkpt>
      <trkpt lat="44.24149" lon="6.78779">
        <ele>2334.1</ele>
        <time>2012-07-31T05:38:56Z</time>
      </trkpt>
      <trkpt lat="44.24149" lon="6.7878">
        <ele>2334.5</ele>
        <time>2012-07-31T05:38:57Z</time>
      </trkpt>
      <trkpt lat="44.24148" lon="6.78781">
        <ele>2334.8</ele>
        <time>2012-07-31T05:38:58Z</time>
      </trkpt>
      <trkpt lat="44.24148" lon="6.78782">
        <ele>2335.1</ele>
        <time>2012-07-31T05:38:59Z</time>
      </trkpt>
      <trkpt lat="44.24147" lon="6.78783">
        <ele>2335.1</ele>
        <time>2012-07-31T05:39:00Z</time>
      </trkpt>
      <trkpt lat="44.24146" lon="6.78784">
        <ele>2335.3</ele>
        <time>2012-07-31T05:39:01Z</time>
      </trkpt>
      <trkpt lat="44.24146" lon="6.78785">
        <ele>2335.8</ele>
        <time>2012-07-31T05:39:02Z</time>
      </trkpt>
      <trkpt lat="44.24141" lon="6.78797">
        <ele>2339.5</ele>
        <time>2012-07-31T05:39:12Z</time>
      </trkpt>
      <trkpt lat="44.2414" lon="6.78798">
        <ele>2339.5</ele>
        <time>2012-07-31T05:39:13Z</time>
      </trkpt>
      <trkpt lat="44.24128" lon="6.78825">
        <ele>2342.3</ele>
        <time>2012-07-31T05:39:37Z</time>
      </trkpt>
      <trkpt lat="44.24117" lon="6.78842">
        <ele>2343.3</ele>
        <time>2012-07-31T05:39:55Z</time>
      </trkpt>
      <trkpt lat="44.24117" lon="6.78844">
        <ele>2343.3</ele>
        <time>2012-07-31T05:39:56Z</time>
      </trkpt>
      <trkpt lat="44.24109" lon="6.78861">
        <ele>2347.3</ele>
        <time>2012-07-31T05:40:12Z</time>
      </trkpt>
      <trkpt lat="44.24102" lon="6.78869">
        <ele>2348.5</ele>
        <time>2012-07-31T05:40:22Z</time>
      </trkpt>
      <trkpt lat="44.24102" lon="6.7887">
        <ele>2348.3</ele>
        <time>2012-07-31T05:40:23Z</time>
      </trkpt>
      <trkpt lat="44.24097" lon="6.78879">
        <ele>2348.8</ele>
        <time>2012-07-31T05:40:31Z</time>
      </trkpt>
      <trkpt lat="44.24097" lon="6.7888">
        <ele>2349</ele>
        <time>2012-07-31T05:40:32Z</time>
      </trkpt>
      <trkpt lat="44.24039" lon="6.78926">
        <ele>2352.8</ele>
        <time>2012-07-31T05:41:56Z</time>
      </trkpt>
      <trkpt lat="44.24038" lon="6.78926">
        <ele>2353.8</ele>
        <time>2012-07-31T05:41:57Z</time>
      </trkpt>
      <trkpt lat="44.23997" lon="6.78967">
        <ele>2357.8</ele>
        <time>2012-07-31T05:42:58Z</time>
      </trkpt>
      <trkpt lat="44.23997" lon="6.78968">
        <ele>2357.8</ele>
        <time>2012-07-31T05:42:59Z</time>
      </trkpt>
      <trkpt lat="44.23996" lon="6.78973">
        <ele>2358.1</ele>
        <time>2012-07-31T05:43:02Z</time>
      </trkpt>
      <trkpt lat="44.23994" lon="6.78977">
        <ele>2358.6</ele>
        <time>2012-07-31T05:43:06Z</time>
      </trkpt>
      <trkpt lat="44.23987" lon="6.78994">
        <ele>2361.1</ele>
        <time>2012-07-31T05:43:19Z</time>
      </trkpt>
      <trkpt lat="44.23987" lon="6.78995">
        <ele>2361.3</ele>
        <time>2012-07-31T05:43:20Z</time>
      </trkpt>
      <trkpt lat="44.23987" lon="6.78997">
        <ele>2361.5</ele>
        <time>2012-07-31T05:43:21Z</time>
      </trkpt>
      <trkpt lat="44.23986" lon="6.78999">
        <ele>2361.5</ele>
        <time>2012-07-31T05:43:23Z</time>
      </trkpt>
      <trkpt lat="44.23985" lon="6.79">
        <ele>2361.6</ele>
        <time>2012-07-31T05:43:24Z</time>
      </trkpt>
      <trkpt lat="44.23982" lon="6.79003">
        <ele>2362.8</ele>
        <time>2012-07-31T05:43:28Z</time>
      </trkpt>
      <trkpt lat="44.23982" lon="6.79004">
        <ele>2362.8</ele>
        <time>2012-07-31T05:43:29Z</time>
      </trkpt>
      <trkpt lat="44.23978" lon="6.79015">
        <ele>2365</ele>
        <time>2012-07-31T05:43:37Z</time>
      </trkpt>
      <trkpt lat="44.23978" lon="6.79016">
        <ele>2364.8</ele>
        <time>2012-07-31T05:43:38Z</time>
      </trkpt>
      <trkpt lat="44.23975" lon="6.7903">
        <ele>2368.8</ele>
        <time>2012-07-31T05:43:49Z</time>
      </trkpt>
      <trkpt lat="44.23975" lon="6.79032">
        <ele>2369.3</ele>
        <time>2012-07-31T05:43:50Z</time>
      </trkpt>
      <trkpt lat="44.23974" lon="6.79033">
        <ele>2369.8</ele>
        <time>2012-07-31T05:43:51Z</time>
      </trkpt>
      <trkpt lat="44.23974" lon="6.79034">
        <ele>2370.1</ele>
        <time>2012-07-31T05:43:52Z</time>
      </trkpt>
      <trkpt lat="44.23973" lon="6.7904">
        <ele>2374.5</ele>
        <time>2012-07-31T05:43:57Z</time>
      </trkpt>
      <trkpt lat="44.23973" lon="6.79041">
        <ele>2375.1</ele>
        <time>2012-07-31T05:43:58Z</time>
      </trkpt>
      <trkpt lat="44.23974" lon="6.79043">
        <ele>2375.3</ele>
        <time>2012-07-31T05:43:59Z</time>
      </trkpt>
      <trkpt lat="44.23974" lon="6.79044">
        <ele>2376.1</ele>
        <time>2012-07-31T05:44:00Z</time>
      </trkpt>
      <trkpt lat="44.23974" lon="6.79045">
        <ele>2376.8</ele>
        <time>2012-07-31T05:44:01Z</time>
      </trkpt>
      <trkpt lat="44.23973" lon="6.79046">
        <ele>2377.3</ele>
        <time>2012-07-31T05:44:02Z</time>
      </trkpt>
      <trkpt lat="44.23973" lon="6.79047">
        <ele>2377.6</ele>
        <time>2012-07-31T05:44:03Z</time>
      </trkpt>
      <trkpt lat="44.23973" lon="6.79048">
        <ele>2377.8</ele>
        <time>2012-07-31T05:44:04Z</time>
      </trkpt>
      <trkpt lat="44.23973" lon="6.79049">
        <ele>2378.3</ele>
        <time>2012-07-31T05:44:05Z</time>
      </trkpt>
      <trkpt lat="44.23973" lon="6.79052">
        <ele>2377.8</ele>
        <time>2012-07-31T05:44:06Z</time>
      </trkpt>
      <trkpt lat="44.23973" lon="6.79053">
        <ele>2377.8</ele>
        <time>2012-07-31T05:44:07Z</time>
      </trkpt>
      <trkpt lat="44.23973" lon="6.79054">
        <ele>2377.8</ele>
        <time>2012-07-31T05:44:08Z</time>
      </trkpt>
      <trkpt lat="44.23975" lon="6.7907">
        <ele>2377.8</ele>
        <time>2012-07-31T05:44:49Z</time>
      </trkpt>
      <trkpt lat="44.23974" lon="6.79072">
        <ele>2377.6</ele>
        <time>2012-07-31T05:44:50Z</time>
      </trkpt>
      <trkpt lat="44.23974" lon="6.79073">
        <ele>2377.6</ele>
        <time>2012-07-31T05:44:51Z</time>
      </trkpt>
      <trkpt lat="44.23962" lon="6.79095">
        <ele>2377.3</ele>
        <time>2012-07-31T05:45:12Z</time>
      </trkpt>
      <trkpt lat="44.23961" lon="6.79096">
        <ele>2377.5</ele>
        <time>2012-07-31T05:45:13Z</time>
      </trkpt>
      <trkpt lat="44.23955" lon="6.79105">
        <ele>2378.1</ele>
        <time>2012-07-31T05:45:22Z</time>
      </trkpt>
      <trkpt lat="44.23948" lon="6.79118">
        <ele>2379.8</ele>
        <time>2012-07-31T05:45:35Z</time>
      </trkpt>
      <trkpt lat="44.23886" lon="6.79222">
        <ele>2383</ele>
        <time>2012-07-31T05:47:32Z</time>
      </trkpt>
      <trkpt lat="44.23885" lon="6.79223">
        <ele>2382.8</ele>
        <time>2012-07-31T05:47:33Z</time>
      </trkpt>
      <trkpt lat="44.23882" lon="6.79226">
        <ele>2383.6</ele>
        <time>2012-07-31T05:47:37Z</time>
      </trkpt>
      <trkpt lat="44.23881" lon="6.79227">
        <ele>2383.8</ele>
        <time>2012-07-31T05:47:38Z</time>
      </trkpt>
      <trkpt lat="44.23878" lon="6.79233">
        <ele>2385.3</ele>
        <time>2012-07-31T05:47:43Z</time>
      </trkpt>
      <trkpt lat="44.23878" lon="6.79234">
        <ele>2385.3</ele>
        <time>2012-07-31T05:47:44Z</time>
      </trkpt>
      <trkpt lat="44.23844" lon="6.79301">
        <ele>2395.6</ele>
        <time>2012-07-31T05:48:47Z</time>
      </trkpt>
      <trkpt lat="44.23844" lon="6.79302">
        <ele>2395.6</ele>
        <time>2012-07-31T05:48:48Z</time>
      </trkpt>
      <trkpt lat="44.23842" lon="6.79305">
        <ele>2396.5</ele>
        <time>2012-07-31T05:48:51Z</time>
      </trkpt>
      <trkpt lat="44.23841" lon="6.79308">
        <ele>2396.1</ele>
        <time>2012-07-31T05:48:53Z</time>
      </trkpt>
      <trkpt lat="44.2384" lon="6.79309">
        <ele>2396.3</ele>
        <time>2012-07-31T05:48:54Z</time>
      </trkpt>
      <trkpt lat="44.23839" lon="6.79315">
        <ele>2395.8</ele>
        <time>2012-07-31T05:48:59Z</time>
      </trkpt>
      <trkpt lat="44.23838" lon="6.79317">
        <ele>2396.1</ele>
        <time>2012-07-31T05:49:00Z</time>
      </trkpt>
      <trkpt lat="44.23838" lon="6.79318">
        <ele>2395.8</ele>
        <time>2012-07-31T05:49:01Z</time>
      </trkpt>
      <trkpt lat="44.23838" lon="6.79336">
        <ele>2400.3</ele>
        <time>2012-07-31T05:49:16Z</time>
      </trkpt>
      <trkpt lat="44.23838" lon="6.79337">
        <ele>2400.5</ele>
        <time>2012-07-31T05:49:17Z</time>
      </trkpt>
      <trkpt lat="44.23839" lon="6.79339">
        <ele>2400.8</ele>
        <time>2012-07-31T05:49:18Z</time>
      </trkpt>
      <trkpt lat="44.23839" lon="6.7934">
        <ele>2400.8</ele>
        <time>2012-07-31T05:49:19Z</time>
      </trkpt>
      <trkpt lat="44.23838" lon="6.7935">
        <ele>2403.6</ele>
        <time>2012-07-31T05:49:26Z</time>
      </trkpt>
      <trkpt lat="44.23837" lon="6.79351">
        <ele>2403.5</ele>
        <time>2012-07-31T05:49:27Z</time>
      </trkpt>
      <trkpt lat="44.23837" lon="6.79353">
        <ele>2403.5</ele>
        <time>2012-07-31T05:49:28Z</time>
      </trkpt>
      <trkpt lat="44.23837" lon="6.79354">
        <ele>2403.5</ele>
        <time>2012-07-31T05:49:29Z</time>
      </trkpt>
      <trkpt lat="44.23836" lon="6.79358">
        <ele>2403.6</ele>
        <time>2012-07-31T05:49:31Z</time>
      </trkpt>
      <trkpt lat="44.23835" lon="6.79359">
        <ele>2403.8</ele>
        <time>2012-07-31T05:49:32Z</time>
      </trkpt>
      <trkpt lat="44.2383" lon="6.79414">
        <ele>2409.3</ele>
        <time>2012-07-31T05:50:20Z</time>
      </trkpt>
      <trkpt lat="44.2383" lon="6.79415">
        <ele>2409.5</ele>
        <time>2012-07-31T05:50:21Z</time>
      </trkpt>
      <trkpt lat="44.23831" lon="6.79455">
        <ele>2412</ele>
        <time>2012-07-31T05:50:53Z</time>
      </trkpt>
      <trkpt lat="44.23834" lon="6.79468">
        <ele>2413.5</ele>
        <time>2012-07-31T05:51:03Z</time>
      </trkpt>
      <trkpt lat="44.23834" lon="6.79469">
        <ele>2413.5</ele>
        <time>2012-07-31T05:51:04Z</time>
      </trkpt>
      <trkpt lat="44.23835" lon="6.7947">
        <ele>2413.6</ele>
        <time>2012-07-31T05:51:05Z</time>
      </trkpt>
      <trkpt lat="44.23835" lon="6.79471">
        <ele>2413.8</ele>
        <time>2012-07-31T05:51:06Z</time>
      </trkpt>
      <trkpt lat="44.23835" lon="6.79473">
        <ele>2413.8</ele>
        <time>2012-07-31T05:51:07Z</time>
      </trkpt>
      <trkpt lat="44.23835" lon="6.79474">
        <ele>2413.6</ele>
        <time>2012-07-31T05:51:08Z</time>
      </trkpt>
      <trkpt lat="44.23835" lon="6.79475">
        <ele>2413.5</ele>
        <time>2012-07-31T05:51:09Z</time>
      </trkpt>
      <trkpt lat="44.23835" lon="6.79476">
        <ele>2413.1</ele>
        <time>2012-07-31T05:51:10Z</time>
      </trkpt>
      <trkpt lat="44.23835" lon="6.79478">
        <ele>2413</ele>
        <time>2012-07-31T05:51:11Z</time>
      </trkpt>
      <trkpt lat="44.23835" lon="6.79479">
        <ele>2412.8</ele>
        <time>2012-07-31T05:51:12Z</time>
      </trkpt>
      <trkpt lat="44.23835" lon="6.7948">
        <ele>2412.8</ele>
        <time>2012-07-31T05:51:13Z</time>
      </trkpt>
      <trkpt lat="44.23835" lon="6.79481">
        <ele>2412.5</ele>
        <time>2012-07-31T05:51:14Z</time>
      </trkpt>
      <trkpt lat="44.23835" lon="6.79482">
        <ele>2412.5</ele>
        <time>2012-07-31T05:51:15Z</time>
      </trkpt>
      <trkpt lat="44.23835" lon="6.79483">
        <ele>2412.3</ele>
        <time>2012-07-31T05:51:16Z</time>
      </trkpt>
      <trkpt lat="44.23835" lon="6.79484">
        <ele>2412.1</ele>
        <time>2012-07-31T05:51:17Z</time>
      </trkpt>
      <trkpt lat="44.23835" lon="6.79485">
        <ele>2412.3</ele>
        <time>2012-07-31T05:51:18Z</time>
      </trkpt>
      <trkpt lat="44.23835" lon="6.79486">
        <ele>2412.3</ele>
        <time>2012-07-31T05:51:19Z</time>
      </trkpt>
      <trkpt lat="44.23835" lon="6.79487">
        <ele>2412.3</ele>
        <time>2012-07-31T05:51:20Z</time>
      </trkpt>
      <trkpt lat="44.23835" lon="6.79488">
        <ele>2412.3</ele>
        <time>2012-07-31T05:51:21Z</time>
      </trkpt>
      <trkpt lat="44.23835" lon="6.79489">
        <ele>2412.5</ele>
        <time>2012-07-31T05:51:22Z</time>
      </trkpt>
      <trkpt lat="44.23835" lon="6.7949">
        <ele>2412.6</ele>
        <time>2012-07-31T05:51:23Z</time>
      </trkpt>
      <trkpt lat="44.23835" lon="6.79491">
        <ele>2412.8</ele>
        <time>2012-07-31T05:51:24Z</time>
      </trkpt>
      <trkpt lat="44.23835" lon="6.79492">
        <ele>2413</ele>
        <time>2012-07-31T05:51:25Z</time>
      </trkpt>
      <trkpt lat="44.23835" lon="6.79493">
        <ele>2413.1</ele>
        <time>2012-07-31T05:51:26Z</time>
      </trkpt>
      <trkpt lat="44.23834" lon="6.79494">
        <ele>2413.1</ele>
        <time>2012-07-31T05:51:27Z</time>
      </trkpt>
      <trkpt lat="44.23834" lon="6.79494">
        <ele>2413.3</ele>
        <time>2012-07-31T05:51:28Z</time>
      </trkpt>
      <trkpt lat="44.23834" lon="6.79496">
        <ele>2413.3</ele>
        <time>2012-07-31T05:51:29Z</time>
      </trkpt>
      <trkpt lat="44.23834" lon="6.79497">
        <ele>2413.1</ele>
        <time>2012-07-31T05:51:30Z</time>
      </trkpt>
      <trkpt lat="44.23834" lon="6.79498">
        <ele>2413.3</ele>
        <time>2012-07-31T05:51:31Z</time>
      </trkpt>
      <trkpt lat="44.23834" lon="6.79499">
        <ele>2413.3</ele>
        <time>2012-07-31T05:51:32Z</time>
      </trkpt>
      <trkpt lat="44.23833" lon="6.795">
        <ele>2413.3</ele>
        <time>2012-07-31T05:51:33Z</time>
      </trkpt>
      <trkpt lat="44.23833" lon="6.79501">
        <ele>2413.3</ele>
        <time>2012-07-31T05:51:34Z</time>
      </trkpt>
      <trkpt lat="44.23833" lon="6.79502">
        <ele>2413.5</ele>
        <time>2012-07-31T05:51:35Z</time>
      </trkpt>
      <trkpt lat="44.23833" lon="6.79502">
        <ele>2413.6</ele>
        <time>2012-07-31T05:51:36Z</time>
      </trkpt>
      <trkpt lat="44.23832" lon="6.79503">
        <ele>2413.6</ele>
        <time>2012-07-31T05:51:37Z</time>
      </trkpt>
      <trkpt lat="44.23832" lon="6.79504">
        <ele>2413.6</ele>
        <time>2012-07-31T05:51:38Z</time>
      </trkpt>
      <trkpt lat="44.23832" lon="6.79506">
        <ele>2414</ele>
        <time>2012-07-31T05:51:39Z</time>
      </trkpt>
      <trkpt lat="44.23832" lon="6.79507">
        <ele>2413.8</ele>
        <time>2012-07-31T05:51:40Z</time>
      </trkpt>
      <trkpt lat="44.23832" lon="6.79508">
        <ele>2413.6</ele>
        <time>2012-07-31T05:51:41Z</time>
      </trkpt>
      <trkpt lat="44.23832" lon="6.79509">
        <ele>2413.6</ele>
        <time>2012-07-31T05:51:42Z</time>
      </trkpt>
      <trkpt lat="44.23832" lon="6.7951">
        <ele>2413.6</ele>
        <time>2012-07-31T05:51:43Z</time>
      </trkpt>
      <trkpt lat="44.23832" lon="6.79511">
        <ele>2413.8</ele>
        <time>2012-07-31T05:51:44Z</time>
      </trkpt>
      <trkpt lat="44.23832" lon="6.79512">
        <ele>2413.8</ele>
        <time>2012-07-31T05:51:45Z</time>
      </trkpt>
      <trkpt lat="44.23831" lon="6.79513">
        <ele>2413.8</ele>
        <time>2012-07-31T05:51:46Z</time>
      </trkpt>
      <trkpt lat="44.23831" lon="6.79514">
        <ele>2413.6</ele>
        <time>2012-07-31T05:51:47Z</time>
      </trkpt>
      <trkpt lat="44.23813" lon="6.79631">
        <ele>2424</ele>
        <time>2012-07-31T05:55:40Z</time>
      </trkpt>
      <trkpt lat="44.23813" lon="6.79632">
        <ele>2424.6</ele>
        <time>2012-07-31T05:55:41Z</time>
      </trkpt>
      <trkpt lat="44.23813" lon="6.79633">
        <ele>2425.1</ele>
        <time>2012-07-31T05:55:42Z</time>
      </trkpt>
      <trkpt lat="44.23816" lon="6.79736">
        <ele>2432.6</ele>
        <time>2012-07-31T05:57:38Z</time>
      </trkpt>
      <trkpt lat="44.23816" lon="6.79738">
        <ele>2432.6</ele>
        <time>2012-07-31T05:57:39Z</time>
      </trkpt>
      <trkpt lat="44.23827" lon="6.79867">
        <ele>2448.8</ele>
        <time>2012-07-31T05:59:36Z</time>
      </trkpt>
      <trkpt lat="44.23827" lon="6.79868">
        <ele>2448.8</ele>
        <time>2012-07-31T05:59:37Z</time>
      </trkpt>
      <trkpt lat="44.24055" lon="6.79751">
        <ele>2514.5</ele>
        <time>2012-07-31T06:10:16Z</time>
      </trkpt>
      <trkpt lat="44.24055" lon="6.7975">
        <ele>2515</ele>
        <time>2012-07-31T06:10:17Z</time>
      </trkpt>
      <trkpt lat="44.24054" lon="6.79749">
        <ele>2515.1</ele>
        <time>2012-07-31T06:10:18Z</time>
      </trkpt>
      <trkpt lat="44.24054" lon="6.79747">
        <ele>2515.1</ele>
        <time>2012-07-31T06:10:19Z</time>
      </trkpt>
      <trkpt lat="44.24054" lon="6.79746">
        <ele>2515.3</ele>
        <time>2012-07-31T06:10:20Z</time>
      </trkpt>
      <trkpt lat="44.24054" lon="6.79746">
        <ele>2515.3</ele>
        <time>2012-07-31T06:10:21Z</time>
      </trkpt>
      <trkpt lat="44.24054" lon="6.79745">
        <ele>2515.5</ele>
        <time>2012-07-31T06:10:22Z</time>
      </trkpt>
      <trkpt lat="44.24054" lon="6.79744">
        <ele>2515.5</ele>
        <time>2012-07-31T06:10:23Z</time>
      </trkpt>
      <trkpt lat="44.24054" lon="6.79743">
        <ele>2515.6</ele>
        <time>2012-07-31T06:10:24Z</time>
      </trkpt>
      <trkpt lat="44.24054" lon="6.79742">
        <ele>2515.8</ele>
        <time>2012-07-31T06:10:25Z</time>
      </trkpt>
      <trkpt lat="44.24345" lon="6.79405">
        <ele>2599.3</ele>
        <time>2012-07-31T06:22:33Z</time>
      </trkpt>
      <trkpt lat="44.24346" lon="6.79404">
        <ele>2599.1</ele>
        <time>2012-07-31T06:22:34Z</time>
      </trkpt>
      <trkpt lat="44.24504" lon="6.79423">
        <ele>2633.3</ele>
        <time>2012-07-31T06:27:14Z</time>
      </trkpt>
      <trkpt lat="44.24504" lon="6.79422">
        <ele>2633.6</ele>
        <time>2012-07-31T06:27:15Z</time>
      </trkpt>
      <trkpt lat="44.24505" lon="6.79422">
        <ele>2633.6</ele>
        <time>2012-07-31T06:27:16Z</time>
      </trkpt>
      <trkpt lat="44.24505" lon="6.79421">
        <ele>2633.6</ele>
        <time>2012-07-31T06:27:17Z</time>
      </trkpt>
      <trkpt lat="44.24506" lon="6.7942">
        <ele>2633.5</ele>
        <time>2012-07-31T06:27:18Z</time>
      </trkpt>
      <trkpt lat="44.24506" lon="6.7942">
        <ele>2633.6</ele>
        <time>2012-07-31T06:27:19Z</time>
      </trkpt>
      <trkpt lat="44.24507" lon="6.7942">
        <ele>2633.8</ele>
        <time>2012-07-31T06:27:20Z</time>
      </trkpt>
      <trkpt lat="44.24508" lon="6.7942">
        <ele>2633.8</ele>
        <time>2012-07-31T06:27:21Z</time>
      </trkpt>
      <trkpt lat="44.2463" lon="6.79469">
        <ele>2705.6</ele>
        <time>2012-07-31T06:39:02Z</time>
      </trkpt>
      <trkpt lat="44.2463" lon="6.79468">
        <ele>2707.8</ele>
        <time>2012-07-31T06:39:03Z</time>
      </trkpt>
      <trkpt lat="44.24629" lon="6.79468">
        <ele>2709.8</ele>
        <time>2012-07-31T06:39:04Z</time>
      </trkpt>
      <trkpt lat="44.24629" lon="6.79468">
        <ele>2711</ele>
        <time>2012-07-31T06:39:05Z</time>
      </trkpt>
      <trkpt lat="44.24628" lon="6.79469">
        <ele>2711.8</ele>
        <time>2012-07-31T06:39:06Z</time>
      </trkpt>
      <trkpt lat="44.24628" lon="6.7947">
        <ele>2712.3</ele>
        <time>2012-07-31T06:39:07Z</time>
      </trkpt>
      <trkpt lat="44.24628" lon="6.79471">
        <ele>2713</ele>
        <time>2012-07-31T06:39:08Z</time>
      </trkpt>
      <trkpt lat="44.24628" lon="6.79472">
        <ele>2713.1</ele>
        <time>2012-07-31T06:39:09Z</time>
      </trkpt>
      <trkpt lat="44.24628" lon="6.79473">
        <ele>2713.3</ele>
        <time>2012-07-31T06:39:10Z</time>
      </trkpt>
      <trkpt lat="44.24627" lon="6.79474">
        <ele>2713.3</ele>
        <time>2012-07-31T06:39:11Z</time>
      </trkpt>
      <trkpt lat="44.24627" lon="6.79475">
        <ele>2713.3</ele>
        <time>2012-07-31T06:39:12Z</time>
      </trkpt>
      <trkpt lat="44.24627" lon="6.79476">
        <ele>2713.3</ele>
        <time>2012-07-31T06:39:13Z</time>
      </trkpt>
      <trkpt lat="44.24627" lon="6.79477">
        <ele>2713.6</ele>
        <time>2012-07-31T06:39:14Z</time>
      </trkpt>
      <trkpt lat="44.24627" lon="6.79478">
        <ele>2713.8</ele>
        <time>2012-07-31T06:39:15Z</time>
      </trkpt>
      <trkpt lat="44.24627" lon="6.79479">
        <ele>2713.8</ele>
        <time>2012-07-31T06:39:16Z</time>
      </trkpt>
      <trkpt lat="44.24626" lon="6.7948">
        <ele>2713.6</ele>
        <time>2012-07-31T06:39:17Z</time>
      </trkpt>
      <trkpt lat="44.24626" lon="6.7948">
        <ele>2713.3</ele>
        <time>2012-07-31T06:39:18Z</time>
      </trkpt>
      <trkpt lat="44.24626" lon="6.79481">
        <ele>2713.1</ele>
        <time>2012-07-31T06:39:19Z</time>
      </trkpt>
      <trkpt lat="44.24626" lon="6.79481">
        <ele>2712.6</ele>
        <time>2012-07-31T06:39:20Z</time>
      </trkpt>
      <trkpt lat="44.24626" lon="6.79482">
        <ele>2712.1</ele>
        <time>2012-07-31T06:39:21Z</time>
      </trkpt>
      <trkpt lat="44.24626" lon="6.79483">
        <ele>2711.3</ele>
        <time>2012-07-31T06:39:22Z</time>
      </trkpt>
      <trkpt lat="44.24626" lon="6.79484">
        <ele>2710.6</ele>
        <time>2012-07-31T06:39:23Z</time>
      </trkpt>
      <trkpt lat="44.24626" lon="6.79485">
        <ele>2709.5</ele>
        <time>2012-07-31T06:39:24Z</time>
      </trkpt>
      <trkpt lat="44.24625" lon="6.79487">
        <ele>2709.3</ele>
        <time>2012-07-31T06:39:25Z</time>
      </trkpt>
      <trkpt lat="44.24625" lon="6.79488">
        <ele>2708.5</ele>
        <time>2012-07-31T06:39:26Z</time>
      </trkpt>
      <trkpt lat="44.24625" lon="6.79489">
        <ele>2707.6</ele>
        <time>2012-07-31T06:39:27Z</time>
      </trkpt>
      <trkpt lat="44.24625" lon="6.7949">
        <ele>2707.1</ele>
        <time>2012-07-31T06:39:28Z</time>
      </trkpt>
      <trkpt lat="44.24625" lon="6.79491">
        <ele>2706.8</ele>
        <time>2012-07-31T06:39:29Z</time>
      </trkpt>
      <trkpt lat="44.24625" lon="6.79492">
        <ele>2706.5</ele>
        <time>2012-07-31T06:39:30Z</time>
      </trkpt>
      <trkpt lat="44.24625" lon="6.79493">
        <ele>2706.1</ele>
        <time>2012-07-31T06:39:31Z</time>
      </trkpt>
      <trkpt lat="44.24625" lon="6.79494">
        <ele>2706</ele>
        <time>2012-07-31T06:39:32Z</time>
      </trkpt>
      <trkpt lat="44.24625" lon="6.79495">
        <ele>2705.8</ele>
        <time>2012-07-31T06:39:33Z</time>
      </trkpt>
      <trkpt lat="44.24625" lon="6.79495">
        <ele>2705.8</ele>
        <time>2012-07-31T06:39:34Z</time>
      </trkpt>
      <trkpt lat="44.24625" lon="6.79495">
        <ele>2705.8</ele>
        <time>2012-07-31T06:39:35Z</time>
      </trkpt>
      <trkpt lat="44.24625" lon="6.79495">
        <ele>2706.1</ele>
        <time>2012-07-31T06:39:36Z</time>
      </trkpt>
      <trkpt lat="44.24625" lon="6.79494">
        <ele>2706.6</ele>
        <time>2012-07-31T06:39:37Z</time>
      </trkpt>
      <trkpt lat="44.24625" lon="6.79494">
        <ele>2707.3</ele>
        <time>2012-07-31T06:39:38Z</time>
      </trkpt>
      <trkpt lat="44.24625" lon="6.79494">
        <ele>2707</ele>
        <time>2012-07-31T06:39:39Z</time>
      </trkpt>
      <trkpt lat="44.24625" lon="6.79494">
        <ele>2706.5</ele>
        <time>2012-07-31T06:39:40Z</time>
      </trkpt>
      <trkpt lat="44.24625" lon="6.79494">
        <ele>2706.1</ele>
        <time>2012-07-31T06:39:41Z</time>
      </trkpt>
      <trkpt lat="44.24625" lon="6.79494">
        <ele>2705.8</ele>
        <time>2012-07-31T06:39:42Z</time>
      </trkpt>
      <trkpt lat="44.24625" lon="6.79494">
        <ele>2705.8</ele>
        <time>2012-07-31T06:39:43Z</time>
      </trkpt>
      <trkpt lat="44.24625" lon="6.79494">
        <ele>2705.8</ele>
        <time>2012-07-31T06:39:44Z</time>
      </trkpt>
      <trkpt lat="44.24625" lon="6.79494">
        <ele>2705.8</ele>
        <time>2012-07-31T06:39:45Z</time>
      </trkpt>
      <trkpt lat="44.24625" lon="6.79494">
        <ele>2705.8</ele>
        <time>2012-07-31T06:39:46Z</time>
      </trkpt>
      <trkpt lat="44.24624" lon="6.79494">
        <ele>2706</ele>
        <time>2012-07-31T06:39:47Z</time>
      </trkpt>
      <trkpt lat="44.24624" lon="6.79494">
        <ele>2706.1</ele>
        <time>2012-07-31T06:39:48Z</time>
      </trkpt>
      <trkpt lat="44.24624" lon="6.79494">
        <ele>2706.3</ele>
        <time>2012-07-31T06:39:49Z</time>
      </trkpt>
      <trkpt lat="44.24624" lon="6.79494">
        <ele>2706.1</ele>
        <time>2012-07-31T06:39:50Z</time>
      </trkpt>
      <trkpt lat="44.24624" lon="6.79493">
        <ele>2706.1</ele>
        <time>2012-07-31T06:39:51Z</time>
      </trkpt>
      <trkpt lat="44.24624" lon="6.79493">
        <ele>2706.3</ele>
        <time>2012-07-31T06:39:52Z</time>
      </trkpt>
      <trkpt lat="44.24624" lon="6.79493">
        <ele>2706.3</ele>
        <time>2012-07-31T06:39:53Z</time>
      </trkpt>
      <trkpt lat="44.24624" lon="6.79493">
        <ele>2706.5</ele>
        <time>2012-07-31T06:39:54Z</time>
      </trkpt>
      <trkpt lat="44.24624" lon="6.79493">
        <ele>2706.6</ele>
        <time>2012-07-31T06:39:55Z</time>
      </trkpt>
      <trkpt lat="44.24624" lon="6.79493">
        <ele>2706.6</ele>
        <time>2012-07-31T06:39:56Z</time>
      </trkpt>
      <trkpt lat="44.24624" lon="6.79493">
        <ele>2706.6</ele>
        <time>2012-07-31T06:39:57Z</time>
      </trkpt>
      <trkpt lat="44.24624" lon="6.79493">
        <ele>2706.5</ele>
        <time>2012-07-31T06:39:58Z</time>
      </trkpt>
      <trkpt lat="44.24624" lon="6.79493">
        <ele>2706.5</ele>
        <time>2012-07-31T06:39:59Z</time>
      </trkpt>
      <trkpt lat="44.24624" lon="6.79492">
        <ele>2706.3</ele>
        <time>2012-07-31T06:40:00Z</time>
      </trkpt>
      <trkpt lat="44.24624" lon="6.79492">
        <ele>2706.3</ele>
        <time>2012-07-31T06:40:01Z</time>
      </trkpt>
      <trkpt lat="44.24624" lon="6.79492">
        <ele>2706.3</ele>
        <time>2012-07-31T06:40:02Z</time>
      </trkpt>
      <trkpt lat="44.24624" lon="6.79492">
        <ele>2706.3</ele>
        <time>2012-07-31T06:40:03Z</time>
      </trkpt>
      <trkpt lat="44.24624" lon="6.79492">
        <ele>2706.3</ele>
        <time>2012-07-31T06:40:04Z</time>
      </trkpt>
      <trkpt lat="44.24625" lon="6.79492">
        <ele>2706.1</ele>
        <time>2012-07-31T06:40:05Z</time>
      </trkpt>
      <trkpt lat="44.24625" lon="6.79492">
        <ele>2706.1</ele>
        <time>2012-07-31T06:40:06Z</time>
      </trkpt>
      <trkpt lat="44.24625" lon="6.79492">
        <ele>2706.1</ele>
        <time>2012-07-31T06:40:07Z</time>
      </trkpt>
      <trkpt lat="44.24625" lon="6.79491">
        <ele>2706</ele>
        <time>2012-07-31T06:40:08Z</time>
      </trkpt>
      <trkpt lat="44.24625" lon="6.79491">
        <ele>2705.8</ele>
        <time>2012-07-31T06:40:09Z</time>
      </trkpt>
      <trkpt lat="44.24625" lon="6.79491">
        <ele>2705.8</ele>
        <time>2012-07-31T06:40:10Z</time>
      </trkpt>
      <trkpt lat="44.24625" lon="6.79491">
        <ele>2705.8</ele>
        <time>2012-07-31T06:40:11Z</time>
      </trkpt>
      <trkpt lat="44.24625" lon="6.79492">
        <ele>2705.8</ele>
        <time>2012-07-31T06:40:12Z</time>
      </trkpt>
      <trkpt lat="44.24624" lon="6.79492">
        <ele>2705.8</ele>
        <time>2012-07-31T06:40:13Z</time>
      </trkpt>
      <trkpt lat="44.24624" lon="6.79492">
        <ele>2706</ele>
        <time>2012-07-31T06:40:14Z</time>
      </trkpt>
      <trkpt lat="44.24624" lon="6.79492">
        <ele>2706</ele>
        <time>2012-07-31T06:40:15Z</time>
      </trkpt>
      <trkpt lat="44.24624" lon="6.79493">
        <ele>2705.8</ele>
        <time>2012-07-31T06:40:16Z</time>
      </trkpt>
      <trkpt lat="44.24624" lon="6.79493">
        <ele>2705.8</ele>
        <time>2012-07-31T06:40:17Z</time>
      </trkpt>
      <trkpt lat="44.24624" lon="6.79493">
        <ele>2705.6</ele>
        <time>2012-07-31T06:40:18Z</time>
      </trkpt>
      <trkpt lat="44.24624" lon="6.79492">
        <ele>2705.8</ele>
        <time>2012-07-31T06:40:19Z</time>
      </trkpt>
      <trkpt lat="44.24624" lon="6.79493">
        <ele>2706</ele>
        <time>2012-07-31T06:40:20Z</time>
      </trkpt>
      <trkpt lat="44.24624" lon="6.79493">
        <ele>2706.1</ele>
        <time>2012-07-31T06:40:21Z</time>
      </trkpt>
      <trkpt lat="44.24624" lon="6.79492">
        <ele>2706</ele>
        <time>2012-07-31T06:40:22Z</time>
      </trkpt>
      <trkpt lat="44.24624" lon="6.79493">
        <ele>2705.8</ele>
        <time>2012-07-31T06:40:23Z</time>
      </trkpt>
      <trkpt lat="44.24624" lon="6.79493">
        <ele>2705.8</ele>
        <time>2012-07-31T06:40:24Z</time>
      </trkpt>
      <trkpt lat="44.24624" lon="6.79494">
        <ele>2705.8</ele>
        <time>2012-07-31T06:40:25Z</time>
      </trkpt>
      <trkpt lat="44.24624" lon="6.79495">
        <ele>2706.3</ele>
        <time>2012-07-31T06:40:26Z</time>
      </trkpt>
      <trkpt lat="44.24561" lon="6.79695">
        <ele>2745.6</ele>
        <time>2012-07-31T06:44:45Z</time>
      </trkpt>
      <trkpt lat="44.2456" lon="6.79696">
        <ele>2746</ele>
        <time>2012-07-31T06:44:46Z</time>
      </trkpt>
      <trkpt lat="44.24456" lon="6.79745">
        <ele>2777.1</ele>
        <time>2012-07-31T06:48:08Z</time>
      </trkpt>
      <trkpt lat="44.24455" lon="6.79745">
        <ele>2777.1</ele>
        <time>2012-07-31T06:48:09Z</time>
      </trkpt>
      <trkpt lat="44.24393" lon="6.79768">
        <ele>2809.3</ele>
        <time>2012-07-31T06:53:27Z</time>
      </trkpt>
      <trkpt lat="44.24393" lon="6.79767">
        <ele>2809</ele>
        <time>2012-07-31T06:53:28Z</time>
      </trkpt>
      <trkpt lat="44.24393" lon="6.79768">
        <ele>2809</ele>
        <time>2012-07-31T06:53:29Z</time>
      </trkpt>
      <trkpt lat="44.24394" lon="6.79768">
        <ele>2809</ele>
        <time>2012-07-31T06:53:30Z</time>
      </trkpt>
      <trkpt lat="44.24393" lon="6.79768">
        <ele>2809.5</ele>
        <time>2012-07-31T06:53:31Z</time>
      </trkpt>
      <trkpt lat="44.24394" lon="6.79768">
        <ele>2809.5</ele>
        <time>2012-07-31T06:53:32Z</time>
      </trkpt>
      <trkpt lat="44.24395" lon="6.79772">
        <ele>2812.8</ele>
        <time>2012-07-31T06:53:44Z</time>
      </trkpt>
      <trkpt lat="44.24395" lon="6.79774">
        <ele>2812.6</ele>
        <time>2012-07-31T06:53:45Z</time>
      </trkpt>
      <trkpt lat="44.24494" lon="6.80151">
        <ele>2877.5</ele>
        <time>2012-07-31T07:08:20Z</time>
      </trkpt>
      <trkpt lat="44.24494" lon="6.80152">
        <ele>2877.3</ele>
        <time>2012-07-31T07:08:21Z</time>
      </trkpt>
    </trkseg>
  </trk>
</gpx>